Darstellungsparameter: Aktuell verwendete Einstellungen:
Skalierung der Graphiken ... ?
xyx+y,   Skalierungsfaktor:      Skalierung: Modus: x, Faktor: 1
Darstellungszeitraum ... ?
Vom - - bis: - -   Zeitraum: 05.02.2020 - 04.03.2020
Min/Max/Avg-Anzeige ... ?
Zeige MMA aktuell
Zeige MMA Monat
Zeige MMA alles
Zeige --A aktuell
Zeige --A Monat
Zeige --A alles
Keine MMA-Anzeige
MMA:
Keine MMA-Graphiken
MMA-Basis: 05.02.2020 - 04.03.2020
Quicknavigation für Darstellung... ?
Tage:      1T, 2T, 3T, 5T -1T -2T -3T -5T +1T +2T +3T +5T
Wochen: 1W, 2W, 3W -1W -2W -3W +1W +2W +3W
Monate: 1M, 3M, 6M -1M -3M -6M +1M +3M +6M
Jahre:    1J, 3J, 5J, 10J -1J -3J -5J -10J +1J +3J +5J +10J
Nutze für die Darstellung ... ?
Originaldaten oder Mittelwerte auf ...
Stundenbasis Tagesbasis Wochenbasis
Monatsbasis Jahresbasis      Datenbasis: Original-Daten
Darstellen als:
Statistik (Auto) Statistik J:M      Darstellung:
Zur Graphik,    zurück zur Übersicht aller Sensoren.
 
Tabellarische Datenbersicht: ?
 
Sensor: Nr:Datum:Temp:Feuchte:Taupunkt:
Aussen-T/F 1 05-02-2020 00:00:00 4.7 C 91 % 3.36 C
2 05-02-2020 00:05:00 4.7 C 91 % 3.36 C
3 05-02-2020 00:10:00 4.7 C 91 % 3.36 C
4 05-02-2020 00:15:00 4.8 C 91 % 3.46 C
5 05-02-2020 00:20:00 4.8 C 91 % 3.46 C
6 05-02-2020 00:25:00 4.8 C 91 % 3.46 C
7 05-02-2020 00:30:00 4.8 C 91 % 3.46 C
8 05-02-2020 00:35:00 4.8 C 91 % 3.46 C
9 05-02-2020 00:40:00 4.8 C 90 % 3.3 C
10 05-02-2020 00:45:00 4.8 C 90 % 3.3 C
11 05-02-2020 00:50:00 4.9 C 90 % 3.4 C
12 05-02-2020 00:55:00 4.9 C 90 % 3.4 C
13 05-02-2020 01:00:00 4.9 C 89 % 3.24 C
14 05-02-2020 01:05:00 5.1 C 88 % 3.28 C
15 05-02-2020 01:10:00 5.1 C 88 % 3.28 C
16 05-02-2020 01:15:00 5.2 C 88 % 3.38 C
17 05-02-2020 01:20:00 5.2 C 87 % 3.22 C
18 05-02-2020 01:25:00 5.2 C 87 % 3.22 C
19 05-02-2020 01:30:00 5.2 C 86 % 3.05 C
20 05-02-2020 01:35:00 5.3 C 87 % 3.32 C
21 05-02-2020 01:40:00 5.3 C 87 % 3.32 C
22 05-02-2020 01:45:00 5.3 C 87 % 3.32 C
23 05-02-2020 01:50:00 5.3 C 87 % 3.32 C
24 05-02-2020 01:55:00 5.3 C 86 % 3.15 C
25 05-02-2020 02:00:00 5.4 C 86 % 3.25 C
Sensor: Nr:Datum:Temp:Feuchte:Taupunkt:
Aussen-T/F 26 05-02-2020 02:05:00 5.4 C 86 % 3.25 C
27 05-02-2020 02:10:00 5.4 C 86 % 3.25 C
28 05-02-2020 02:15:00 5.5 C 86 % 3.35 C
29 05-02-2020 02:20:00 5.5 C 86 % 3.35 C
30 05-02-2020 02:25:00 5.5 C 86 % 3.35 C
31 05-02-2020 02:30:00 5.5 C 86 % 3.35 C
32 05-02-2020 02:35:00 5.5 C 86 % 3.35 C
33 05-02-2020 02:40:00 5.4 C 86 % 3.25 C
34 05-02-2020 02:45:00 5.4 C 87 % 3.41 C
35 05-02-2020 02:50:00 5.4 C 87 % 3.41 C
36 05-02-2020 02:55:00 5.4 C 88 % 3.58 C
37 05-02-2020 03:00:00 5.4 C 88 % 3.58 C
38 05-02-2020 03:05:00 5.4 C 89 % 3.74 C
39 05-02-2020 03:10:00 5.4 C 89 % 3.74 C
40 05-02-2020 03:15:00 5.4 C 89 % 3.74 C
41 05-02-2020 03:20:00 5.4 C 89 % 3.74 C
42 05-02-2020 03:25:00 5.4 C 90 % 3.89 C
43 05-02-2020 03:30:00 5.3 C 90 % 3.8 C
44 05-02-2020 03:35:00 5.3 C 90 % 3.8 C
45 05-02-2020 03:40:00 5.3 C 90 % 3.8 C
46 05-02-2020 03:45:00 5.2 C 90 % 3.7 C
47 05-02-2020 03:50:00 5.1 C 90 % 3.6 C
48 05-02-2020 03:55:00 5 C 90 % 3.5 C
49 05-02-2020 04:00:00 4.9 C 90 % 3.4 C
50 05-02-2020 04:05:00 4.7 C 90 % 3.2 C
Sensor: Nr:Datum:Temp:Feuchte:Taupunkt:
Aussen-T/F 51 05-02-2020 04:10:00 4.7 C 90 % 3.2 C
52 05-02-2020 04:15:00 4.6 C 90 % 3.1 C
53 05-02-2020 04:20:00 4.6 C 90 % 3.1 C
54 05-02-2020 04:25:00 4.6 C 90 % 3.1 C
55 05-02-2020 04:30:00 4.6 C 90 % 3.1 C
56 05-02-2020 04:35:00 4.6 C 91 % 3.26 C
57 05-02-2020 04:40:00 4.6 C 91 % 3.26 C
58 05-02-2020 04:45:00 4.6 C 90 % 3.1 C
59 05-02-2020 04:50:00 4.5 C 90 % 3.01 C
60 05-02-2020 04:55:00 4.5 C 90 % 3.01 C
61 05-02-2020 05:00:00 4.4 C 90 % 2.91 C
62 05-02-2020 05:05:00 4.4 C 90 % 2.91 C
63 05-02-2020 05:10:00 4.4 C 90 % 2.91 C
64 05-02-2020 05:15:00 4.3 C 90 % 2.81 C
65 05-02-2020 05:20:00 4.2 C 90 % 2.71 C
66 05-02-2020 05:25:00 4.1 C 90 % 2.61 C
67 05-02-2020 05:30:00 4 C 91 % 2.67 C
68 05-02-2020 05:35:00 3.9 C 91 % 2.57 C
69 05-02-2020 05:40:00 4.1 C 92 % 2.92 C
70 05-02-2020 05:45:00 4.1 C 91 % 2.77 C
71 05-02-2020 05:50:00 4 C 91 % 2.67 C
72 05-02-2020 05:55:00 4 C 92 % 2.82 C
73 05-02-2020 06:00:00 4.1 C 92 % 2.92 C
74 05-02-2020 06:05:00 4.2 C 92 % 3.02 C
75 05-02-2020 06:10:00 4.3 C 92 % 3.12 C
Sensor: Nr:Datum:Temp:Feuchte:Taupunkt:
Aussen-T/F 76 05-02-2020 06:15:00 4.4 C 92 % 3.22 C
77 05-02-2020 06:20:00 4.5 C 92 % 3.32 C
78 05-02-2020 06:25:00 4.6 C 91 % 3.26 C
79 05-02-2020 06:30:00 4.6 C 91 % 3.26 C
80 05-02-2020 06:35:00 4.6 C 91 % 3.26 C
81 05-02-2020 06:40:00 4.6 C 91 % 3.26 C
82 05-02-2020 06:45:00 4.6 C 91 % 3.26 C
83 05-02-2020 06:50:00 4.6 C 91 % 3.26 C
84 05-02-2020 06:55:00 4.4 C 90 % 2.91 C
85 05-02-2020 07:00:00 4.4 C 90 % 2.91 C
86 05-02-2020 07:05:00 4.3 C 90 % 2.81 C
87 05-02-2020 07:10:00 4.3 C 90 % 2.81 C
88 05-02-2020 07:15:00 4.3 C 90 % 2.81 C
89 05-02-2020 07:20:00 4.2 C 90 % 2.71 C
90 05-02-2020 07:25:00 4.1 C 89 % 2.45 C
91 05-02-2020 07:30:00 4.1 C 89 % 2.45 C
92 05-02-2020 07:35:00 4 C 89 % 2.36 C
93 05-02-2020 07:40:00 3.8 C 90 % 2.31 C
94 05-02-2020 07:45:00 3.7 C 90 % 2.22 C
95 05-02-2020 07:50:00 3.7 C 90 % 2.22 C
96 05-02-2020 07:55:00 3.6 C 91 % 2.27 C
97 05-02-2020 08:00:00 3.6 C 91 % 2.27 C
98 05-02-2020 08:05:00 3.5 C 91 % 2.17 C
99 05-02-2020 08:10:00 3.4 C 91 % 2.07 C
100 05-02-2020 08:15:00 3.3 C 92 % 2.13 C
Sensor: Nr:Datum:Temp:Feuchte:Taupunkt:
Aussen-T/F 101 05-02-2020 08:20:00 3.3 C 91 % 1.98 C
102 05-02-2020 08:25:00 3.2 C 91 % 1.88 C
103 05-02-2020 08:30:00 3 C 91 % 1.68 C
104 05-02-2020 08:35:00 2.9 C 92 % 1.73 C
105 05-02-2020 08:40:00 2.9 C 92 % 1.73 C
106 05-02-2020 08:45:00 2.8 C 92 % 1.63 C
107 05-02-2020 08:50:00 2.7 C 92 % 1.53 C
108 05-02-2020 08:55:00 2.6 C 92 % 1.43 C
109 05-02-2020 09:00:00 2.6 C 92 % 1.43 C
110 05-02-2020 09:05:00 2.5 C 92 % 1.34 C
111 05-02-2020 09:10:00 2.6 C 93 % 1.59 C
112 05-02-2020 09:15:00 2.7 C 93 % 1.68 C
113 05-02-2020 09:20:00 2.8 C 93 % 1.78 C
114 05-02-2020 09:25:00 2.8 C 93 % 1.78 C
115 05-02-2020 09:30:00 2.8 C 93 % 1.78 C
116 05-02-2020 09:35:00 2.8 C 93 % 1.78 C
117 05-02-2020 09:40:00 2.9 C 94 % 2.03 C
118 05-02-2020 09:45:00 3 C 94 % 2.13 C
119 05-02-2020 09:50:00 3.2 C 94 % 2.33 C
120 05-02-2020 09:55:00 3.3 C 94 % 2.43 C
121 05-02-2020 10:00:00 3.5 C 95 % 2.78 C
122 05-02-2020 10:05:00 3.7 C 94 % 2.83 C
123 05-02-2020 10:10:00 3.8 C 94 % 2.93 C
124 05-02-2020 10:15:00 3.9 C 94 % 3.02 C
125 05-02-2020 10:20:00 4 C 93 % 2.97 C
Sensor: Nr:Datum:Temp:Feuchte:Taupunkt:
Aussen-T/F 126 05-02-2020 10:25:00 4.2 C 92 % 3.02 C
127 05-02-2020 10:30:00 4.4 C 88 % 2.59 C
128 05-02-2020 10:35:00 4.6 C 86 % 2.47 C
129 05-02-2020 10:40:00 4.8 C 85 % 2.5 C
130 05-02-2020 10:45:00 5 C 84 % 2.53 C
131 05-02-2020 10:50:00 5.2 C 84 % 2.72 C
132 05-02-2020 10:55:00 5.3 C 83 % 2.65 C
133 05-02-2020 11:00:00 5.3 C 82 % 2.48 C
134 05-02-2020 11:05:00 5.3 C 82 % 2.48 C
135 05-02-2020 11:10:00 5.3 C 81 % 2.31 C
136 05-02-2020 11:15:00 5.3 C 81 % 2.31 C
137 05-02-2020 11:20:00 5.4 C 82 % 2.58 C
138 05-02-2020 11:25:00 5.5 C 82 % 2.68 C
139 05-02-2020 11:30:00 5.5 C 81 % 2.51 C
140 05-02-2020 11:35:00 5.5 C 82 % 2.68 C
141 05-02-2020 11:40:00 5.5 C 82 % 2.68 C
142 05-02-2020 11:45:00 5.4 C 81 % 2.41 C
143 05-02-2020 11:50:00 5.5 C 81 % 2.51 C
144 05-02-2020 11:55:00 5.6 C 81 % 2.6 C
145 05-02-2020 12:00:00 5.7 C 80 % 2.53 C
146 05-02-2020 12:05:00 5.7 C 80 % 2.53 C
147 05-02-2020 12:10:00 5.8 C 80 % 2.62 C
148 05-02-2020 12:15:00 5.8 C 79 % 2.45 C
149 05-02-2020 12:20:00 5.9 C 79 % 2.54 C
150 05-02-2020 12:25:00 5.9 C 78 % 2.37 C
Sensor: Nr:Datum:Temp:Feuchte:Taupunkt:
Aussen-T/F 151 05-02-2020 12:30:00 5.9 C 78 % 2.37 C
152 05-02-2020 12:35:00 5.9 C 77 % 2.19 C
153 05-02-2020 12:40:00 5.9 C 78 % 2.37 C
154 05-02-2020 12:45:00 5.9 C 79 % 2.54 C
155 05-02-2020 12:50:00 5.9 C 79 % 2.54 C
156 05-02-2020 12:55:00 6 C 79 % 2.64 C
157 05-02-2020 13:00:00 6.1 C 77 % 2.38 C
158 05-02-2020 13:05:00 6.1 C 76 % 2.2 C
159 05-02-2020 13:10:00 6 C 76 % 2.1 C
160 05-02-2020 13:15:00 6 C 77 % 2.28 C
161 05-02-2020 13:20:00 5.9 C 77 % 2.19 C
162 05-02-2020 13:25:00 5.9 C 77 % 2.19 C
163 05-02-2020 13:30:00 6.1 C 77 % 2.38 C
164 05-02-2020 13:35:00 6.1 C 76 % 2.2 C
165 05-02-2020 13:40:00 6.2 C 77 % 2.48 C
166 05-02-2020 13:45:00 6.2 C 77 % 2.48 C
167 05-02-2020 13:50:00 6.2 C 75 % 2.11 C
168 05-02-2020 13:55:00 6.3 C 75 % 2.2 C
169 05-02-2020 14:00:00 6.3 C 75 % 2.2 C
170 05-02-2020 14:05:00 6.3 C 75 % 2.2 C
171 05-02-2020 14:10:00 6.4 C 74 % 2.11 C
172 05-02-2020 14:15:00 6.5 C 76 % 2.58 C
173 05-02-2020 14:20:00 6.5 C 73 % 2.02 C
174 05-02-2020 14:25:00 6.6 C 75 % 2.49 C
175 05-02-2020 14:30:00 6.5 C 76 % 2.58 C
Sensor: Nr:Datum:Temp:Feuchte:Taupunkt:
Aussen-T/F 176 05-02-2020 14:35:00 6.4 C 78 % 2.85 C
177 05-02-2020 14:40:00 6.3 C 78 % 2.75 C
178 05-02-2020 14:45:00 6.2 C 75 % 2.11 C
179 05-02-2020 14:50:00 6.2 C 78 % 2.66 C
180 05-02-2020 14:55:00 6.1 C 78 % 2.56 C
181 05-02-2020 15:00:00 6 C 78 % 2.46 C
182 05-02-2020 15:05:00 5.8 C 79 % 2.45 C
183 05-02-2020 15:10:00 5.7 C 78 % 2.17 C
184 05-02-2020 15:15:00 5.7 C 80 % 2.53 C
185 05-02-2020 15:20:00 5.7 C 80 % 2.53 C
186 05-02-2020 15:25:00 5.6 C 81 % 2.6 C
187 05-02-2020 15:30:00 5.5 C 82 % 2.68 C
188 05-02-2020 15:35:00 5.4 C 82 % 2.58 C
189 05-02-2020 15:40:00 5.4 C 82 % 2.58 C
190 05-02-2020 15:45:00 5.4 C 83 % 2.75 C
191 05-02-2020 15:50:00 5.3 C 83 % 2.65 C
192 05-02-2020 15:55:00 5.3 C 83 % 2.65 C
193 05-02-2020 16:00:00 5.2 C 83 % 2.56 C
194 05-02-2020 16:05:00 5.2 C 83 % 2.56 C
195 05-02-2020 16:10:00 5.2 C 84 % 2.72 C
196 05-02-2020 16:15:00 5.1 C 84 % 2.63 C
197 05-02-2020 16:20:00 5 C 85 % 2.69 C
198 05-02-2020 16:25:00 4.9 C 84 % 2.43 C
199 05-02-2020 16:30:00 4.8 C 84 % 2.33 C
200 05-02-2020 16:35:00 4.8 C 85 % 2.5 C
Sensor: Nr:Datum:Temp:Feuchte:Taupunkt:
Aussen-T/F 201 05-02-2020 16:40:00 4.7 C 85 % 2.4 C
202 05-02-2020 16:45:00 4.6 C 85 % 2.3 C
203 05-02-2020 16:50:00 4.5 C 86 % 2.37 C
204 05-02-2020 16:55:00 4.4 C 86 % 2.27 C
205 05-02-2020 17:00:00 4.3 C 86 % 2.17 C
206 05-02-2020 17:05:00 4.2 C 87 % 2.23 C
207 05-02-2020 17:10:00 4 C 87 % 2.04 C
208 05-02-2020 17:15:00 3.9 C 87 % 1.94 C
209 05-02-2020 17:20:00 3.8 C 87 % 1.84 C
210 05-02-2020 17:25:00 3.7 C 88 % 1.9 C
211 05-02-2020 17:30:00 3.6 C 88 % 1.8 C
212 05-02-2020 17:35:00 3.5 C 88 % 1.7 C
213 05-02-2020 17:40:00 3.4 C 89 % 1.76 C
214 05-02-2020 17:45:00 3.3 C 89 % 1.67 C
215 05-02-2020 17:50:00 3.2 C 89 % 1.57 C
216 05-02-2020 17:55:00 3.2 C 89 % 1.57 C
217 05-02-2020 18:00:00 3.1 C 89 % 1.47 C
218 05-02-2020 18:05:00 3 C 89 % 1.37 C
219 05-02-2020 18:10:00 2.9 C 89 % 1.27 C
220 05-02-2020 18:15:00 2.8 C 89 % 1.17 C
221 05-02-2020 18:20:00 2.7 C 89 % 1.07 C
222 05-02-2020 18:25:00 2.6 C 89 % 0.97 C
223 05-02-2020 18:30:00 2.4 C 89 % 0.78 C
224 05-02-2020 18:35:00 2.2 C 89 % 0.58 C
225 05-02-2020 18:40:00 2.1 C 90 % 0.64 C
Sensor: Nr:Datum:Temp:Feuchte:Taupunkt:
Aussen-T/F 226 05-02-2020 18:45:00 2 C 90 % 0.54 C
227 05-02-2020 18:50:00 1.9 C 91 % 0.59 C
228 05-02-2020 18:55:00 1.8 C 91 % 0.49 C
229 05-02-2020 19:00:00 1.8 C 91 % 0.49 C
230 05-02-2020 19:05:00 1.7 C 91 % 0.39 C
231 05-02-2020 19:10:00 1.7 C 92 % 0.54 C
232 05-02-2020 19:15:00 1.6 C 92 % 0.44 C
233 05-02-2020 19:20:00 1.4 C 92 % 0.25 C
234 05-02-2020 19:25:00 1.3 C 92 % 0.15 C
235 05-02-2020 19:30:00 1.2 C 92 % 0.05 C
236 05-02-2020 19:35:00 1.2 C 92 % 0.05 C
237 05-02-2020 19:40:00 1.1 C 92 % -0.05 C
238 05-02-2020 19:45:00 1 C 92 % -0.15 C
239 05-02-2020 19:50:00 0.9 C 92 % -0.25 C
240 05-02-2020 19:55:00 0.8 C 93 % -0.2 C
241 05-02-2020 20:00:00 0.7 C 93 % -0.3 C
242 05-02-2020 20:05:00 0.7 C 93 % -0.3 C
243 05-02-2020 20:10:00 0.7 C 93 % -0.3 C
244 05-02-2020 20:15:00 0.7 C 93 % -0.3 C
245 05-02-2020 20:20:00 0.7 C 93 % -0.3 C
246 05-02-2020 20:25:00 0.6 C 93 % -0.4 C
247 05-02-2020 20:30:00 0.5 C 93 % -0.5 C
248 05-02-2020 20:35:00 0.4 C 93 % -0.6 C
249 05-02-2020 20:40:00 0.3 C 93 % -0.7 C
250 05-02-2020 20:45:00 0.3 C 94 % -0.55 C
Sensor: Nr:Datum:Temp:Feuchte:Taupunkt:
Aussen-T/F 251 05-02-2020 20:50:00 0.4 C 94 % -0.45 C
252 05-02-2020 20:55:00 0.3 C 94 % -0.55 C
253 05-02-2020 21:00:00 0.4 C 94 % -0.45 C
254 05-02-2020 21:05:00 0.3 C 94 % -0.55 C
255 05-02-2020 21:10:00 0.3 C 94 % -0.55 C
256 05-02-2020 21:15:00 0.4 C 94 % -0.45 C
257 05-02-2020 21:20:00 0.3 C 94 % -0.55 C
258 05-02-2020 21:25:00 0.3 C 94 % -0.55 C
259 05-02-2020 21:30:00 0.3 C 94 % -0.55 C
260 05-02-2020 21:35:00 0.2 C 94 % -0.65 C
261 05-02-2020 21:40:00 0.1 C 94 % -0.75 C
262 05-02-2020 21:45:00 0.1 C 94 % -0.75 C
263 05-02-2020 21:50:00 0 C 94 % -0.85 C
264 05-02-2020 21:55:00 -0.1 C 94 % -0.95 C
265 05-02-2020 22:00:00 -0.1 C 94 % -0.95 C
266 05-02-2020 22:05:00 -0.1 C 94 % -0.95 C
267 05-02-2020 22:10:00 -0.1 C 94 % -0.95 C
268 05-02-2020 22:15:00 -0.1 C 95 % -0.8 C
269 05-02-2020 22:20:00 -0.1 C 95 % -0.8 C
270 05-02-2020 22:25:00 -0.1 C 94 % -0.95 C
271 05-02-2020 22:30:00 -0.2 C 94 % -1.05 C
272 05-02-2020 22:35:00 -0.2 C 94 % -1.05 C
273 05-02-2020 22:40:00 -0.2 C 95 % -0.9 C
274 05-02-2020 22:45:00 -0.2 C 95 % -0.9 C
275 05-02-2020 22:50:00 -0.3 C 95 % -1 C
Sensor: Nr:Datum:Temp:Feuchte:Taupunkt:
Aussen-T/F 276 05-02-2020 22:55:00 -0.3 C 95 % -1 C
277 05-02-2020 23:00:00 -0.2 C 95 % -0.9 C
278 05-02-2020 23:05:00 -0.2 C 95 % -0.9 C
279 05-02-2020 23:10:00 -0.2 C 95 % -0.9 C
280 05-02-2020 23:15:00 -0.1 C 95 % -0.8 C
281 05-02-2020 23:20:00 0 C 95 % -0.7 C
282 05-02-2020 23:25:00 0 C 95 % -0.7 C
283 05-02-2020 23:30:00 -0.1 C 95 % -0.8 C
284 05-02-2020 23:35:00 -0.2 C 95 % -0.9 C
285 05-02-2020 23:40:00 -0.2 C 95 % -0.9 C
286 05-02-2020 23:45:00 -0.2 C 95 % -0.9 C
287 05-02-2020 23:50:00 -0.3 C 95 % -1 C
288 05-02-2020 23:55:00 -0.3 C 95 % -1 C
289 06-02-2020 00:00:00 -0.4 C 95 % -1.1 C
290 06-02-2020 00:05:00 -0.4 C 95 % -1.1 C
291 06-02-2020 00:10:00 -0.4 C 95 % -1.1 C
292 06-02-2020 00:15:00 -0.4 C 95 % -1.1 C
293 06-02-2020 00:20:00 -0.4 C 95 % -1.1 C
294 06-02-2020 00:25:00 -0.3 C 95 % -1 C
295 06-02-2020 00:30:00 -0.3 C 95 % -1 C
296 06-02-2020 00:35:00 -0.3 C 95 % -1 C
297 06-02-2020 00:40:00 -0.4 C 95 % -1.1 C
298 06-02-2020 00:45:00 -0.3 C 95 % -1 C
299 06-02-2020 00:50:00 -0.3 C 95 % -1 C
300 06-02-2020 00:55:00 -0.3 C 95 % -1 C
Sensor: Nr:Datum:Temp:Feuchte:Taupunkt:
Aussen-T/F 301 06-02-2020 01:00:00 -0.3 C 95 % -1 C
302 06-02-2020 01:05:00 -0.3 C 95 % -1 C
303 06-02-2020 01:10:00 -0.2 C 96 % -0.76 C
304 06-02-2020 01:15:00 -0.1 C 96 % -0.66 C
305 06-02-2020 01:20:00 0 C 96 % -0.56 C
306 06-02-2020 01:25:00 0 C 96 % -0.56 C
307 06-02-2020 01:30:00 0 C 96 % -0.56 C
308 06-02-2020 01:35:00 0 C 96 % -0.56 C
309 06-02-2020 01:40:00 -0.1 C 96 % -0.66 C
310 06-02-2020 01:45:00 -0.1 C 95 % -0.8 C
311 06-02-2020 01:50:00 -0.2 C 95 % -0.9 C
312 06-02-2020 01:55:00 -0.2 C 95 % -0.9 C
313 06-02-2020 02:00:00 -0.2 C 95 % -0.9 C
314 06-02-2020 02:05:00 -0.2 C 95 % -0.9 C
315 06-02-2020 02:10:00 -0.2 C 95 % -0.9 C
316 06-02-2020 02:15:00 -0.1 C 95 % -0.8 C
317 06-02-2020 02:20:00 -0.1 C 95 % -0.8 C
318 06-02-2020 02:25:00 -0.2 C 95 % -0.9 C
319 06-02-2020 02:30:00 -0.1 C 95 % -0.8 C
320 06-02-2020 02:35:00 -0.2 C 95 % -0.9 C
321 06-02-2020 02:40:00 -0.2 C 95 % -0.9 C
322 06-02-2020 02:45:00 -0.1 C 96 % -0.66 C
323 06-02-2020 02:50:00 -0.1 C 96 % -0.66 C
324 06-02-2020 02:55:00 -0.2 C 95 % -0.9 C
325 06-02-2020 03:00:00 -0.3 C 95 % -1 C
Sensor: Nr:Datum:Temp:Feuchte:Taupunkt:
Aussen-T/F 326 06-02-2020 03:05:00 -0.4 C 95 % -1.1 C
327 06-02-2020 03:10:00 -0.5 C 95 % -1.2 C
328 06-02-2020 03:15:00 -0.6 C 95 % -1.3 C
329 06-02-2020 03:20:00 -0.7 C 95 % -1.4 C
330 06-02-2020 03:25:00 -0.7 C 95 % -1.4 C
331 06-02-2020 03:30:00 -0.7 C 95 % -1.4 C
332 06-02-2020 03:35:00 -0.7 C 95 % -1.4 C
333 06-02-2020 03:40:00 -0.7 C 95 % -1.4 C
334 06-02-2020 03:45:00 -0.8 C 95 % -1.5 C
335 06-02-2020 03:50:00 -0.8 C 95 % -1.5 C
336 06-02-2020 03:55:00 -0.8 C 95 % -1.5 C
337 06-02-2020 04:00:00 -0.8 C 95 % -1.5 C
338 06-02-2020 04:05:00 -0.8 C 95 % -1.5 C
339 06-02-2020 04:10:00 -0.8 C 95 % -1.5 C
340 06-02-2020 04:15:00 -0.8 C 96 % -1.36 C
341 06-02-2020 04:20:00 -0.8 C 96 % -1.36 C
342 06-02-2020 04:25:00 -0.8 C 96 % -1.36 C
343 06-02-2020 04:30:00 -0.7 C 96 % -1.26 C
344 06-02-2020 04:35:00 -0.7 C 96 % -1.26 C
345 06-02-2020 04:40:00 -0.6 C 96 % -1.16 C
346 06-02-2020 04:45:00 -0.6 C 96 % -1.16 C
347 06-02-2020 04:50:00 -0.7 C 96 % -1.26 C
348 06-02-2020 04:55:00 -0.7 C 96 % -1.26 C
349 06-02-2020 05:00:00 -0.7 C 96 % -1.26 C
350 06-02-2020 05:05:00 -0.7 C 96 % -1.26 C
Sensor: Nr:Datum:Temp:Feuchte:Taupunkt:
Aussen-T/F 351 06-02-2020 05:10:00 -0.7 C 96 % -1.26 C
352 06-02-2020 05:15:00 -0.7 C 96 % -1.26 C
353 06-02-2020 05:20:00 -0.8 C 96 % -1.36 C
354 06-02-2020 05:25:00 -0.8 C 96 % -1.36 C
355 06-02-2020 05:30:00 -0.8 C 96 % -1.36 C
356 06-02-2020 05:35:00 -0.9 C 96 % -1.46 C
357 06-02-2020 05:40:00 -0.9 C 96 % -1.46 C
358 06-02-2020 05:45:00 -1 C 96 % -1.56 C
359 06-02-2020 05:50:00 -1.1 C 96 % -1.66 C
360 06-02-2020 05:55:00 -1.1 C 96 % -1.66 C
361 06-02-2020 06:00:00 -1.1 C 96 % -1.66 C
362 06-02-2020 06:05:00 -1.1 C 96 % -1.66 C
363 06-02-2020 06:10:00 -0.9 C 96 % -1.46 C
364 06-02-2020 06:15:00 -0.9 C 96 % -1.46 C
365 06-02-2020 06:20:00 -0.8 C 96 % -1.36 C
366 06-02-2020 06:25:00 -0.9 C 96 % -1.46 C
367 06-02-2020 06:30:00 -0.9 C 96 % -1.46 C
368 06-02-2020 06:35:00 -1.1 C 96 % -1.66 C
369 06-02-2020 06:40:00 -1.1 C 96 % -1.66 C
370 06-02-2020 06:45:00 -1.2 C 96 % -1.75 C
371 06-02-2020 06:50:00 -1.2 C 96 % -1.75 C
372 06-02-2020 06:55:00 -1.3 C 96 % -1.85 C
373 06-02-2020 07:00:00 -1.3 C 96 % -1.85 C
374 06-02-2020 07:05:00 -1.4 C 96 % -1.95 C
375 06-02-2020 07:10:00 -1.3 C 96 % -1.85 C
Sensor: Nr:Datum:Temp:Feuchte:Taupunkt:
Aussen-T/F 376 06-02-2020 07:15:00 -1.3 C 96 % -1.85 C
377 06-02-2020 07:20:00 -1.4 C 96 % -1.95 C
378 06-02-2020 07:25:00 -1.3 C 96 % -1.85 C
379 06-02-2020 07:30:00 -1.3 C 96 % -1.85 C
380 06-02-2020 07:35:00 -1.3 C 96 % -1.85 C
381 06-02-2020 07:40:00 -1.2 C 96 % -1.75 C
382 06-02-2020 07:45:00 -1.2 C 96 % -1.75 C
383 06-02-2020 07:50:00 -1.2 C 96 % -1.75 C
384 06-02-2020 07:55:00 -1.1 C 96 % -1.66 C
385 06-02-2020 08:00:00 -1.1 C 96 % -1.66 C
386 06-02-2020 08:05:00 -1.1 C 96 % -1.66 C
387 06-02-2020 08:10:00 -1.1 C 96 % -1.66 C
388 06-02-2020 08:15:00 -1 C 96 % -1.56 C
389 06-02-2020 08:20:00 -0.9 C 96 % -1.46 C
390 06-02-2020 08:25:00 -0.9 C 96 % -1.46 C
391 06-02-2020 08:30:00 -0.9 C 96 % -1.46 C
392 06-02-2020 08:35:00 -0.9 C 96 % -1.46 C
393 06-02-2020 08:40:00 -0.9 C 96 % -1.46 C
394 06-02-2020 08:45:00 -0.9 C 96 % -1.46 C
395 06-02-2020 08:50:00 -0.8 C 96 % -1.36 C
396 06-02-2020 08:55:00 -0.7 C 96 % -1.26 C
397 06-02-2020 09:00:00 -0.7 C 96 % -1.26 C
398 06-02-2020 09:05:00 -0.6 C 96 % -1.16 C
399 06-02-2020 09:10:00 -0.6 C 96 % -1.16 C
400 06-02-2020 09:15:00 -0.6 C 96 % -1.16 C
Sensor: Nr:Datum:Temp:Feuchte:Taupunkt:
Aussen-T/F 401 06-02-2020 09:20:00 -0.6 C 96 % -1.16 C
402 06-02-2020 09:25:00 -0.5 C 96 % -1.06 C
403 06-02-2020 09:30:00 -0.5 C 96 % -1.06 C
404 06-02-2020 09:35:00 -0.5 C 96 % -1.06 C
405 06-02-2020 09:40:00 -0.4 C 96 % -0.96 C
406 06-02-2020 09:45:00 -0.4 C 96 % -0.96 C
407 06-02-2020 09:50:00 -0.3 C 97 % -0.72 C
408 06-02-2020 09:55:00 -0.3 C 97 % -0.72 C
409 06-02-2020 10:00:00 -0.3 C 97 % -0.72 C
410 06-02-2020 10:05:00 -0.3 C 97 % -0.72 C
411 06-02-2020 10:10:00 -0.3 C 97 % -0.72 C
412 06-02-2020 10:15:00 -0.2 C 97 % -0.62 C
413 06-02-2020 10:20:00 -0.2 C 96 % -0.76 C
414 06-02-2020 10:25:00 -0.2 C 96 % -0.76 C
415 06-02-2020 10:30:00 -0.1 C 96 % -0.66 C
416 06-02-2020 10:35:00 -0.1 C 96 % -0.66 C
417 06-02-2020 10:40:00 0 C 97 % -0.42 C
418 06-02-2020 10:45:00 0.1 C 97 % -0.32 C
419 06-02-2020 10:50:00 0.1 C 97 % -0.32 C
420 06-02-2020 10:55:00 0.2 C 97 % -0.22 C
421 06-02-2020 11:00:00 0.2 C 97 % -0.22 C
422 06-02-2020 11:05:00 0.2 C 97 % -0.22 C
423 06-02-2020 11:10:00 0.2 C 97 % -0.22 C
424 06-02-2020 11:15:00 0.3 C 97 % -0.12 C
425 06-02-2020 11:20:00 0.3 C 97 % -0.12 C
Sensor: Nr:Datum:Temp:Feuchte:Taupunkt:
Aussen-T/F 426 06-02-2020 11:25:00 0.4 C 97 % -0.02 C
427 06-02-2020 11:30:00 0.4 C 97 % -0.02 C
428 06-02-2020 11:35:00 0.4 C 97 % -0.02 C
429 06-02-2020 11:40:00 0.6 C 97 % 0.18 C
430 06-02-2020 11:45:00 0.6 C 97 % 0.18 C
431 06-02-2020 11:50:00 0.7 C 97 % 0.28 C
432 06-02-2020 11:55:00 0.8 C 97 % 0.38 C
433 06-02-2020 12:00:00 0.9 C 97 % 0.48 C
434 06-02-2020 12:05:00 1.1 C 97 % 0.68 C
435 06-02-2020 12:10:00 1.2 C 97 % 0.78 C
436 06-02-2020 12:15:00 1.3 C 97 % 0.88 C
437 06-02-2020 12:20:00 1.5 C 97 % 1.08 C
438 06-02-2020 12:25:00 1.7 C 97 % 1.28 C
439 06-02-2020 12:30:00 1.8 C 97 % 1.38 C
440 06-02-2020 12:35:00 1.8 C 97 % 1.38 C
441 06-02-2020 12:40:00 1.9 C 97 % 1.48 C
442 06-02-2020 12:45:00 2.1 C 97 % 1.67 C
443 06-02-2020 12:50:00 2.1 C 97 % 1.67 C
444 06-02-2020 12:55:00 2.2 C 97 % 1.77 C
445 06-02-2020 13:00:00 2.3 C 97 % 1.87 C
446 06-02-2020 13:05:00 2.4 C 96 % 1.83 C
447 06-02-2020 13:10:00 2.6 C 96 % 2.03 C
448 06-02-2020 13:15:00 2.8 C 96 % 2.23 C
449 06-02-2020 13:20:00 2.8 C 95 % 2.08 C
450 06-02-2020 13:25:00 2.9 C 95 % 2.18 C
Sensor: Nr:Datum:Temp:Feuchte:Taupunkt:
Aussen-T/F 451 06-02-2020 13:30:00 2.9 C 94 % 2.03 C
452 06-02-2020 13:35:00 3.1 C 94 % 2.23 C
453 06-02-2020 13:40:00 3.3 C 94 % 2.43 C
454 06-02-2020 13:45:00 3.4 C 94 % 2.53 C
455 06-02-2020 13:50:00 3.6 C 93 % 2.58 C
456 06-02-2020 13:55:00 3.7 C 93 % 2.68 C
457 06-02-2020 14:00:00 3.8 C 93 % 2.77 C
458 06-02-2020 14:05:00 3.9 C 92 % 2.72 C
459 06-02-2020 14:10:00 4.2 C 92 % 3.02 C
460 06-02-2020 14:15:00 4.3 C 92 % 3.12 C
461 06-02-2020 14:20:00 4.4 C 91 % 3.06 C
462 06-02-2020 14:25:00 4.6 C 91 % 3.26 C
463 06-02-2020 14:30:00 4.7 C 90 % 3.2 C
464 06-02-2020 14:35:00 4.7 C 89 % 3.05 C
465 06-02-2020 14:40:00 4.8 C 89 % 3.14 C
466 06-02-2020 14:45:00 4.8 C 89 % 3.14 C
467 06-02-2020 14:50:00 4.9 C 88 % 3.08 C
468 06-02-2020 14:55:00 5 C 88 % 3.18 C
469 06-02-2020 15:00:00 5.1 C 88 % 3.28 C
470 06-02-2020 15:05:00 5.2 C 88 % 3.38 C
471 06-02-2020 15:10:00 5.2 C 87 % 3.22 C
472 06-02-2020 15:15:00 5.2 C 85 % 2.89 C
473 06-02-2020 15:20:00 5.3 C 86 % 3.15 C
474 06-02-2020 15:25:00 5.3 C 86 % 3.15 C
475 06-02-2020 15:30:00 5.4 C 86 % 3.25 C
Sensor: Nr:Datum:Temp:Feuchte:Taupunkt:
Aussen-T/F 476 06-02-2020 15:35:00 5.4 C 85 % 3.09 C
477 06-02-2020 15:40:00 5.4 C 85 % 3.09 C
478 06-02-2020 15:45:00 5.6 C 86 % 3.45 C
479 06-02-2020 15:50:00 5.6 C 86 % 3.45 C
480 06-02-2020 15:55:00 5.6 C 83 % 2.95 C
481 06-02-2020 16:00:00 5.7 C 82 % 2.87 C
482 06-02-2020 16:05:00 5.7 C 80 % 2.53 C
483 06-02-2020 16:10:00 5.7 C 79 % 2.35 C
484 06-02-2020 16:15:00 5.7 C 80 % 2.53 C
485 06-02-2020 16:20:00 5.8 C 81 % 2.8 C
486 06-02-2020 16:25:00 5.8 C 80 % 2.62 C
487 06-02-2020 16:30:00 5.8 C 80 % 2.62 C
488 06-02-2020 16:35:00 5.8 C 78 % 2.27 C
489 06-02-2020 16:40:00 5.9 C 80 % 2.72 C
490 06-02-2020 16:45:00 5.8 C 80 % 2.62 C
491 06-02-2020 16:50:00 5.8 C 80 % 2.62 C
492 06-02-2020 16:55:00 5.6 C 81 % 2.6 C
493 06-02-2020 17:00:00 5.4 C 82 % 2.58 C
494 06-02-2020 17:05:00 5.2 C 83 % 2.56 C
495 06-02-2020 17:10:00 4.9 C 83 % 2.26 C
496 06-02-2020 17:15:00 4.7 C 84 % 2.23 C
497 06-02-2020 17:20:00 4.4 C 84 % 1.94 C
498 06-02-2020 17:25:00 4.2 C 85 % 1.91 C
499 06-02-2020 17:30:00 3.9 C 85 % 1.61 C
500 06-02-2020 17:35:00 3.8 C 86 % 1.68 C
Sensor: Nr:Datum:Temp:Feuchte:Taupunkt:
Aussen-T/F 501 06-02-2020 17:40:00 3.6 C 86 % 1.48 C
502 06-02-2020 17:45:00 3.3 C 87 % 1.35 C
503 06-02-2020 17:50:00 3.2 C 87 % 1.25 C
504 06-02-2020 17:55:00 2.9 C 87 % 0.96 C
505 06-02-2020 18:00:00 2.8 C 88 % 1.02 C
506 06-02-2020 18:05:00 2.6 C 88 % 0.82 C
507 06-02-2020 18:10:00 2.5 C 89 % 0.88 C
508 06-02-2020 18:15:00 2.4 C 89 % 0.78 C
509 06-02-2020 18:20:00 2.3 C 89 % 0.68 C
510 06-02-2020 18:25:00 2.2 C 89 % 0.58 C
511 06-02-2020 18:30:00 2 C 90 % 0.54 C
512 06-02-2020 18:35:00 1.9 C 90 % 0.44 C
513 06-02-2020 18:40:00 1.8 C 90 % 0.34 C
514 06-02-2020 18:45:00 1.8 C 91 % 0.49 C
515 06-02-2020 18:50:00 1.7 C 91 % 0.39 C
516 06-02-2020 18:55:00 1.7 C 91 % 0.39 C
517 06-02-2020 19:00:00 1.6 C 91 % 0.29 C
518 06-02-2020 19:05:00 1.4 C 91 % 0.1 C
519 06-02-2020 19:10:00 1.3 C 91 % 0 C
520 06-02-2020 19:15:00 1.2 C 91 % -0.1 C
521 06-02-2020 19:20:00 1.1 C 91 % -0.2 C
522 06-02-2020 19:25:00 1 C 92 % -0.15 C
523 06-02-2020 19:30:00 0.9 C 92 % -0.25 C
524 06-02-2020 19:35:00 0.9 C 92 % -0.25 C
525 06-02-2020 19:40:00 0.8 C 92 % -0.35 C
Sensor: Nr:Datum:Temp:Feuchte:Taupunkt:
Aussen-T/F 526 06-02-2020 19:45:00 0.7 C 92 % -0.45 C
527 06-02-2020 19:50:00 0.7 C 93 % -0.3 C
528 06-02-2020 19:55:00 0.6 C 93 % -0.4 C
529 06-02-2020 20:00:00 0.4 C 93 % -0.6 C
530 06-02-2020 20:05:00 0.3 C 93 % -0.7 C
531 06-02-2020 20:10:00 0.3 C 93 % -0.7 C
532 06-02-2020 20:15:00 0.2 C 93 % -0.79 C
533 06-02-2020 20:20:00 0.1 C 93 % -0.89 C
534 06-02-2020 20:25:00 0.1 C 93 % -0.89 C
535 06-02-2020 20:30:00 0.1 C 94 % -0.75 C
536 06-02-2020 20:35:00 0.1 C 94 % -0.75 C
537 06-02-2020 20:40:00 0 C 94 % -0.85 C
538 06-02-2020 20:45:00 -0.1 C 94 % -0.95 C
539 06-02-2020 20:50:00 -0.2 C 94 % -1.05 C
540 06-02-2020 20:55:00 -0.2 C 94 % -1.05 C
541 06-02-2020 21:00:00 -0.3 C 94 % -1.15 C
542 06-02-2020 21:05:00 -0.3 C 94 % -1.15 C
543 06-02-2020 21:10:00 -0.4 C 94 % -1.25 C
544 06-02-2020 21:15:00 -0.4 C 94 % -1.25 C
545 06-02-2020 21:20:00 -0.4 C 94 % -1.25 C
546 06-02-2020 21:25:00 -0.4 C 94 % -1.25 C
547 06-02-2020 21:30:00 -0.5 C 94 % -1.34 C
548 06-02-2020 21:35:00 -0.5 C 94 % -1.34 C
549 06-02-2020 21:40:00 -0.5 C 94 % -1.34 C
550 06-02-2020 21:45:00 -0.6 C 95 % -1.3 C
Sensor: Nr:Datum:Temp:Feuchte:Taupunkt:
Aussen-T/F 551 06-02-2020 21:50:00 -0.6 C 95 % -1.3 C
552 06-02-2020 21:55:00 -0.6 C 95 % -1.3 C
553 06-02-2020 22:00:00 -0.7 C 95 % -1.4 C
554 06-02-2020 22:05:00 -0.7 C 95 % -1.4 C
555 06-02-2020 22:10:00 -0.7 C 95 % -1.4 C
556 06-02-2020 22:15:00 -0.7 C 95 % -1.4 C
557 06-02-2020 22:20:00 -0.8 C 95 % -1.5 C
558 06-02-2020 22:25:00 -0.8 C 95 % -1.5 C
559 06-02-2020 22:30:00 -0.8 C 95 % -1.5 C
560 06-02-2020 22:35:00 -0.9 C 95 % -1.6 C
561 06-02-2020 22:40:00 -0.9 C 95 % -1.6 C
562 06-02-2020 22:45:00 -1 C 95 % -1.7 C
563 06-02-2020 22:50:00 -1 C 95 % -1.7 C
564 06-02-2020 22:55:00 -1.1 C 95 % -1.8 C
565 06-02-2020 23:00:00 -1.1 C 95 % -1.8 C
566 06-02-2020 23:05:00 -1.2 C 95 % -1.9 C
567 06-02-2020 23:10:00 -1.2 C 95 % -1.9 C
568 06-02-2020 23:15:00 -1.2 C 95 % -1.9 C
569 06-02-2020 23:20:00 -1.2 C 95 % -1.9 C
570 06-02-2020 23:25:00 -1.2 C 95 % -1.9 C
571 06-02-2020 23:30:00 -1.2 C 95 % -1.9 C
572 06-02-2020 23:35:00 -1.2 C 95 % -1.9 C
573 06-02-2020 23:40:00 -1.2 C 95 % -1.9 C
574 06-02-2020 23:45:00 -1.3 C 95 % -2 C
575 06-02-2020 23:50:00 -1.2 C 95 % -1.9 C
Sensor: Nr:Datum:Temp:Feuchte:Taupunkt:
Aussen-T/F 576 06-02-2020 23:55:00 -1.2 C 95 % -1.9 C
577 07-02-2020 00:00:00 -1.3 C 95 % -2 C
578 07-02-2020 00:05:00 -1.3 C 95 % -2 C
579 07-02-2020 00:10:00 -1.4 C 95 % -2.1 C
580 07-02-2020 00:15:00 -1.5 C 95 % -2.19 C
581 07-02-2020 00:20:00 -1.5 C 95 % -2.19 C
582 07-02-2020 00:25:00 -1.6 C 95 % -2.29 C
583 07-02-2020 00:30:00 -1.6 C 95 % -2.29 C
584 07-02-2020 00:35:00 -1.6 C 95 % -2.29 C
585 07-02-2020 00:40:00 -1.6 C 95 % -2.29 C
586 07-02-2020 00:45:00 -1.6 C 95 % -2.29 C
587 07-02-2020 00:50:00 -1.6 C 96 % -2.15 C
588 07-02-2020 00:55:00 -1.6 C 96 % -2.15 C
589 07-02-2020 01:00:00 -1.6 C 95 % -2.29 C
590 07-02-2020 01:05:00 -1.6 C 95 % -2.29 C
591 07-02-2020 01:10:00 -1.7 C 95 % -2.39 C
592 07-02-2020 01:15:00 -1.7 C 95 % -2.39 C
593 07-02-2020 01:20:00 -1.7 C 95 % -2.39 C
594 07-02-2020 01:25:00 -1.7 C 95 % -2.39 C
595 07-02-2020 01:30:00 -1.7 C 95 % -2.39 C
596 07-02-2020 01:35:00 -1.7 C 95 % -2.39 C
597 07-02-2020 01:40:00 -1.7 C 95 % -2.39 C
598 07-02-2020 01:45:00 -1.8 C 95 % -2.49 C
599 07-02-2020 01:50:00 -1.7 C 96 % -2.25 C
600 07-02-2020 01:55:00 -1.7 C 96 % -2.25 C
Sensor: Nr:Datum:Temp:Feuchte:Taupunkt:
Aussen-T/F 601 07-02-2020 02:00:00 -1.7 C 96 % -2.25 C
602 07-02-2020 02:05:00 -1.8 C 96 % -2.35 C
603 07-02-2020 02:10:00 -1.7 C 96 % -2.25 C
604 07-02-2020 02:15:00 -1.7 C 96 % -2.25 C
605 07-02-2020 02:20:00 -1.6 C 96 % -2.15 C
606 07-02-2020 02:25:00 -1.5 C 96 % -2.05 C
607 07-02-2020 02:30:00 -1.4 C 96 % -1.95 C
608 07-02-2020 02:35:00 -1.3 C 96 % -1.85 C
609 07-02-2020 02:40:00 -1.3 C 96 % -1.85 C
610 07-02-2020 02:45:00 -1.3 C 96 % -1.85 C
611 07-02-2020 02:50:00 -1.3 C 96 % -1.85 C
612 07-02-2020 02:55:00 -1.3 C 96 % -1.85 C
613 07-02-2020 03:00:00 -1.2 C 96 % -1.75 C
614 07-02-2020 03:05:00 -1.2 C 96 % -1.75 C
615 07-02-2020 03:10:00 -1.2 C 96 % -1.75 C
616 07-02-2020 03:15:00 -1.2 C 96 % -1.75 C
617 07-02-2020 03:20:00 -1.2 C 96 % -1.75 C
618 07-02-2020 03:25:00 -1.2 C 96 % -1.75 C
619 07-02-2020 03:30:00 -1.2 C 96 % -1.75 C
620 07-02-2020 03:35:00 -1.2 C 96 % -1.75 C
621 07-02-2020 03:40:00 -1.2 C 96 % -1.75 C
622 07-02-2020 03:45:00 -1.2 C 96 % -1.75 C
623 07-02-2020 03:50:00 -1.2 C 96 % -1.75 C
624 07-02-2020 03:55:00 -1.2 C 96 % -1.75 C
625 07-02-2020 04:00:00 -1.1 C 96 % -1.66 C
Sensor: Nr:Datum:Temp:Feuchte:Taupunkt:
Aussen-T/F 626 07-02-2020 04:05:00 -1.1 C 96 % -1.66 C
627 07-02-2020 04:10:00 -1.1 C 96 % -1.66 C
628 07-02-2020 04:15:00 -1.2 C 96 % -1.75 C
629 07-02-2020 04:20:00 -1.2 C 96 % -1.75 C
630 07-02-2020 04:25:00 -1.2 C 96 % -1.75 C
631 07-02-2020 04:30:00 -1.2 C 96 % -1.75 C
632 07-02-2020 04:35:00 -1.2 C 96 % -1.75 C
633 07-02-2020 04:40:00 -1.2 C 96 % -1.75 C
634 07-02-2020 04:45:00 -1.2 C 96 % -1.75 C
635 07-02-2020 04:50:00 -1.3 C 96 % -1.85 C
636 07-02-2020 04:55:00 -1.3 C 96 % -1.85 C
637 07-02-2020 05:00:00 -1.3 C 96 % -1.85 C
638 07-02-2020 05:05:00 -1.3 C 96 % -1.85 C
639 07-02-2020 05:10:00 -1.3 C 96 % -1.85 C
640 07-02-2020 05:15:00 -1.3 C 96 % -1.85 C
641 07-02-2020 05:20:00 -1.4 C 96 % -1.95 C
642 07-02-2020 05:25:00 -1.4 C 96 % -1.95 C
643 07-02-2020 05:30:00 -1.3 C 96 % -1.85 C
644 07-02-2020 05:35:00 -1.3 C 96 % -1.85 C
645 07-02-2020 05:40:00 -1.4 C 96 % -1.95 C
646 07-02-2020 05:45:00 -1.4 C 96 % -1.95 C
647 07-02-2020 05:50:00 -1.4 C 96 % -1.95 C
648 07-02-2020 05:55:00 -1.4 C 96 % -1.95 C
649 07-02-2020 06:00:00 -1.4 C 96 % -1.95 C
650 07-02-2020 06:05:00 -1.4 C 96 % -1.95 C
Sensor: Nr:Datum:Temp:Feuchte:Taupunkt:
Aussen-T/F 651 07-02-2020 06:10:00 -1.4 C 96 % -1.95 C
652 07-02-2020 06:15:00 -1.4 C 96 % -1.95 C
653 07-02-2020 06:20:00 -1.4 C 96 % -1.95 C
654 07-02-2020 06:25:00 -1.5 C 96 % -2.05 C
655 07-02-2020 06:30:00 -1.6 C 97 % -2.01 C
656 07-02-2020 06:35:00 -1.6 C 97 % -2.01 C
657 07-02-2020 06:40:00 -1.6 C 97 % -2.01 C
658 07-02-2020 06:45:00 -1.6 C 97 % -2.01 C
659 07-02-2020 06:50:00 -1.6 C 97 % -2.01 C
660 07-02-2020 06:55:00 -1.6 C 97 % -2.01 C
661 07-02-2020 07:00:00 -1.6 C 96 % -2.15 C
662 07-02-2020 07:05:00 -1.6 C 96 % -2.15 C
663 07-02-2020 07:10:00 -1.6 C 96 % -2.15 C
664 07-02-2020 07:15:00 -1.7 C 96 % -2.25 C
665 07-02-2020 07:20:00 -1.7 C 96 % -2.25 C
666 07-02-2020 07:25:00 -1.7 C 96 % -2.25 C
667 07-02-2020 07:30:00 -1.6 C 96 % -2.15 C
668 07-02-2020 07:35:00 -1.6 C 97 % -2.01 C
669 07-02-2020 07:40:00 -1.6 C 97 % -2.01 C
670 07-02-2020 07:45:00 -1.6 C 97 % -2.01 C
671 07-02-2020 07:50:00 -1.6 C 97 % -2.01 C
672 07-02-2020 07:55:00 -1.6 C 97 % -2.01 C
673 07-02-2020 08:00:00 -1.6 C 97 % -2.01 C
674 07-02-2020 08:05:00 -1.5 C 97 % -1.91 C
675 07-02-2020 08:10:00 -1.5 C 97 % -1.91 C
Sensor: Nr:Datum:Temp:Feuchte:Taupunkt:
Aussen-T/F 676 07-02-2020 08:15:00 -1.6 C 97 % -2.01 C
677 07-02-2020 08:20:00 -1.6 C 97 % -2.01 C
678 07-02-2020 08:25:00 -1.7 C 96 % -2.25 C
679 07-02-2020 08:30:00 -1.7 C 97 % -2.11 C
680 07-02-2020 08:35:00 -1.7 C 97 % -2.11 C
681 07-02-2020 08:40:00 -1.7 C 97 % -2.11 C
682 07-02-2020 08:45:00 -1.7 C 97 % -2.11 C
683 07-02-2020 08:50:00 -1.7 C 97 % -2.11 C
684 07-02-2020 08:55:00 -1.6 C 97 % -2.01 C
685 07-02-2020 09:00:00 -1.6 C 97 % -2.01 C
686 07-02-2020 09:05:00 -1.5 C 97 % -1.91 C
687 07-02-2020 09:10:00 -1.4 C 97 % -1.81 C
688 07-02-2020 09:15:00 -1.4 C 97 % -1.81 C
689 07-02-2020 09:20:00 -1.4 C 97 % -1.81 C
690 07-02-2020 09:25:00 -1.4 C 97 % -1.81 C
691 07-02-2020 09:30:00 -1.4 C 97 % -1.81 C
692 07-02-2020 09:35:00 -1.4 C 97 % -1.81 C
693 07-02-2020 09:40:00 -1.3 C 97 % -1.71 C
694 07-02-2020 09:45:00 -1.4 C 97 % -1.81 C
695 07-02-2020 09:50:00 -1.4 C 97 % -1.81 C
696 07-02-2020 09:55:00 -1.4 C 97 % -1.81 C
697 07-02-2020 10:00:00 -1.4 C 97 % -1.81 C
698 07-02-2020 10:05:00 -1.4 C 97 % -1.81 C
699 07-02-2020 10:10:00 -1.3 C 97 % -1.71 C
700 07-02-2020 10:15:00 -1.3 C 97 % -1.71 C
Sensor: Nr:Datum:Temp:Feuchte:Taupunkt:
Aussen-T/F 701 07-02-2020 10:20:00 -1.2 C 97 % -1.61 C
702 07-02-2020 10:25:00 -1.1 C 97 % -1.51 C
703 07-02-2020 10:30:00 -1 C 97 % -1.41 C
704 07-02-2020 10:35:00 -0.9 C 97 % -1.32 C
705 07-02-2020 10:40:00 -0.9 C 97 % -1.32 C
706 07-02-2020 10:45:00 -0.9 C 97 % -1.32 C
707 07-02-2020 10:50:00 -0.8 C 97 % -1.22 C
708 07-02-2020 10:55:00 -0.8 C 97 % -1.22 C
709 07-02-2020 11:00:00 -0.8 C 97 % -1.22 C
710 07-02-2020 11:05:00 -0.7 C 97 % -1.12 C
711 07-02-2020 11:10:00 -0.7 C 97 % -1.12 C
712 07-02-2020 11:15:00 -0.7 C 97 % -1.12 C
713 07-02-2020 11:20:00 -0.7 C 97 % -1.12 C
714 07-02-2020 11:25:00 -0.6 C 97 % -1.02 C
715 07-02-2020 11:30:00 -0.6 C 97 % -1.02 C
716 07-02-2020 11:35:00 -0.4 C 97 % -0.82 C
717 07-02-2020 11:40:00 -0.3 C 97 % -0.72 C
718 07-02-2020 11:45:00 -0.3 C 97 % -0.72 C
719 07-02-2020 11:50:00 -0.2 C 97 % -0.62 C
720 07-02-2020 11:55:00 0 C 97 % -0.42 C
721 07-02-2020 12:00:00 0.1 C 97 % -0.32 C
722 07-02-2020 12:05:00 0.3 C 97 % -0.12 C
723 07-02-2020 12:10:00 0.3 C 97 % -0.12 C
724 07-02-2020 12:15:00 0.5 C 97 % 0.08 C
725 07-02-2020 12:20:00 0.6 C 97 % 0.18 C
Sensor: Nr:Datum:Temp:Feuchte:Taupunkt:
Aussen-T/F 726 07-02-2020 12:25:00 0.7 C 97 % 0.28 C
727 07-02-2020 12:30:00 0.8 C 97 % 0.38 C
728 07-02-2020 12:35:00 0.9 C 97 % 0.48 C
729 07-02-2020 12:40:00 1 C 97 % 0.58 C
730 07-02-2020 12:45:00 1.1 C 97 % 0.68 C
731 07-02-2020 12:50:00 1.2 C 97 % 0.78 C
732 07-02-2020 12:55:00 1.2 C 97 % 0.78 C
733 07-02-2020 13:00:00 1.3 C 97 % 0.88 C
734 07-02-2020 13:05:00 1.4 C 97 % 0.98 C
735 07-02-2020 13:10:00 1.5 C 97 % 1.08 C
736 07-02-2020 13:15:00 1.6 C 98 % 1.32 C
737 07-02-2020 13:20:00 1.7 C 97 % 1.28 C
738 07-02-2020 13:25:00 1.8 C 98 % 1.52 C
739 07-02-2020 13:30:00 1.8 C 98 % 1.52 C
740 07-02-2020 13:35:00 1.9 C 98 % 1.62 C
741 07-02-2020 13:40:00 2.1 C 97 % 1.67 C
742 07-02-2020 13:45:00 2.2 C 98 % 1.92 C
743 07-02-2020 13:50:00 2.3 C 98 % 2.02 C
744 07-02-2020 13:55:00 2.4 C 97 % 1.97 C
745 07-02-2020 14:00:00 2.6 C 98 % 2.32 C
746 07-02-2020 14:05:00 2.8 C 98 % 2.52 C
747 07-02-2020 14:10:00 2.9 C 98 % 2.62 C
748 07-02-2020 14:15:00 3 C 98 % 2.72 C
749 07-02-2020 14:20:00 3 C 98 % 2.72 C
750 07-02-2020 14:25:00 3.1 C 98 % 2.82 C
Sensor: Nr:Datum:Temp:Feuchte:Taupunkt:
Aussen-T/F 751 07-02-2020 14:30:00 3.1 C 98 % 2.82 C
752 07-02-2020 14:35:00 3.1 C 98 % 2.82 C
753 07-02-2020 14:40:00 3.1 C 97 % 2.67 C
754 07-02-2020 14:45:00 3.3 C 97 % 2.87 C
755 07-02-2020 14:50:00 3.3 C 97 % 2.87 C
756 07-02-2020 14:55:00 3.3 C 97 % 2.87 C
757 07-02-2020 15:00:00 3.6 C 97 % 3.17 C
758 07-02-2020 15:05:00 3.7 C 97 % 3.27 C
759 07-02-2020 15:10:00 3.8 C 97 % 3.37 C
760 07-02-2020 15:15:00 3.8 C 97 % 3.37 C
761 07-02-2020 15:20:00 3.8 C 96 % 3.22 C
762 07-02-2020 15:25:00 3.8 C 96 % 3.22 C
763 07-02-2020 15:30:00 3.8 C 95 % 3.07 C
764 07-02-2020 15:35:00 3.8 C 95 % 3.07 C
765 07-02-2020 15:40:00 3.8 C 94 % 2.93 C
766 07-02-2020 15:45:00 3.9 C 94 % 3.02 C
767 07-02-2020 15:50:00 4.1 C 93 % 3.07 C
768 07-02-2020 15:55:00 4.1 C 92 % 2.92 C
769 07-02-2020 16:00:00 4.2 C 91 % 2.87 C
770 07-02-2020 16:05:00 4.2 C 91 % 2.87 C
771 07-02-2020 16:10:00 4.2 C 91 % 2.87 C
772 07-02-2020 16:15:00 4.2 C 90 % 2.71 C
773 07-02-2020 16:20:00 4.1 C 90 % 2.61 C
774 07-02-2020 16:25:00 4.1 C 90 % 2.61 C
775 07-02-2020 16:30:00 3.9 C 90 % 2.41 C
Sensor: Nr:Datum:Temp:Feuchte:Taupunkt:
Aussen-T/F 776 07-02-2020 16:35:00 3.9 C 90 % 2.41 C
777 07-02-2020 16:40:00 3.8 C 90 % 2.31 C
778 07-02-2020 16:45:00 3.7 C 90 % 2.22 C
779 07-02-2020 16:50:00 3.7 C 90 % 2.22 C
780 07-02-2020 16:55:00 3.6 C 90 % 2.12 C
781 07-02-2020 17:00:00 3.5 C 90 % 2.02 C
782 07-02-2020 17:05:00 3.4 C 90 % 1.92 C
783 07-02-2020 17:10:00 3.3 C 90 % 1.82 C
784 07-02-2020 17:15:00 3.2 C 90 % 1.72 C
785 07-02-2020 17:20:00 3.1 C 91 % 1.78 C
786 07-02-2020 17:25:00 3.1 C 91 % 1.78 C
787 07-02-2020 17:30:00 3 C 91 % 1.68 C
788 07-02-2020 17:35:00 2.9 C 91 % 1.58 C
789 07-02-2020 17:40:00 2.8 C 91 % 1.48 C
790 07-02-2020 17:45:00 2.7 C 91 % 1.38 C
791 07-02-2020 17:50:00 2.6 C 91 % 1.28 C
792 07-02-2020 17:55:00 2.4 C 91 % 1.08 C
793 07-02-2020 18:00:00 2.4 C 91 % 1.08 C
794 07-02-2020 18:05:00 2.3 C 91 % 0.99 C
795 07-02-2020 18:10:00 2.2 C 91 % 0.89 C
796 07-02-2020 18:15:00 2.2 C 91 % 0.89 C
797 07-02-2020 18:20:00 2.1 C 91 % 0.79 C
798 07-02-2020 18:25:00 2 C 91 % 0.69 C
799 07-02-2020 18:30:00 1.9 C 91 % 0.59 C
800 07-02-2020 18:35:00 1.9 C 91 % 0.59 C
Sensor: Nr:Datum:Temp:Feuchte:Taupunkt:
Aussen-T/F 801 07-02-2020 18:40:00 1.8 C 91 % 0.49 C
802 07-02-2020 18:45:00 1.8 C 92 % 0.64 C
803 07-02-2020 18:50:00 1.7 C 92 % 0.54 C
804 07-02-2020 18:55:00 1.7 C 92 % 0.54 C
805 07-02-2020 19:00:00 1.7 C 92 % 0.54 C
806 07-02-2020 19:05:00 1.6 C 92 % 0.44 C
807 07-02-2020 19:10:00 1.6 C 92 % 0.44 C
808 07-02-2020 19:15:00 1.5 C 92 % 0.35 C
809 07-02-2020 19:20:00 1.4 C 92 % 0.25 C
810 07-02-2020 19:25:00 1.4 C 92 % 0.25 C
811 07-02-2020 19:30:00 1.4 C 92 % 0.25 C
812 07-02-2020 19:35:00 1.3 C 92 % 0.15 C
813 07-02-2020 19:40:00 1.3 C 93 % 0.3 C
814 07-02-2020 19:45:00 1.3 C 92 % 0.15 C
815 07-02-2020 19:50:00 1.2 C 93 % 0.2 C
816 07-02-2020 19:55:00 1.3 C 93 % 0.3 C
817 07-02-2020 20:00:00 1.2 C 93 % 0.2 C
818 07-02-2020 20:05:00 1.2 C 93 % 0.2 C
819 07-02-2020 20:10:00 1.2 C 93 % 0.2 C
820 07-02-2020 20:15:00 1.2 C 93 % 0.2 C
821 07-02-2020 20:20:00 1.1 C 93 % 0.1 C
822 07-02-2020 20:25:00 1.1 C 93 % 0.1 C
823 07-02-2020 20:30:00 1.1 C 93 % 0.1 C
824 07-02-2020 20:35:00 1.1 C 93 % 0.1 C
825 07-02-2020 20:40:00 1.1 C 93 % 0.1 C
Sensor: Nr:Datum:Temp:Feuchte:Taupunkt:
Aussen-T/F 826 07-02-2020 20:45:00 0.9 C 93 % -0.1 C
827 07-02-2020 20:50:00 0.9 C 93 % -0.1 C
828 07-02-2020 20:55:00 0.9 C 93 % -0.1 C
829 07-02-2020 21:00:00 0.9 C 93 % -0.1 C
830 07-02-2020 21:05:00 0.9 C 93 % -0.1 C
831 07-02-2020 21:10:00 0.9 C 93 % -0.1 C
832 07-02-2020 21:15:00 0.8 C 93 % -0.2 C
833 07-02-2020 21:20:00 0.8 C 93 % -0.2 C
834 07-02-2020 21:25:00 0.9 C 94 % 0.05 C
835 07-02-2020 21:30:00 0.9 C 94 % 0.05 C
836 07-02-2020 21:35:00 0.9 C 94 % 0.05 C
837 07-02-2020 21:40:00 0.9 C 94 % 0.05 C
838 07-02-2020 21:45:00 0.8 C 93 % -0.2 C
839 07-02-2020 21:50:00 0.8 C 93 % -0.2 C
840 07-02-2020 21:55:00 0.8 C 93 % -0.2 C
841 07-02-2020 22:00:00 0.7 C 93 % -0.3 C
842 07-02-2020 22:05:00 0.7 C 94 % -0.15 C
843 07-02-2020 22:10:00 0.6 C 94 % -0.25 C
844 07-02-2020 22:15:00 0.6 C 93 % -0.4 C
845 07-02-2020 22:20:00 0.6 C 93 % -0.4 C
846 07-02-2020 22:25:00 0.5 C 94 % -0.35 C
847 07-02-2020 22:30:00 0.4 C 94 % -0.45 C
848 07-02-2020 22:35:00 0.4 C 94 % -0.45 C
849 07-02-2020 22:40:00 0.4 C 94 % -0.45 C
850 07-02-2020 22:45:00 0.4 C 94 % -0.45 C
Sensor: Nr:Datum:Temp:Feuchte:Taupunkt:
Aussen-T/F 851 07-02-2020 22:50:00 0.4 C 94 % -0.45 C
852 07-02-2020 22:55:00 0.3 C 94 % -0.55 C
853 07-02-2020 23:00:00 0.3 C 94 % -0.55 C
854 07-02-2020 23:05:00 0.3 C 94 % -0.55 C
855 07-02-2020 23:10:00 0.2 C 94 % -0.65 C
856 07-02-2020 23:15:00 0.1 C 94 % -0.75 C
857 07-02-2020 23:20:00 0.1 C 94 % -0.75 C
858 07-02-2020 23:25:00 0 C 94 % -0.85 C
859 07-02-2020 23:30:00 0 C 94 % -0.85 C
860 07-02-2020 23:35:00 0 C 94 % -0.85 C
861 07-02-2020 23:40:00 0 C 94 % -0.85 C
862 07-02-2020 23:45:00 0.1 C 95 % -0.6 C
863 07-02-2020 23:50:00 0 C 95 % -0.7 C
864 07-02-2020 23:55:00 -0.1 C 94 % -0.95 C
865 08-02-2020 00:00:00 -0.1 C 94 % -0.95 C
866 08-02-2020 00:05:00 -0.1 C 95 % -0.8 C
867 08-02-2020 00:10:00 -0.2 C 94 % -1.05 C
868 08-02-2020 00:15:00 -0.2 C 94 % -1.05 C
869 08-02-2020 00:20:00 -0.2 C 95 % -0.9 C
870 08-02-2020 00:25:00 -0.2 C 94 % -1.05 C
871 08-02-2020 00:30:00 -0.3 C 95 % -1 C
872 08-02-2020 00:35:00 -0.3 C 95 % -1 C
873 08-02-2020 00:40:00 -0.3 C 95 % -1 C
874 08-02-2020 00:45:00 -0.4 C 95 % -1.1 C
875 08-02-2020 00:50:00 -0.5 C 94 % -1.34 C
Sensor: Nr:Datum:Temp:Feuchte:Taupunkt:
Aussen-T/F 876 08-02-2020 00:55:00 -0.6 C 94 % -1.44 C
877 08-02-2020 01:00:00 -0.6 C 95 % -1.3 C
878 08-02-2020 01:05:00 -0.7 C 95 % -1.4 C
879 08-02-2020 01:10:00 -0.7 C 95 % -1.4 C
880 08-02-2020 01:15:00 -0.7 C 95 % -1.4 C
881 08-02-2020 01:20:00 -0.7 C 95 % -1.4 C
882 08-02-2020 01:25:00 -0.8 C 95 % -1.5 C
883 08-02-2020 01:30:00 -0.8 C 95 % -1.5 C
884 08-02-2020 01:35:00 -0.8 C 95 % -1.5 C
885 08-02-2020 01:40:00 -0.8 C 95 % -1.5 C
886 08-02-2020 01:45:00 -0.8 C 95 % -1.5 C
887 08-02-2020 01:50:00 -0.9 C 95 % -1.6 C
888 08-02-2020 01:55:00 -0.9 C 95 % -1.6 C
889 08-02-2020 02:00:00 -0.9 C 95 % -1.6 C
890 08-02-2020 02:05:00 -0.9 C 95 % -1.6 C
891 08-02-2020 02:10:00 -0.9 C 95 % -1.6 C
892 08-02-2020 02:15:00 -1 C 95 % -1.7 C
893 08-02-2020 02:20:00 -1.1 C 95 % -1.8 C
894 08-02-2020 02:25:00 -1.1 C 95 % -1.8 C
895 08-02-2020 02:30:00 -1.1 C 95 % -1.8 C
896 08-02-2020 02:35:00 -1.2 C 95 % -1.9 C
897 08-02-2020 02:40:00 -1.2 C 95 % -1.9 C
898 08-02-2020 02:45:00 -1.2 C 95 % -1.9 C
899 08-02-2020 02:50:00 -1.2 C 95 % -1.9 C
900 08-02-2020 02:55:00 -1.2 C 95 % -1.9 C
Sensor: Nr:Datum:Temp:Feuchte:Taupunkt:
Aussen-T/F 901 08-02-2020 03:00:00 -1.3 C 95 % -2 C
902 08-02-2020 03:05:00 -1.3 C 95 % -2 C
903 08-02-2020 03:10:00 -1.3 C 95 % -2 C
904 08-02-2020 03:15:00 -1.2 C 95 % -1.9 C
905 08-02-2020 03:20:00 -1.2 C 96 % -1.75 C
906 08-02-2020 03:25:00 -1.3 C 95 % -2 C
907 08-02-2020 03:30:00 -1.3 C 95 % -2 C
908 08-02-2020 03:35:00 -1.3 C 95 % -2 C
909 08-02-2020 03:40:00 -1.3 C 95 % -2 C
910 08-02-2020 03:45:00 -1.4 C 95 % -2.1 C
911 08-02-2020 03:50:00 -1.4 C 95 % -2.1 C
912 08-02-2020 03:55:00 -1.4 C 95 % -2.1 C
913 08-02-2020 04:00:00 -1.2 C 96 % -1.75 C
914 08-02-2020 04:05:00 -1.2 C 96 % -1.75 C
915 08-02-2020 04:10:00 -1.2 C 96 % -1.75 C
916 08-02-2020 04:15:00 -1.3 C 96 % -1.85 C
917 08-02-2020 04:20:00 -1.3 C 95 % -2 C
918 08-02-2020 04:25:00 -1.4 C 95 % -2.1 C
919 08-02-2020 04:30:00 -1.4 C 96 % -1.95 C
920 08-02-2020 04:35:00 -1.3 C 96 % -1.85 C
921 08-02-2020 04:40:00 -1.3 C 96 % -1.85 C
922 08-02-2020 04:45:00 -1.3 C 96 % -1.85 C
923 08-02-2020 04:50:00 -1.3 C 96 % -1.85 C
924 08-02-2020 04:55:00 -1.3 C 96 % -1.85 C
925 08-02-2020 05:00:00 -1.3 C 96 % -1.85 C
Sensor: Nr:Datum:Temp:Feuchte:Taupunkt:
Aussen-T/F 926 08-02-2020 05:05:00 -1.4 C 96 % -1.95 C
927 08-02-2020 05:10:00 -1.4 C 96 % -1.95 C
928 08-02-2020 05:15:00 -1.4 C 96 % -1.95 C
929 08-02-2020 05:20:00 -1.4 C 96 % -1.95 C
930 08-02-2020 05:25:00 -1.4 C 96 % -1.95 C
931 08-02-2020 05:30:00 -1.4 C 96 % -1.95 C
932 08-02-2020 05:35:00 -1.4 C 96 % -1.95 C
933 08-02-2020 05:40:00 -1.4 C 96 % -1.95 C
934 08-02-2020 05:45:00 -1.5 C 96 % -2.05 C
935 08-02-2020 05:50:00 -1.4 C 96 % -1.95 C
936 08-02-2020 05:55:00 -1.4 C 96 % -1.95 C
937 08-02-2020 06:00:00 -1.4 C 96 % -1.95 C
938 08-02-2020 06:05:00 -1.4 C 96 % -1.95 C
939 08-02-2020 06:10:00 -1.4 C 96 % -1.95 C
940 08-02-2020 06:15:00 -1.4 C 96 % -1.95 C
941 08-02-2020 06:20:00 -1.3 C 96 % -1.85 C
942 08-02-2020 06:25:00 -1.3 C 96 % -1.85 C
943 08-02-2020 06:30:00 -1.3 C 96 % -1.85 C
944 08-02-2020 06:35:00 -1.3 C 96 % -1.85 C
945 08-02-2020 06:40:00 -1.4 C 96 % -1.95 C
946 08-02-2020 06:45:00 -1.3 C 96 % -1.85 C
947 08-02-2020 06:50:00 -1.3 C 96 % -1.85 C
948 08-02-2020 06:55:00 -1.3 C 96 % -1.85 C
949 08-02-2020 07:00:00 -1.2 C 96 % -1.75 C
950 08-02-2020 07:05:00 -1.1 C 96 % -1.66 C
Sensor: Nr:Datum:Temp:Feuchte:Taupunkt:
Aussen-T/F 951 08-02-2020 07:10:00 -1.1 C 96 % -1.66 C
952 08-02-2020 07:15:00 -1.2 C 96 % -1.75 C
953 08-02-2020 07:20:00 -1.2 C 96 % -1.75 C
954 08-02-2020 07:25:00 -1.2 C 96 % -1.75 C
955 08-02-2020 07:30:00 -1.2 C 96 % -1.75 C
956 08-02-2020 07:35:00 -1.2 C 96 % -1.75 C
957 08-02-2020 07:40:00 -1.2 C 96 % -1.75 C
958 08-02-2020 07:45:00 -1.1 C 96 % -1.66 C
959 08-02-2020 07:50:00 -1.1 C 96 % -1.66 C
960 08-02-2020 07:55:00 -1 C 96 % -1.56 C
961 08-02-2020 08:00:00 -1 C 96 % -1.56 C
962 08-02-2020 08:05:00 -0.9 C 96 % -1.46 C
963 08-02-2020 08:10:00 -0.9 C 96 % -1.46 C
964 08-02-2020 08:15:00 -0.8 C 96 % -1.36 C
965 08-02-2020 08:20:00 -0.8 C 96 % -1.36 C
966 08-02-2020 08:25:00 -0.8 C 96 % -1.36 C
967 08-02-2020 08:30:00 -0.8 C 96 % -1.36 C
968 08-02-2020 08:35:00 -0.8 C 96 % -1.36 C
969 08-02-2020 08:40:00 -0.7 C 96 % -1.26 C
970 08-02-2020 08:45:00 -0.7 C 96 % -1.26 C
971 08-02-2020 08:50:00 -0.6 C 96 % -1.16 C
972 08-02-2020 08:55:00 -0.5 C 96 % -1.06 C
973 08-02-2020 09:00:00 -0.4 C 96 % -0.96 C
974 08-02-2020 09:05:00 -0.3 C 97 % -0.72 C
975 08-02-2020 09:10:00 -0.2 C 97 % -0.62 C
Sensor: Nr:Datum:Temp:Feuchte:Taupunkt:
Aussen-T/F 976 08-02-2020 09:15:00 -0.2 C 97 % -0.62 C
977 08-02-2020 09:20:00 -0.1 C 97 % -0.52 C
978 08-02-2020 09:25:00 0.1 C 97 % -0.32 C
979 08-02-2020 09:30:00 0.2 C 97 % -0.22 C
980 08-02-2020 09:35:00 0.2 C 97 % -0.22 C
981 08-02-2020 09:40:00 0.3 C 97 % -0.12 C
982 08-02-2020 09:45:00 0.3 C 97 % -0.12 C
983 08-02-2020 09:50:00 0.4 C 97 % -0.02 C
984 08-02-2020 09:55:00 0.5 C 97 % 0.08 C
985 08-02-2020 10:00:00 0.6 C 97 % 0.18 C
986 08-02-2020 10:05:00 0.7 C 97 % 0.28 C
987 08-02-2020 10:10:00 0.8 C 97 % 0.38 C
988 08-02-2020 10:15:00 0.8 C 97 % 0.38 C
989 08-02-2020 10:20:00 0.9 C 97 % 0.48 C
990 08-02-2020 10:25:00 1 C 97 % 0.58 C
991 08-02-2020 10:30:00 1.1 C 96 % 0.54 C
992 08-02-2020 10:35:00 1.2 C 96 % 0.63 C
993 08-02-2020 10:40:00 1.3 C 97 % 0.88 C
994 08-02-2020 10:45:00 1.4 C 96 % 0.83 C
995 08-02-2020 10:50:00 1.4 C 96 % 0.83 C
996 08-02-2020 10:55:00 1.6 C 97 % 1.18 C
997 08-02-2020 11:00:00 1.7 C 96 % 1.13 C
998 08-02-2020 11:05:00 1.7 C 96 % 1.13 C
999 08-02-2020 11:10:00 1.8 C 96 % 1.23 C
1000 08-02-2020 11:15:00 1.8 C 96 % 1.23 C
Sensor: Nr:Datum:Temp:Feuchte:Taupunkt:
Aussen-T/F 1001 08-02-2020 11:20:00 1.8 C 96 % 1.23 C
1002 08-02-2020 11:25:00 1.9 C 96 % 1.33 C
1003 08-02-2020 11:30:00 1.9 C 96 % 1.33 C
1004 08-02-2020 11:35:00 2.1 C 96 % 1.53 C
1005 08-02-2020 11:40:00 2.1 C 96 % 1.53 C
1006 08-02-2020 11:45:00 2.1 C 96 % 1.53 C
1007 08-02-2020 11:50:00 2.2 C 96 % 1.63 C
1008 08-02-2020 11:55:00 2.2 C 96 % 1.63 C
1009 08-02-2020 12:00:00 2.3 C 96 % 1.73 C
1010 08-02-2020 12:05:00 2.3 C 96 % 1.73 C
1011 08-02-2020 12:10:00 2.4 C 96 % 1.83 C
1012 08-02-2020 12:15:00 2.5 C 96 % 1.93 C
1013 08-02-2020 12:20:00 2.6 C 96 % 2.03 C
1014 08-02-2020 12:25:00 2.7 C 96 % 2.13 C
1015 08-02-2020 12:30:00 2.7 C 95 % 1.98 C
1016 08-02-2020 12:35:00 2.8 C 95 % 2.08 C
1017 08-02-2020 12:40:00 2.8 C 95 % 2.08 C
1018 08-02-2020 12:45:00 2.8 C 94 % 1.93 C
1019 08-02-2020 12:50:00 2.9 C 95 % 2.18 C
1020 08-02-2020 12:55:00 2.9 C 95 % 2.18 C
1021 08-02-2020 13:00:00 3 C 94 % 2.13 C
1022 08-02-2020 13:05:00 3.1 C 94 % 2.23 C
1023 08-02-2020 13:10:00 3.1 C 94 % 2.23 C
1024 08-02-2020 13:15:00 3.2 C 94 % 2.33 C
1025 08-02-2020 13:20:00 3.2 C 94 % 2.33 C
Sensor: Nr:Datum:Temp:Feuchte:Taupunkt:
Aussen-T/F 1026 08-02-2020 13:25:00 3.2 C 94 % 2.33 C
1027 08-02-2020 13:30:00 3.3 C 94 % 2.43 C
1028 08-02-2020 13:35:00 3.3 C 94 % 2.43 C
1029 08-02-2020 13:40:00 3.4 C 93 % 2.38 C
1030 08-02-2020 13:45:00 3.5 C 93 % 2.48 C
1031 08-02-2020 13:50:00 3.6 C 93 % 2.58 C
1032 08-02-2020 13:55:00 3.7 C 93 % 2.68 C
1033 08-02-2020 14:00:00 3.8 C 93 % 2.77 C
1034 08-02-2020 14:05:00 3.9 C 92 % 2.72 C
1035 08-02-2020 14:10:00 4 C 92 % 2.82 C
1036 08-02-2020 14:15:00 4.1 C 92 % 2.92 C
1037 08-02-2020 14:20:00 4.2 C 92 % 3.02 C
1038 08-02-2020 14:25:00 4.3 C 91 % 2.96 C
1039 08-02-2020 14:30:00 4.3 C 91 % 2.96 C
1040 08-02-2020 14:35:00 4.4 C 91 % 3.06 C
1041 08-02-2020 14:40:00 4.5 C 91 % 3.16 C
1042 08-02-2020 14:45:00 4.6 C 90 % 3.1 C
1043 08-02-2020 14:50:00 4.7 C 90 % 3.2 C
1044 08-02-2020 14:55:00 4.8 C 90 % 3.3 C
1045 08-02-2020 15:00:00 4.8 C 90 % 3.3 C
1046 08-02-2020 15:05:00 4.9 C 89 % 3.24 C
1047 08-02-2020 15:10:00 5 C 89 % 3.34 C
1048 08-02-2020 15:15:00 5.1 C 89 % 3.44 C
1049 08-02-2020 15:20:00 5.1 C 89 % 3.44 C
1050 08-02-2020 15:25:00 5.2 C 89 % 3.54 C
Sensor: Nr:Datum:Temp:Feuchte:Taupunkt:
Aussen-T/F 1051 08-02-2020 15:30:00 5.3 C 90 % 3.8 C
1052 08-02-2020 15:35:00 5.3 C 89 % 3.64 C
1053 08-02-2020 15:40:00 5.4 C 89 % 3.74 C
1054 08-02-2020 15:45:00 5.4 C 89 % 3.74 C
1055 08-02-2020 15:50:00 5.4 C 89 % 3.74 C
1056 08-02-2020 15:55:00 5.4 C 89 % 3.74 C
1057 08-02-2020 16:00:00 5.4 C 89 % 3.74 C
1058 08-02-2020 16:05:00 5.4 C 88 % 3.58 C
1059 08-02-2020 16:10:00 5.4 C 88 % 3.58 C
1060 08-02-2020 16:15:00 5.4 C 88 % 3.58 C
1061 08-02-2020 16:20:00 5.4 C 89 % 3.74 C
1062 08-02-2020 16:25:00 5.4 C 89 % 3.74 C
1063 08-02-2020 16:30:00 5.4 C 89 % 3.74 C
1064 08-02-2020 16:35:00 5.4 C 89 % 3.74 C
1065 08-02-2020 16:40:00 5.4 C 90 % 3.89 C
1066 08-02-2020 16:45:00 5.3 C 90 % 3.8 C
1067 08-02-2020 16:50:00 5.3 C 90 % 3.8 C
1068 08-02-2020 16:55:00 5.2 C 90 % 3.7 C
1069 08-02-2020 17:00:00 5.2 C 90 % 3.7 C
1070 08-02-2020 17:05:00 5.2 C 90 % 3.7 C
1071 08-02-2020 17:10:00 5.1 C 90 % 3.6 C
1072 08-02-2020 17:15:00 5 C 91 % 3.66 C
1073 08-02-2020 17:20:00 4.9 C 91 % 3.56 C
1074 08-02-2020 17:25:00 4.9 C 91 % 3.56 C
1075 08-02-2020 17:30:00 4.9 C 91 % 3.56 C
Sensor: Nr:Datum:Temp:Feuchte:Taupunkt:
Aussen-T/F 1076 08-02-2020 17:35:00 4.9 C 91 % 3.56 C
1077 08-02-2020 17:40:00 4.8 C 91 % 3.46 C
1078 08-02-2020 17:45:00 4.8 C 92 % 3.61 C
1079 08-02-2020 17:50:00 4.8 C 92 % 3.61 C
1080 08-02-2020 17:55:00 4.8 C 92 % 3.61 C
1081 08-02-2020 18:00:00 4.8 C 92 % 3.61 C
1082 08-02-2020 18:05:00 4.7 C 92 % 3.51 C
1083 08-02-2020 18:10:00 4.7 C 92 % 3.51 C
1084 08-02-2020 18:15:00 4.7 C 93 % 3.67 C
1085 08-02-2020 18:20:00 4.7 C 93 % 3.67 C
1086 08-02-2020 18:25:00 4.7 C 93 % 3.67 C
1087 08-02-2020 18:30:00 4.6 C 93 % 3.57 C
1088 08-02-2020 18:35:00 4.6 C 92 % 3.42 C
1089 08-02-2020 18:40:00 4.6 C 93 % 3.57 C
1090 08-02-2020 18:45:00 4.5 C 93 % 3.47 C
1091 08-02-2020 18:50:00 4.5 C 93 % 3.47 C
1092 08-02-2020 18:55:00 4.5 C 93 % 3.47 C
1093 08-02-2020 19:00:00 4.4 C 93 % 3.37 C
1094 08-02-2020 19:05:00 4.4 C 93 % 3.37 C
1095 08-02-2020 19:10:00 4.4 C 93 % 3.37 C
1096 08-02-2020 19:15:00 4.4 C 93 % 3.37 C
1097 08-02-2020 19:20:00 4.3 C 93 % 3.27 C
1098 08-02-2020 19:25:00 4.4 C 93 % 3.37 C
1099 08-02-2020 19:30:00 4.4 C 93 % 3.37 C
1100 08-02-2020 19:35:00 4.4 C 93 % 3.37 C
Sensor: Nr:Datum:Temp:Feuchte:Taupunkt:
Aussen-T/F 1101 08-02-2020 19:40:00 4.4 C 94 % 3.52 C
1102 08-02-2020 19:45:00 4.4 C 94 % 3.52 C
1103 08-02-2020 19:50:00 4.5 C 94 % 3.62 C
1104 08-02-2020 19:55:00 4.5 C 94 % 3.62 C
1105 08-02-2020 20:00:00 4.5 C 94 % 3.62 C
1106 08-02-2020 20:05:00 4.4 C 94 % 3.52 C
1107 08-02-2020 20:10:00 4.4 C 94 % 3.52 C
1108 08-02-2020 20:15:00 4.4 C 94 % 3.52 C
1109 08-02-2020 20:20:00 4.3 C 94 % 3.42 C
1110 08-02-2020 20:25:00 4.3 C 94 % 3.42 C
1111 08-02-2020 20:30:00 4.2 C 94 % 3.32 C
1112 08-02-2020 20:35:00 4.2 C 93 % 3.17 C
1113 08-02-2020 20:40:00 4.2 C 94 % 3.32 C
1114 08-02-2020 20:45:00 4.1 C 94 % 3.22 C
1115 08-02-2020 20:50:00 4.1 C 94 % 3.22 C
1116 08-02-2020 20:55:00 4 C 94 % 3.12 C
1117 08-02-2020 21:00:00 4 C 94 % 3.12 C
1118 08-02-2020 21:05:00 4 C 94 % 3.12 C
1119 08-02-2020 21:10:00 3.9 C 94 % 3.02 C
1120 08-02-2020 21:15:00 3.9 C 94 % 3.02 C
1121 08-02-2020 21:20:00 3.8 C 94 % 2.93 C
1122 08-02-2020 21:25:00 3.8 C 94 % 2.93 C
1123 08-02-2020 21:30:00 3.8 C 94 % 2.93 C
1124 08-02-2020 21:35:00 3.7 C 94 % 2.83 C
1125 08-02-2020 21:40:00 3.6 C 94 % 2.73 C
Sensor: Nr:Datum:Temp:Feuchte:Taupunkt:
Aussen-T/F 1126 08-02-2020 21:45:00 3.5 C 94 % 2.63 C
1127 08-02-2020 21:50:00 3.4 C 94 % 2.53 C
1128 08-02-2020 21:55:00 3.4 C 94 % 2.53 C
1129 08-02-2020 22:00:00 3.3 C 94 % 2.43 C
1130 08-02-2020 22:05:00 3.2 C 94 % 2.33 C
1131 08-02-2020 22:10:00 3.1 C 94 % 2.23 C
1132 08-02-2020 22:15:00 2.9 C 94 % 2.03 C
1133 08-02-2020 22:20:00 2.9 C 94 % 2.03 C
1134 08-02-2020 22:25:00 2.9 C 95 % 2.18 C
1135 08-02-2020 22:30:00 2.9 C 95 % 2.18 C
1136 08-02-2020 22:35:00 2.9 C 95 % 2.18 C
1137 08-02-2020 22:40:00 2.9 C 95 % 2.18 C
1138 08-02-2020 22:45:00 3 C 95 % 2.28 C
1139 08-02-2020 22:50:00 3.1 C 95 % 2.38 C
1140 08-02-2020 22:55:00 3.1 C 95 % 2.38 C
1141 08-02-2020 23:00:00 3.2 C 95 % 2.48 C
1142 08-02-2020 23:05:00 3.2 C 96 % 2.63 C
1143 08-02-2020 23:10:00 3.3 C 95 % 2.58 C
1144 08-02-2020 23:15:00 3.3 C 95 % 2.58 C
1145 08-02-2020 23:20:00 3.3 C 95 % 2.58 C
1146 08-02-2020 23:25:00 3.3 C 95 % 2.58 C
1147 08-02-2020 23:30:00 3.3 C 95 % 2.58 C
1148 08-02-2020 23:35:00 3.2 C 95 % 2.48 C
1149 08-02-2020 23:40:00 3 C 95 % 2.28 C
1150 08-02-2020 23:45:00 3 C 95 % 2.28 C
Sensor: Nr:Datum:Temp:Feuchte:Taupunkt:
Aussen-T/F 1151 08-02-2020 23:50:00 3 C 95 % 2.28 C
1152 08-02-2020 23:55:00 3.1 C 95 % 2.38 C
1153 09-02-2020 00:00:00 3.1 C 95 % 2.38 C
1154 09-02-2020 00:05:00 3.2 C 96 % 2.63 C
1155 09-02-2020 00:10:00 3.2 C 96 % 2.63 C
1156 09-02-2020 00:15:00 3.3 C 96 % 2.72 C
1157 09-02-2020 00:20:00 3.3 C 96 % 2.72 C
1158 09-02-2020 00:25:00 3.3 C 96 % 2.72 C
1159 09-02-2020 00:30:00 3.4 C 96 % 2.82 C
1160 09-02-2020 00:35:00 3.4 C 96 % 2.82 C
1161 09-02-2020 00:40:00 3.5 C 96 % 2.92 C
1162 09-02-2020 00:45:00 3.6 C 96 % 3.02 C
1163 09-02-2020 00:50:00 3.6 C 96 % 3.02 C
1164 09-02-2020 00:55:00 3.6 C 96 % 3.02 C
1165 09-02-2020 01:00:00 3.6 C 96 % 3.02 C
1166 09-02-2020 01:05:00 3.6 C 96 % 3.02 C
1167 09-02-2020 01:10:00 3.6 C 96 % 3.02 C
1168 09-02-2020 01:15:00 3.5 C 96 % 2.92 C
1169 09-02-2020 01:20:00 3.4 C 95 % 2.68 C
1170 09-02-2020 01:25:00 3.3 C 95 % 2.58 C
1171 09-02-2020 01:30:00 3.2 C 96 % 2.63 C
1172 09-02-2020 01:35:00 3.1 C 95 % 2.38 C
1173 09-02-2020 01:40:00 2.9 C 95 % 2.18 C
1174 09-02-2020 01:45:00 2.8 C 95 % 2.08 C
1175 09-02-2020 01:50:00 2.7 C 95 % 1.98 C
Sensor: Nr:Datum:Temp:Feuchte:Taupunkt:
Aussen-T/F 1176 09-02-2020 01:55:00 2.7 C 95 % 1.98 C
1177 09-02-2020 02:00:00 2.7 C 95 % 1.98 C
1178 09-02-2020 02:05:00 2.8 C 96 % 2.23 C
1179 09-02-2020 02:10:00 2.7 C 95 % 1.98 C
1180 09-02-2020 02:15:00 2.8 C 96 % 2.23 C
1181 09-02-2020 02:20:00 2.9 C 96 % 2.33 C
1182 09-02-2020 02:25:00 3.1 C 96 % 2.53 C
1183 09-02-2020 02:30:00 3.1 C 96 % 2.53 C
1184 09-02-2020 02:35:00 3.1 C 96 % 2.53 C
1185 09-02-2020 02:40:00 3.1 C 96 % 2.53 C
1186 09-02-2020 02:45:00 3.2 C 96 % 2.63 C
1187 09-02-2020 02:50:00 3.1 C 96 % 2.53 C
1188 09-02-2020 02:55:00 3.1 C 96 % 2.53 C
1189 09-02-2020 03:00:00 3.1 C 96 % 2.53 C
1190 09-02-2020 03:05:00 3.1 C 96 % 2.53 C
1191 09-02-2020 03:10:00 2.9 C 96 % 2.33 C
1192 09-02-2020 03:15:00 2.7 C 95 % 1.98 C
1193 09-02-2020 03:20:00 2.6 C 95 % 1.88 C
1194 09-02-2020 03:25:00 2.4 C 95 % 1.68 C
1195 09-02-2020 03:30:00 2.3 C 95 % 1.58 C
1196 09-02-2020 03:35:00 2.2 C 95 % 1.48 C
1197 09-02-2020 03:40:00 2.2 C 96 % 1.63 C
1198 09-02-2020 03:45:00 2.2 C 96 % 1.63 C
1199 09-02-2020 03:50:00 2.1 C 96 % 1.53 C
1200 09-02-2020 03:55:00 2 C 95 % 1.29 C
Sensor: Nr:Datum:Temp:Feuchte:Taupunkt:
Aussen-T/F 1201 09-02-2020 04:00:00 2 C 96 % 1.43 C
1202 09-02-2020 04:05:00 2 C 96 % 1.43 C
1203 09-02-2020 04:10:00 2.1 C 96 % 1.53 C
1204 09-02-2020 04:15:00 2.3 C 96 % 1.73 C
1205 09-02-2020 04:20:00 2.4 C 96 % 1.83 C
1206 09-02-2020 04:25:00 2.6 C 96 % 2.03 C
1207 09-02-2020 04:30:00 2.7 C 96 % 2.13 C
1208 09-02-2020 04:35:00 2.8 C 97 % 2.37 C
1209 09-02-2020 04:40:00 2.8 C 97 % 2.37 C
1210 09-02-2020 04:45:00 2.8 C 97 % 2.37 C
1211 09-02-2020 04:50:00 2.9 C 97 % 2.47 C
1212 09-02-2020 04:55:00 2.9 C 96 % 2.33 C
1213 09-02-2020 05:00:00 3 C 96 % 2.43 C
1214 09-02-2020 05:05:00 3.1 C 96 % 2.53 C
1215 09-02-2020 05:10:00 3.1 C 96 % 2.53 C
1216 09-02-2020 05:15:00 3.1 C 97 % 2.67 C
1217 09-02-2020 05:20:00 3.2 C 97 % 2.77 C
1218 09-02-2020 05:25:00 3.2 C 97 % 2.77 C
1219 09-02-2020 05:30:00 3.3 C 97 % 2.87 C
1220 09-02-2020 05:35:00 3.4 C 97 % 2.97 C
1221 09-02-2020 05:40:00 3.5 C 97 % 3.07 C
1222 09-02-2020 05:45:00 3.5 C 97 % 3.07 C
1223 09-02-2020 05:50:00 3.5 C 97 % 3.07 C
1224 09-02-2020 05:55:00 3.6 C 97 % 3.17 C
1225 09-02-2020 06:00:00 3.5 C 97 % 3.07 C
Sensor: Nr:Datum:Temp:Feuchte:Taupunkt:
Aussen-T/F 1226 09-02-2020 06:05:00 3.5 C 97 % 3.07 C
1227 09-02-2020 06:10:00 3.5 C 97 % 3.07 C
1228 09-02-2020 06:15:00 3.4 C 96 % 2.82 C
1229 09-02-2020 06:20:00 3.2 C 96 % 2.63 C
1230 09-02-2020 06:25:00 3.1 C 96 % 2.53 C
1231 09-02-2020 06:30:00 2.9 C 96 % 2.33 C
1232 09-02-2020 06:35:00 2.8 C 96 % 2.23 C
1233 09-02-2020 06:40:00 2.7 C 96 % 2.13 C
1234 09-02-2020 06:45:00 2.7 C 96 % 2.13 C
1235 09-02-2020 06:50:00 2.8 C 96 % 2.23 C
1236 09-02-2020 06:55:00 3 C 96 % 2.43 C
1237 09-02-2020 07:00:00 3.1 C 97 % 2.67 C
1238 09-02-2020 07:05:00 3.2 C 97 % 2.77 C
1239 09-02-2020 07:10:00 3.3 C 97 % 2.87 C
1240 09-02-2020 07:15:00 3.6 C 97 % 3.17 C
1241 09-02-2020 07:20:00 3.6 C 97 % 3.17 C
1242 09-02-2020 07:25:00 3.8 C 97 % 3.37 C
1243 09-02-2020 07:30:00 4.3 C 97 % 3.87 C
1244 09-02-2020 07:35:00 4.6 C 97 % 4.17 C
1245 09-02-2020 07:40:00 4.9 C 97 % 4.46 C
1246 09-02-2020 07:45:00 5.3 C 98 % 5.01 C
1247 09-02-2020 07:50:00 5.8 C 98 % 5.51 C
1248 09-02-2020 07:55:00 6.2 C 98 % 5.91 C
1249 09-02-2020 08:00:00 6.4 C 98 % 6.11 C
1250 09-02-2020 08:05:00 6.3 C 98 % 6.01 C
Sensor: Nr:Datum:Temp:Feuchte:Taupunkt:
Aussen-T/F 1251 09-02-2020 08:10:00 6.2 C 97 % 5.76 C
1252 09-02-2020 08:15:00 6.4 C 97 % 5.96 C
1253 09-02-2020 08:20:00 6.8 C 97 % 6.36 C
1254 09-02-2020 08:25:00 7.3 C 97 % 6.86 C
1255 09-02-2020 08:30:00 7.9 C 96 % 7.3 C
1256 09-02-2020 08:35:00 8.4 C 92 % 7.18 C
1257 09-02-2020 08:40:00 8.8 C 90 % 7.25 C
1258 09-02-2020 08:45:00 9.2 C 88 % 7.32 C
1259 09-02-2020 08:50:00 9.3 C 86 % 7.08 C
1260 09-02-2020 08:55:00 9.4 C 85 % 7.01 C
1261 09-02-2020 09:00:00 9.6 C 85 % 7.21 C
1262 09-02-2020 09:05:00 9.7 C 85 % 7.3 C
1263 09-02-2020 09:10:00 9.9 C 83 % 7.15 C
1264 09-02-2020 09:15:00 10.1 C 83 % 7.35 C
1265 09-02-2020 09:20:00 10.2 C 82 % 7.27 C
1266 09-02-2020 09:25:00 10.3 C 82 % 7.37 C
1267 09-02-2020 09:30:00 10.4 C 82 % 7.46 C
1268 09-02-2020 09:35:00 10.6 C 81 % 7.48 C
1269 09-02-2020 09:40:00 10.6 C 80 % 7.3 C
1270 09-02-2020 09:45:00 10.6 C 81 % 7.48 C
1271 09-02-2020 09:50:00 10.4 C 81 % 7.28 C
1272 09-02-2020 09:55:00 10.4 C 81 % 7.28 C
1273 09-02-2020 10:00:00 10.4 C 81 % 7.28 C
1274 09-02-2020 10:05:00 10.4 C 81 % 7.28 C
1275 09-02-2020 10:10:00 10.5 C 80 % 7.2 C
Sensor: Nr:Datum:Temp:Feuchte:Taupunkt:
Aussen-T/F 1276 09-02-2020 10:15:00 10.6 C 80 % 7.3 C
1277 09-02-2020 10:20:00 10.6 C 80 % 7.3 C
1278 09-02-2020 10:25:00 10.7 C 79 % 7.21 C
1279 09-02-2020 10:30:00 10.8 C 79 % 7.31 C
1280 09-02-2020 10:35:00 10.8 C 78 % 7.12 C
1281 09-02-2020 10:40:00 10.8 C 77 % 6.94 C
1282 09-02-2020 10:45:00 10.9 C 77 % 7.03 C
1283 09-02-2020 10:50:00 11 C 77 % 7.13 C
1284 09-02-2020 10:55:00 11.1 C 77 % 7.23 C
1285 09-02-2020 11:00:00 11.1 C 76 % 7.04 C
1286 09-02-2020 11:05:00 11.2 C 76 % 7.13 C
1287 09-02-2020 11:10:00 11.3 C 75 % 7.04 C
1288 09-02-2020 11:15:00 11.4 C 74 % 6.94 C
1289 09-02-2020 11:20:00 11.5 C 74 % 7.03 C
1290 09-02-2020 11:25:00 11.7 C 73 % 7.03 C
1291 09-02-2020 11:30:00 11.8 C 73 % 7.12 C
1292 09-02-2020 11:35:00 11.8 C 72 % 6.92 C
1293 09-02-2020 11:40:00 11.9 C 72 % 7.02 C
1294 09-02-2020 11:45:00 11.9 C 72 % 7.02 C
1295 09-02-2020 11:50:00 11.9 C 73 % 7.22 C
1296 09-02-2020 11:55:00 11.8 C 71 % 6.72 C
1297 09-02-2020 12:00:00 11.8 C 72 % 6.92 C
1298 09-02-2020 12:05:00 11.8 C 72 % 6.92 C
1299 09-02-2020 12:10:00 11.7 C 72 % 6.83 C
1300 09-02-2020 12:15:00 11.7 C 72 % 6.83 C
Sensor: Nr:Datum:Temp:Feuchte:Taupunkt:
Aussen-T/F 1301 09-02-2020 12:20:00 11.7 C 72 % 6.83 C
1302 09-02-2020 12:25:00 11.7 C 72 % 6.83 C
1303 09-02-2020 12:30:00 11.7 C 71 % 6.62 C
1304 09-02-2020 12:35:00 11.6 C 71 % 6.53 C
1305 09-02-2020 12:40:00 11.6 C 70 % 6.32 C
1306 09-02-2020 12:45:00 11.6 C 70 % 6.32 C
1307 09-02-2020 12:50:00 11.5 C 71 % 6.43 C
1308 09-02-2020 12:55:00 11.4 C 71 % 6.34 C
1309 09-02-2020 13:00:00 11.4 C 70 % 6.13 C
1310 09-02-2020 13:05:00 11.3 C 70 % 6.03 C
1311 09-02-2020 13:10:00 11.3 C 70 % 6.03 C
1312 09-02-2020 13:15:00 11.3 C 70 % 6.03 C
1313 09-02-2020 13:20:00 11.3 C 70 % 6.03 C
1314 09-02-2020 13:25:00 11.3 C 70 % 6.03 C
1315 09-02-2020 13:30:00 11.3 C 70 % 6.03 C
1316 09-02-2020 13:35:00 11.2 C 71 % 6.14 C
1317 09-02-2020 13:40:00 11.2 C 71 % 6.14 C
1318 09-02-2020 13:45:00 11.2 C 72 % 6.35 C
1319 09-02-2020 13:50:00 11.3 C 71 % 6.24 C
1320 09-02-2020 13:55:00 11.4 C 70 % 6.13 C
1321 09-02-2020 14:00:00 11.5 C 71 % 6.43 C
1322 09-02-2020 14:05:00 11.6 C 70 % 6.32 C
1323 09-02-2020 14:10:00 11.7 C 69 % 6.21 C
1324 09-02-2020 14:15:00 11.8 C 69 % 6.31 C
1325 09-02-2020 14:20:00 11.9 C 70 % 6.61 C
Sensor: Nr:Datum:Temp:Feuchte:Taupunkt:
Aussen-T/F 1326 09-02-2020 14:25:00 12 C 69 % 6.5 C
1327 09-02-2020 14:30:00 12.1 C 68 % 6.38 C
1328 09-02-2020 14:35:00 12.1 C 68 % 6.38 C
1329 09-02-2020 14:40:00 12.1 C 69 % 6.59 C
1330 09-02-2020 14:45:00 12.2 C 68 % 6.48 C
1331 09-02-2020 14:50:00 12.2 C 67 % 6.26 C
1332 09-02-2020 14:55:00 12.2 C 67 % 6.26 C
1333 09-02-2020 15:00:00 12.2 C 68 % 6.48 C
1334 09-02-2020 15:05:00 12.2 C 68 % 6.48 C
1335 09-02-2020 15:10:00 12.2 C 68 % 6.48 C
1336 09-02-2020 15:15:00 12.2 C 68 % 6.48 C
1337 09-02-2020 15:20:00 12.2 C 67 % 6.26 C
1338 09-02-2020 15:25:00 12.3 C 67 % 6.36 C
1339 09-02-2020 15:30:00 12.4 C 67 % 6.45 C
1340 09-02-2020 15:35:00 12.4 C 66 % 6.23 C
1341 09-02-2020 15:40:00 12.5 C 66 % 6.33 C
1342 09-02-2020 15:45:00 12.6 C 66 % 6.42 C
1343 09-02-2020 15:50:00 12.6 C 66 % 6.42 C
1344 09-02-2020 15:55:00 12.6 C 67 % 6.64 C
1345 09-02-2020 16:00:00 12.5 C 67 % 6.55 C
1346 09-02-2020 16:05:00 12.4 C 68 % 6.67 C
1347 09-02-2020 16:10:00 12.4 C 68 % 6.67 C
1348 09-02-2020 16:15:00 12.4 C 69 % 6.88 C
1349 09-02-2020 16:20:00 12.4 C 68 % 6.67 C
1350 09-02-2020 16:25:00 12.4 C 69 % 6.88 C
Sensor: Nr:Datum:Temp:Feuchte:Taupunkt:
Aussen-T/F 1351 09-02-2020 16:30:00 12.4 C 69 % 6.88 C
1352 09-02-2020 16:35:00 12.4 C 69 % 6.88 C
1353 09-02-2020 16:40:00 12.5 C 69 % 6.97 C
1354 09-02-2020 16:45:00 12.6 C 69 % 7.07 C
1355 09-02-2020 16:50:00 12.6 C 68 % 6.86 C
1356 09-02-2020 16:55:00 12.7 C 68 % 6.95 C
1357 09-02-2020 17:00:00 12.8 C 68 % 7.05 C
1358 09-02-2020 17:05:00 12.9 C 67 % 6.93 C
1359 09-02-2020 17:10:00 12.8 C 68 % 7.05 C
1360 09-02-2020 17:15:00 12.8 C 68 % 7.05 C
1361 09-02-2020 17:20:00 12.8 C 68 % 7.05 C
1362 09-02-2020 17:25:00 12.9 C 68 % 7.14 C
1363 09-02-2020 17:30:00 12.9 C 68 % 7.14 C
1364 09-02-2020 17:35:00 12.9 C 68 % 7.14 C
1365 09-02-2020 17:40:00 13 C 68 % 7.24 C
1366 09-02-2020 17:45:00 13 C 68 % 7.24 C
1367 09-02-2020 17:50:00 13 C 68 % 7.24 C
1368 09-02-2020 17:55:00 13 C 68 % 7.24 C
1369 09-02-2020 18:00:00 13 C 68 % 7.24 C
1370 09-02-2020 18:05:00 12.9 C 68 % 7.14 C
1371 09-02-2020 18:10:00 12.9 C 68 % 7.14 C
1372 09-02-2020 18:15:00 12.8 C 69 % 7.26 C
1373 09-02-2020 18:20:00 12.8 C 70 % 7.47 C
1374 09-02-2020 18:25:00 12.8 C 70 % 7.47 C
1375 09-02-2020 18:30:00 12.7 C 70 % 7.38 C
Sensor: Nr:Datum:Temp:Feuchte:Taupunkt:
Aussen-T/F 1376 09-02-2020 18:35:00 12.7 C 71 % 7.58 C
1377 09-02-2020 18:40:00 12.7 C 72 % 7.79 C
1378 09-02-2020 18:45:00 12.6 C 72 % 7.69 C
1379 09-02-2020 18:50:00 12.6 C 72 % 7.69 C
1380 09-02-2020 18:55:00 12.5 C 73 % 7.8 C
1381 09-02-2020 19:00:00 12.5 C 74 % 8 C
1382 09-02-2020 19:05:00 12.6 C 74 % 8.09 C
1383 09-02-2020 19:10:00 12.5 C 74 % 8 C
1384 09-02-2020 19:15:00 12.5 C 74 % 8 C
1385 09-02-2020 19:20:00 12.5 C 74 % 8 C
1386 09-02-2020 19:25:00 12.4 C 74 % 7.9 C
1387 09-02-2020 19:30:00 12.4 C 74 % 7.9 C
1388 09-02-2020 19:35:00 12.4 C 74 % 7.9 C
1389 09-02-2020 19:40:00 12.5 C 74 % 8 C
1390 09-02-2020 19:45:00 12.6 C 73 % 7.89 C
1391 09-02-2020 19:50:00 12.6 C 73 % 7.89 C
1392 09-02-2020 19:55:00 12.7 C 73 % 7.99 C
1393 09-02-2020 20:00:00 12.7 C 73 % 7.99 C
1394 09-02-2020 20:05:00 12.7 C 73 % 7.99 C
1395 09-02-2020 20:10:00 12.7 C 73 % 7.99 C
1396 09-02-2020 20:15:00 12.7 C 73 % 7.99 C
1397 09-02-2020 20:20:00 12.7 C 73 % 7.99 C
1398 09-02-2020 20:25:00 12.8 C 73 % 8.09 C
1399 09-02-2020 20:30:00 12.8 C 73 % 8.09 C
1400 09-02-2020 20:35:00 12.8 C 73 % 8.09 C
Sensor: Nr:Datum:Temp:Feuchte:Taupunkt:
Aussen-T/F 1401 09-02-2020 20:40:00 12.8 C 74 % 8.29 C
1402 09-02-2020 20:45:00 12.9 C 74 % 8.38 C
1403 09-02-2020 20:50:00 12.9 C 74 % 8.38 C
1404 09-02-2020 20:55:00 12.8 C 75 % 8.48 C
1405 09-02-2020 21:00:00 12.8 C 75 % 8.48 C
1406 09-02-2020 21:05:00 12.8 C 76 % 8.68 C
1407 09-02-2020 21:10:00 12.6 C 79 % 9.06 C
1408 09-02-2020 21:15:00 12.3 C 80 % 8.95 C
1409 09-02-2020 21:20:00 12.1 C 81 % 8.94 C
1410 09-02-2020 21:25:00 12 C 82 % 9.03 C
1411 09-02-2020 21:30:00 12.1 C 82 % 9.12 C
1412 09-02-2020 21:35:00 12.1 C 82 % 9.12 C
1413 09-02-2020 21:40:00 12.1 C 82 % 9.12 C
1414 09-02-2020 21:45:00 12.1 C 82 % 9.12 C
1415 09-02-2020 21:50:00 12.1 C 82 % 9.12 C
1416 09-02-2020 21:55:00 12.1 C 83 % 9.3 C
1417 09-02-2020 22:00:00 11.9 C 84 % 9.29 C
1418 09-02-2020 22:05:00 11.8 C 85 % 9.36 C
1419 09-02-2020 22:10:00 11.7 C 86 % 9.44 C
1420 09-02-2020 22:15:00 11.7 C 86 % 9.44 C
1421 09-02-2020 22:20:00 11.7 C 86 % 9.44 C
1422 09-02-2020 22:25:00 11.7 C 86 % 9.44 C
1423 09-02-2020 22:30:00 11.7 C 85 % 9.27 C
1424 09-02-2020 22:35:00 11.8 C 85 % 9.36 C
1425 09-02-2020 22:40:00 12 C 84 % 9.38 C
Sensor: Nr:Datum:Temp:Feuchte:Taupunkt:
Aussen-T/F 1426 09-02-2020 22:45:00 12.1 C 85 % 9.66 C
1427 09-02-2020 22:50:00 11.9 C 86 % 9.64 C
1428 09-02-2020 22:55:00 11.7 C 87 % 9.61 C
1429 09-02-2020 23:00:00 11.6 C 88 % 9.68 C
1430 09-02-2020 23:05:00 11.6 C 88 % 9.68 C
1431 09-02-2020 23:10:00 11.6 C 88 % 9.68 C
1432 09-02-2020 23:15:00 11.6 C 88 % 9.68 C
1433 09-02-2020 23:20:00 11.6 C 88 % 9.68 C
1434 09-02-2020 23:25:00 11.6 C 88 % 9.68 C
1435 09-02-2020 23:30:00 11.6 C 88 % 9.68 C
1436 09-02-2020 23:35:00 11.6 C 88 % 9.68 C
1437 09-02-2020 23:40:00 11.6 C 89 % 9.85 C
1438 09-02-2020 23:45:00 11.5 C 89 % 9.75 C
1439 09-02-2020 23:50:00 11.6 C 89 % 9.85 C
1440 09-02-2020 23:55:00 11.6 C 89 % 9.85 C
1441 10-02-2020 00:00:00 11.6 C 88 % 9.68 C
1442 10-02-2020 00:05:00 11.7 C 88 % 9.78 C
1443 10-02-2020 00:10:00 11.7 C 88 % 9.78 C
1444 10-02-2020 00:15:00 11.8 C 88 % 9.88 C
1445 10-02-2020 00:20:00 11.8 C 88 % 9.88 C
1446 10-02-2020 00:25:00 11.9 C 88 % 9.98 C
1447 10-02-2020 00:30:00 11.8 C 89 % 10.05 C
1448 10-02-2020 00:35:00 11.7 C 89 % 9.95 C
1449 10-02-2020 00:40:00 11.7 C 89 % 9.95 C
1450 10-02-2020 00:45:00 11.7 C 89 % 9.95 C
Sensor: Nr:Datum:Temp:Feuchte:Taupunkt:
Aussen-T/F 1451 10-02-2020 00:50:00 11.8 C 89 % 10.05 C
1452 10-02-2020 00:55:00 11.8 C 89 % 10.05 C
1453 10-02-2020 01:00:00 11.7 C 90 % 10.12 C
1454 10-02-2020 01:05:00 11.6 C 91 % 10.18 C
1455 10-02-2020 01:10:00 11.5 C 91 % 10.08 C
1456 10-02-2020 01:15:00 11.5 C 92 % 10.25 C
1457 10-02-2020 01:20:00 11.6 C 92 % 10.35 C
1458 10-02-2020 01:25:00 11.5 C 92 % 10.25 C
1459 10-02-2020 01:30:00 11.5 C 92 % 10.25 C
1460 10-02-2020 01:35:00 11.4 C 93 % 10.31 C
1461 10-02-2020 01:40:00 11.4 C 93 % 10.31 C
1462 10-02-2020 01:45:00 11.4 C 93 % 10.31 C
1463 10-02-2020 01:50:00 11.3 C 93 % 10.21 C
1464 10-02-2020 01:55:00 10.8 C 92 % 9.55 C
1465 10-02-2020 02:00:00 10.2 C 92 % 8.96 C
1466 10-02-2020 02:05:00 9.9 C 92 % 8.66 C
1467 10-02-2020 02:10:00 9.7 C 93 % 8.62 C
1468 10-02-2020 02:15:00 9.5 C 93 % 8.43 C
1469 10-02-2020 02:20:00 9.3 C 93 % 8.23 C
1470 10-02-2020 02:25:00 9.2 C 93 % 8.13 C
1471 10-02-2020 02:30:00 9 C 92 % 7.77 C
1472 10-02-2020 02:35:00 8.9 C 92 % 7.67 C
1473 10-02-2020 02:40:00 8.8 C 92 % 7.57 C
1474 10-02-2020 02:45:00 8.8 C 92 % 7.57 C
1475 10-02-2020 02:50:00 8.8 C 92 % 7.57 C
Sensor: Nr:Datum:Temp:Feuchte:Taupunkt:
Aussen-T/F 1476 10-02-2020 02:55:00 8.8 C 91 % 7.41 C
1477 10-02-2020 03:00:00 8.8 C 91 % 7.41 C
1478 10-02-2020 03:05:00 8.8 C 91 % 7.41 C
1479 10-02-2020 03:10:00 8.7 C 92 % 7.47 C
1480 10-02-2020 03:15:00 8.6 C 91 % 7.22 C
1481 10-02-2020 03:20:00 8.6 C 92 % 7.38 C
1482 10-02-2020 03:25:00 8.6 C 91 % 7.22 C
1483 10-02-2020 03:30:00 8.7 C 91 % 7.32 C
1484 10-02-2020 03:35:00 8.7 C 91 % 7.32 C
1485 10-02-2020 03:40:00 8.9 C 90 % 7.35 C
1486 10-02-2020 03:45:00 9.1 C 89 % 7.39 C
1487 10-02-2020 03:50:00 9.3 C 89 % 7.58 C
1488 10-02-2020 03:55:00 9.4 C 88 % 7.52 C
1489 10-02-2020 04:00:00 9.6 C 88 % 7.71 C
1490 10-02-2020 04:05:00 9.6 C 87 % 7.55 C
1491 10-02-2020 04:10:00 9.7 C 87 % 7.64 C
1492 10-02-2020 04:15:00 9.8 C 86 % 7.57 C
1493 10-02-2020 04:20:00 9.7 C 85 % 7.3 C
1494 10-02-2020 04:25:00 9.8 C 85 % 7.4 C
1495 10-02-2020 04:30:00 9.7 C 85 % 7.3 C
1496 10-02-2020 04:35:00 9.7 C 84 % 7.13 C
1497 10-02-2020 04:40:00 9.9 C 83 % 7.15 C
1498 10-02-2020 04:45:00 10 C 83 % 7.25 C
1499 10-02-2020 04:50:00 10 C 82 % 7.07 C
1500 10-02-2020 04:55:00 10 C 82 % 7.07 C
Sensor: Nr:Datum:Temp:Feuchte:Taupunkt:
Aussen-T/F 1501 10-02-2020 05:00:00 10.1 C 82 % 7.17 C
1502 10-02-2020 05:05:00 10.1 C 83 % 7.35 C
1503 10-02-2020 05:10:00 10 C 82 % 7.07 C
1504 10-02-2020 05:15:00 10.1 C 82 % 7.17 C
1505 10-02-2020 05:20:00 10 C 82 % 7.07 C
1506 10-02-2020 05:25:00 10.1 C 81 % 6.99 C
1507 10-02-2020 05:30:00 10 C 80 % 6.71 C
1508 10-02-2020 05:35:00 9.9 C 81 % 6.8 C
1509 10-02-2020 05:40:00 9.9 C 81 % 6.8 C
1510 10-02-2020 05:45:00 9.9 C 82 % 6.98 C
1511 10-02-2020 05:50:00 9.8 C 82 % 6.88 C
1512 10-02-2020 05:55:00 9.8 C 83 % 7.05 C
1513 10-02-2020 06:00:00 9.7 C 83 % 6.96 C
1514 10-02-2020 06:05:00 9.7 C 83 % 6.96 C
1515 10-02-2020 06:10:00 9.6 C 84 % 7.03 C
1516 10-02-2020 06:15:00 9.5 C 85 % 7.11 C
1517 10-02-2020 06:20:00 9.4 C 86 % 7.18 C
1518 10-02-2020 06:25:00 9.2 C 87 % 7.15 C
1519 10-02-2020 06:30:00 9 C 87 % 6.96 C
1520 10-02-2020 06:35:00 8.8 C 87 % 6.76 C
1521 10-02-2020 06:40:00 8.8 C 86 % 6.59 C
1522 10-02-2020 06:45:00 8.8 C 83 % 6.08 C
1523 10-02-2020 06:50:00 9.1 C 80 % 5.84 C
1524 10-02-2020 06:55:00 9.2 C 79 % 5.75 C
1525 10-02-2020 07:00:00 9.3 C 79 % 5.85 C
Sensor: Nr:Datum:Temp:Feuchte:Taupunkt:
Aussen-T/F 1526 10-02-2020 07:05:00 9.3 C 79 % 5.85 C
1527 10-02-2020 07:10:00 9.2 C 79 % 5.75 C
1528 10-02-2020 07:15:00 9.1 C 80 % 5.84 C
1529 10-02-2020 07:20:00 9.1 C 79 % 5.66 C
1530 10-02-2020 07:25:00 9.2 C 76 % 5.2 C
1531 10-02-2020 07:30:00 9.3 C 76 % 5.29 C
1532 10-02-2020 07:35:00 9.3 C 77 % 5.48 C
1533 10-02-2020 07:40:00 9.1 C 78 % 5.47 C
1534 10-02-2020 07:45:00 8.9 C 78 % 5.28 C
1535 10-02-2020 07:50:00 8.9 C 78 % 5.28 C
1536 10-02-2020 07:55:00 8.8 C 78 % 5.18 C
1537 10-02-2020 08:00:00 8.8 C 78 % 5.18 C
1538 10-02-2020 08:05:00 8.8 C 78 % 5.18 C
1539 10-02-2020 08:10:00 8.8 C 77 % 5 C
1540 10-02-2020 08:15:00 8.9 C 77 % 5.09 C
1541 10-02-2020 08:20:00 8.9 C 77 % 5.09 C
1542 10-02-2020 08:25:00 8.9 C 80 % 5.64 C
1543 10-02-2020 08:30:00 8.7 C 80 % 5.45 C
1544 10-02-2020 08:35:00 8.4 C 82 % 5.51 C
1545 10-02-2020 08:40:00 8.1 C 84 % 5.56 C
1546 10-02-2020 08:45:00 7.9 C 84 % 5.37 C
1547 10-02-2020 08:50:00 7.9 C 84 % 5.37 C
1548 10-02-2020 08:55:00 7.8 C 82 % 4.92 C
1549 10-02-2020 09:00:00 7.7 C 80 % 4.47 C
1550 10-02-2020 09:05:00 7.8 C 77 % 4.03 C
Sensor: Nr:Datum:Temp:Feuchte:Taupunkt:
Aussen-T/F 1551 10-02-2020 09:10:00 7.8 C 76 % 3.84 C
1552 10-02-2020 09:15:00 7.8 C 76 % 3.84 C
1553 10-02-2020 09:20:00 7.7 C 74 % 3.37 C
1554 10-02-2020 09:25:00 7.8 C 74 % 3.46 C
1555 10-02-2020 09:30:00 7.8 C 74 % 3.46 C
1556 10-02-2020 09:35:00 7.8 C 74 % 3.46 C
1557 10-02-2020 09:40:00 7.8 C 75 % 3.65 C
1558 10-02-2020 09:45:00 7.8 C 75 % 3.65 C
1559 10-02-2020 09:50:00 7.7 C 76 % 3.75 C
1560 10-02-2020 09:55:00 7.7 C 76 % 3.75 C
1561 10-02-2020 10:00:00 7.7 C 75 % 3.56 C
1562 10-02-2020 10:05:00 7.7 C 75 % 3.56 C
1563 10-02-2020 10:10:00 7.8 C 74 % 3.46 C
1564 10-02-2020 10:15:00 7.9 C 73 % 3.37 C
1565 10-02-2020 10:20:00 8.1 C 73 % 3.56 C
1566 10-02-2020 10:25:00 8.2 C 73 % 3.66 C
1567 10-02-2020 10:30:00 8.3 C 71 % 3.36 C
1568 10-02-2020 10:35:00 8.4 C 71 % 3.46 C
1569 10-02-2020 10:40:00 8.3 C 73 % 3.75 C
1570 10-02-2020 10:45:00 8.1 C 75 % 3.94 C
1571 10-02-2020 10:50:00 8 C 76 % 4.04 C
1572 10-02-2020 10:55:00 8.1 C 77 % 4.32 C
1573 10-02-2020 11:00:00 8.3 C 73 % 3.75 C
1574 10-02-2020 11:05:00 8.7 C 71 % 3.74 C
1575 10-02-2020 11:10:00 8.9 C 69 % 3.53 C
Sensor: Nr:Datum:Temp:Feuchte:Taupunkt:
Aussen-T/F 1576 10-02-2020 11:15:00 9.1 C 69 % 3.72 C
1577 10-02-2020 11:20:00 9.2 C 67 % 3.4 C
1578 10-02-2020 11:25:00 9.3 C 66 % 3.28 C
1579 10-02-2020 11:30:00 9.4 C 65 % 3.16 C
1580 10-02-2020 11:35:00 9.4 C 63 % 2.72 C
1581 10-02-2020 11:40:00 9.3 C 64 % 2.85 C
1582 10-02-2020 11:45:00 9.3 C 64 % 2.85 C
1583 10-02-2020 11:50:00 9.3 C 64 % 2.85 C
1584 10-02-2020 11:55:00 9.3 C 65 % 3.07 C
1585 10-02-2020 12:00:00 9.3 C 64 % 2.85 C
1586 10-02-2020 12:05:00 9.1 C 64 % 2.66 C
1587 10-02-2020 12:10:00 8.4 C 69 % 3.05 C
1588 10-02-2020 12:15:00 7.6 C 79 % 4.2 C
1589 10-02-2020 12:20:00 6.7 C 83 % 4.02 C
1590 10-02-2020 12:25:00 6.2 C 86 % 4.04 C
1591 10-02-2020 12:30:00 5.9 C 88 % 4.07 C
1592 10-02-2020 12:35:00 6 C 90 % 4.49 C
1593 10-02-2020 12:40:00 6.2 C 90 % 4.69 C
1594 10-02-2020 12:45:00 6.3 C 89 % 4.62 C
1595 10-02-2020 12:50:00 6.8 C 85 % 4.46 C
1596 10-02-2020 12:55:00 7.5 C 80 % 4.28 C
1597 10-02-2020 13:00:00 7.9 C 78 % 4.31 C
1598 10-02-2020 13:05:00 8.2 C 76 % 4.23 C
1599 10-02-2020 13:10:00 8.4 C 73 % 3.85 C
1600 10-02-2020 13:15:00 8.7 C 71 % 3.74 C
Sensor: Nr:Datum:Temp:Feuchte:Taupunkt:
Aussen-T/F 1601 10-02-2020 13:20:00 8.8 C 70 % 3.64 C
1602 10-02-2020 13:25:00 8.8 C 70 % 3.64 C
1603 10-02-2020 13:30:00 8.7 C 71 % 3.74 C
1604 10-02-2020 13:35:00 8.6 C 71 % 3.65 C
1605 10-02-2020 13:40:00 8.7 C 70 % 3.54 C
1606 10-02-2020 13:45:00 8.8 C 69 % 3.44 C
1607 10-02-2020 13:50:00 9.1 C 68 % 3.52 C
1608 10-02-2020 13:55:00 9.3 C 66 % 3.28 C
1609 10-02-2020 14:00:00 9.2 C 67 % 3.4 C
1610 10-02-2020 14:05:00 9.1 C 67 % 3.31 C
1611 10-02-2020 14:10:00 9 C 68 % 3.42 C
1612 10-02-2020 14:15:00 8.8 C 75 % 4.62 C
1613 10-02-2020 14:20:00 8.2 C 78 % 4.6 C
1614 10-02-2020 14:25:00 7.9 C 79 % 4.49 C
1615 10-02-2020 14:30:00 7.9 C 78 % 4.31 C
1616 10-02-2020 14:35:00 7.9 C 78 % 4.31 C
1617 10-02-2020 14:40:00 7.9 C 78 % 4.31 C
1618 10-02-2020 14:45:00 8.1 C 77 % 4.32 C
1619 10-02-2020 14:50:00 8.2 C 77 % 4.42 C
1620 10-02-2020 14:55:00 8.3 C 77 % 4.51 C
1621 10-02-2020 15:00:00 8.3 C 76 % 4.33 C
1622 10-02-2020 15:05:00 8.4 C 76 % 4.42 C
1623 10-02-2020 15:10:00 8.4 C 76 % 4.42 C
1624 10-02-2020 15:15:00 8.6 C 74 % 4.24 C
1625 10-02-2020 15:20:00 8.8 C 72 % 4.04 C
Sensor: Nr:Datum:Temp:Feuchte:Taupunkt:
Aussen-T/F 1626 10-02-2020 15:25:00 8.9 C 71 % 3.94 C
1627 10-02-2020 15:30:00 8.9 C 70 % 3.74 C
1628 10-02-2020 15:35:00 8.7 C 72 % 3.94 C
1629 10-02-2020 15:40:00 8.4 C 73 % 3.85 C
1630 10-02-2020 15:45:00 8.2 C 75 % 4.04 C
1631 10-02-2020 15:50:00 8.2 C 75 % 4.04 C
1632 10-02-2020 15:55:00 8.1 C 75 % 3.94 C
1633 10-02-2020 16:00:00 8.1 C 75 % 3.94 C
1634 10-02-2020 16:05:00 8.1 C 75 % 3.94 C
1635 10-02-2020 16:10:00 8.1 C 75 % 3.94 C
1636 10-02-2020 16:15:00 8.1 C 76 % 4.13 C
1637 10-02-2020 16:20:00 8.1 C 76 % 4.13 C
1638 10-02-2020 16:25:00 8.1 C 77 % 4.32 C
1639 10-02-2020 16:30:00 8.1 C 77 % 4.32 C
1640 10-02-2020 16:35:00 8 C 77 % 4.22 C
1641 10-02-2020 16:40:00 7.9 C 78 % 4.31 C
1642 10-02-2020 16:45:00 7.8 C 78 % 4.21 C
1643 10-02-2020 16:50:00 7.8 C 79 % 4.39 C
1644 10-02-2020 16:55:00 7.7 C 80 % 4.47 C
1645 10-02-2020 17:00:00 7.6 C 80 % 4.38 C
1646 10-02-2020 17:05:00 7.4 C 80 % 4.18 C
1647 10-02-2020 17:10:00 7.4 C 81 % 4.36 C
1648 10-02-2020 17:15:00 7.3 C 80 % 4.09 C
1649 10-02-2020 17:20:00 7.3 C 81 % 4.26 C
1650 10-02-2020 17:25:00 7.2 C 81 % 4.16 C
Sensor: Nr:Datum:Temp:Feuchte:Taupunkt:
Aussen-T/F 1651 10-02-2020 17:30:00 7.2 C 81 % 4.16 C
1652 10-02-2020 17:35:00 7.2 C 82 % 4.34 C
1653 10-02-2020 17:40:00 7.2 C 83 % 4.51 C
1654 10-02-2020 17:45:00 7.1 C 84 % 4.58 C
1655 10-02-2020 17:50:00 7 C 85 % 4.66 C
1656 10-02-2020 17:55:00 6.8 C 87 % 4.79 C
1657 10-02-2020 18:00:00 6.7 C 88 % 4.86 C
1658 10-02-2020 18:05:00 6.5 C 88 % 4.66 C
1659 10-02-2020 18:10:00 6.4 C 89 % 4.72 C
1660 10-02-2020 18:15:00 6.3 C 89 % 4.62 C
1661 10-02-2020 18:20:00 6.2 C 89 % 4.53 C
1662 10-02-2020 18:25:00 6.1 C 90 % 4.59 C
1663 10-02-2020 18:30:00 6 C 90 % 4.49 C
1664 10-02-2020 18:35:00 6 C 91 % 4.65 C
1665 10-02-2020 18:40:00 6 C 91 % 4.65 C
1666 10-02-2020 18:45:00 6.1 C 91 % 4.74 C
1667 10-02-2020 18:50:00 6.1 C 91 % 4.74 C
1668 10-02-2020 18:55:00 6.2 C 91 % 4.84 C
1669 10-02-2020 19:00:00 6.3 C 91 % 4.94 C
1670 10-02-2020 19:05:00 6.3 C 91 % 4.94 C
1671 10-02-2020 19:10:00 6.3 C 91 % 4.94 C
1672 10-02-2020 19:15:00 6.3 C 91 % 4.94 C
1673 10-02-2020 19:20:00 6.2 C 91 % 4.84 C
1674 10-02-2020 19:25:00 6.2 C 91 % 4.84 C
1675 10-02-2020 19:30:00 6.2 C 91 % 4.84 C
Sensor: Nr:Datum:Temp:Feuchte:Taupunkt:
Aussen-T/F 1676 10-02-2020 19:35:00 6.2 C 92 % 5 C
1677 10-02-2020 19:40:00 6.1 C 92 % 4.9 C
1678 10-02-2020 19:45:00 6 C 92 % 4.8 C
1679 10-02-2020 19:50:00 5.9 C 92 % 4.7 C
1680 10-02-2020 19:55:00 5.9 C 92 % 4.7 C
1681 10-02-2020 20:00:00 5.8 C 92 % 4.6 C
1682 10-02-2020 20:05:00 5.8 C 93 % 4.76 C
1683 10-02-2020 20:10:00 5.7 C 93 % 4.66 C
1684 10-02-2020 20:15:00 5.6 C 93 % 4.56 C
1685 10-02-2020 20:20:00 5.6 C 93 % 4.56 C
1686 10-02-2020 20:25:00 5.5 C 93 % 4.46 C
1687 10-02-2020 20:30:00 5.5 C 93 % 4.46 C
1688 10-02-2020 20:35:00 5.4 C 93 % 4.36 C
1689 10-02-2020 20:40:00 5.4 C 94 % 4.51 C
1690 10-02-2020 20:45:00 5.3 C 94 % 4.41 C
1691 10-02-2020 20:50:00 5.3 C 94 % 4.41 C
1692 10-02-2020 20:55:00 5.3 C 94 % 4.41 C
1693 10-02-2020 21:00:00 5.2 C 94 % 4.32 C
1694 10-02-2020 21:05:00 5.2 C 94 % 4.32 C
1695 10-02-2020 21:10:00 5.1 C 94 % 4.22 C
1696 10-02-2020 21:15:00 5 C 94 % 4.12 C
1697 10-02-2020 21:20:00 4.9 C 94 % 4.02 C
1698 10-02-2020 21:25:00 4.9 C 94 % 4.02 C
1699 10-02-2020 21:30:00 4.9 C 94 % 4.02 C
1700 10-02-2020 21:35:00 5.2 C 95 % 4.47 C
Sensor: Nr:Datum:Temp:Feuchte:Taupunkt:
Aussen-T/F 1701 10-02-2020 21:40:00 5.6 C 96 % 5.01 C
1702 10-02-2020 21:45:00 5.9 C 96 % 5.31 C
1703 10-02-2020 21:50:00 6.2 C 95 % 5.46 C
1704 10-02-2020 21:55:00 6.4 C 94 % 5.51 C
1705 10-02-2020 22:00:00 6.8 C 91 % 5.44 C
1706 10-02-2020 22:05:00 7.1 C 90 % 5.57 C
1707 10-02-2020 22:10:00 7.2 C 88 % 5.35 C
1708 10-02-2020 22:15:00 7.3 C 88 % 5.45 C
1709 10-02-2020 22:20:00 7.3 C 87 % 5.28 C
1710 10-02-2020 22:25:00 7.3 C 87 % 5.28 C
1711 10-02-2020 22:30:00 7.3 C 86 % 5.12 C
1712 10-02-2020 22:35:00 7.3 C 86 % 5.12 C
1713 10-02-2020 22:40:00 7.3 C 86 % 5.12 C
1714 10-02-2020 22:45:00 7.3 C 85 % 4.95 C
1715 10-02-2020 22:50:00 7.4 C 84 % 4.88 C
1716 10-02-2020 22:55:00 7.6 C 83 % 4.9 C
1717 10-02-2020 23:00:00 7.6 C 82 % 4.73 C
1718 10-02-2020 23:05:00 7.7 C 80 % 4.47 C
1719 10-02-2020 23:10:00 7.8 C 79 % 4.39 C
1720 10-02-2020 23:15:00 7.9 C 78 % 4.31 C
1721 10-02-2020 23:20:00 7.9 C 76 % 3.94 C
1722 10-02-2020 23:25:00 7.9 C 76 % 3.94 C
1723 10-02-2020 23:30:00 7.8 C 76 % 3.84 C
1724 10-02-2020 23:35:00 7.8 C 76 % 3.84 C
1725 10-02-2020 23:40:00 7.8 C 75 % 3.65 C
Sensor: Nr:Datum:Temp:Feuchte:Taupunkt:
Aussen-T/F 1726 10-02-2020 23:45:00 7.8 C 76 % 3.84 C
1727 10-02-2020 23:50:00 7.7 C 74 % 3.37 C
1728 10-02-2020 23:55:00 7.7 C 74 % 3.37 C
1729 11-02-2020 00:00:00 7.8 C 73 % 3.27 C
1730 11-02-2020 00:05:00 7.8 C 72 % 3.08 C
1731 11-02-2020 00:10:00 7.8 C 72 % 3.08 C
1732 11-02-2020 00:15:00 7.8 C 72 % 3.08 C
1733 11-02-2020 00:20:00 7.8 C 71 % 2.88 C
1734 11-02-2020 00:25:00 7.9 C 71 % 2.98 C
1735 11-02-2020 00:30:00 7.9 C 76 % 3.94 C
1736 11-02-2020 00:35:00 6.7 C 82 % 3.85 C
1737 11-02-2020 00:40:00 5.7 C 85 % 3.38 C
1738 11-02-2020 00:45:00 5.2 C 87 % 3.22 C
1739 11-02-2020 00:50:00 5 C 88 % 3.18 C
1740 11-02-2020 00:55:00 4.9 C 88 % 3.08 C
1741 11-02-2020 01:00:00 4.8 C 88 % 2.99 C
1742 11-02-2020 01:05:00 4.8 C 87 % 2.82 C
1743 11-02-2020 01:10:00 4.9 C 86 % 2.76 C
1744 11-02-2020 01:15:00 5 C 85 % 2.69 C
1745 11-02-2020 01:20:00 5.1 C 83 % 2.46 C
1746 11-02-2020 01:25:00 5.2 C 83 % 2.56 C
1747 11-02-2020 01:30:00 5.2 C 82 % 2.39 C
1748 11-02-2020 01:35:00 5.2 C 81 % 2.21 C
1749 11-02-2020 01:40:00 5.2 C 80 % 2.04 C
1750 11-02-2020 01:45:00 5.2 C 79 % 1.86 C
Sensor: Nr:Datum:Temp:Feuchte:Taupunkt:
Aussen-T/F 1751 11-02-2020 01:50:00 5.2 C 79 % 1.86 C
1752 11-02-2020 01:55:00 5.2 C 79 % 1.86 C
1753 11-02-2020 02:00:00 5.2 C 77 % 1.51 C
1754 11-02-2020 02:05:00 5.3 C 75 % 1.24 C
1755 11-02-2020 02:10:00 5.5 C 73 % 1.06 C
1756 11-02-2020 02:15:00 5.8 C 73 % 1.34 C
1757 11-02-2020 02:20:00 5.9 C 72 % 1.25 C
1758 11-02-2020 02:25:00 5.9 C 72 % 1.25 C
1759 11-02-2020 02:30:00 5.8 C 73 % 1.34 C
1760 11-02-2020 02:35:00 5.7 C 73 % 1.25 C
1761 11-02-2020 02:40:00 5.7 C 73 % 1.25 C
1762 11-02-2020 02:45:00 5.7 C 76 % 1.81 C
1763 11-02-2020 02:50:00 5.5 C 78 % 1.98 C
1764 11-02-2020 02:55:00 5.3 C 78 % 1.78 C
1765 11-02-2020 03:00:00 5.3 C 78 % 1.78 C
1766 11-02-2020 03:05:00 5.5 C 76 % 1.62 C
1767 11-02-2020 03:10:00 5.6 C 75 % 1.53 C
1768 11-02-2020 03:15:00 5.6 C 73 % 1.15 C
1769 11-02-2020 03:20:00 5.7 C 72 % 1.06 C
1770 11-02-2020 03:25:00 5.8 C 71 % 0.96 C
1771 11-02-2020 03:30:00 5.8 C 72 % 1.15 C
1772 11-02-2020 03:35:00 5.7 C 72 % 1.06 C
1773 11-02-2020 03:40:00 5.8 C 71 % 0.96 C
1774 11-02-2020 03:45:00 5.8 C 71 % 0.96 C
1775 11-02-2020 03:50:00 5.9 C 69 % 0.66 C
Sensor: Nr:Datum:Temp:Feuchte:Taupunkt:
Aussen-T/F 1776 11-02-2020 03:55:00 6.1 C 68 % 0.65 C
1777 11-02-2020 04:00:00 6.1 C 67 % 0.44 C
1778 11-02-2020 04:05:00 6.1 C 68 % 0.65 C
1779 11-02-2020 04:10:00 6.1 C 67 % 0.44 C
1780 11-02-2020 04:15:00 6.1 C 66 % 0.24 C
1781 11-02-2020 04:20:00 6.1 C 67 % 0.44 C
1782 11-02-2020 04:25:00 6.1 C 67 % 0.44 C
1783 11-02-2020 04:30:00 6.1 C 68 % 0.65 C
1784 11-02-2020 04:35:00 6 C 68 % 0.55 C
1785 11-02-2020 04:40:00 5.9 C 68 % 0.46 C
1786 11-02-2020 04:45:00 5.9 C 69 % 0.66 C
1787 11-02-2020 04:50:00 5.9 C 68 % 0.46 C
1788 11-02-2020 04:55:00 6 C 67 % 0.35 C
1789 11-02-2020 05:00:00 6.1 C 67 % 0.44 C
1790 11-02-2020 05:05:00 6.1 C 68 % 0.65 C
1791 11-02-2020 05:10:00 6.1 C 68 % 0.65 C
1792 11-02-2020 05:15:00 6.2 C 69 % 0.95 C
1793 11-02-2020 05:20:00 5.9 C 77 % 2.19 C
1794 11-02-2020 05:25:00 5.4 C 79 % 2.06 C
1795 11-02-2020 05:30:00 5.2 C 81 % 2.21 C
1796 11-02-2020 05:35:00 5 C 82 % 2.19 C
1797 11-02-2020 05:40:00 5 C 82 % 2.19 C
1798 11-02-2020 05:45:00 4.9 C 83 % 2.26 C
1799 11-02-2020 05:50:00 4.9 C 82 % 2.09 C
1800 11-02-2020 05:55:00 4.9 C 82 % 2.09 C
Sensor: Nr:Datum:Temp:Feuchte:Taupunkt:
Aussen-T/F 1801 11-02-2020 06:00:00 4.8 C 82 % 1.99 C
1802 11-02-2020 06:05:00 4.7 C 83 % 2.07 C
1803 11-02-2020 06:10:00 4.6 C 83 % 1.97 C
1804 11-02-2020 06:15:00 4.7 C 81 % 1.73 C
1805 11-02-2020 06:20:00 4.8 C 78 % 1.3 C
1806 11-02-2020 06:25:00 5.1 C 73 % 0.67 C
1807 11-02-2020 06:30:00 5.4 C 71 % 0.58 C
1808 11-02-2020 06:35:00 5.5 C 70 % 0.48 C
1809 11-02-2020 06:40:00 5.6 C 70 % 0.57 C
1810 11-02-2020 06:45:00 5.6 C 70 % 0.57 C
1811 11-02-2020 06:50:00 5.5 C 71 % 0.67 C
1812 11-02-2020 06:55:00 5.4 C 75 % 1.33 C
1813 11-02-2020 07:00:00 5.2 C 78 % 1.69 C
1814 11-02-2020 07:05:00 5 C 79 % 1.67 C
1815 11-02-2020 07:10:00 4.9 C 80 % 1.75 C
1816 11-02-2020 07:15:00 4.7 C 81 % 1.73 C
1817 11-02-2020 07:20:00 4.6 C 80 % 1.46 C
1818 11-02-2020 07:25:00 4.6 C 80 % 1.46 C
1819 11-02-2020 07:30:00 4.7 C 80 % 1.55 C
1820 11-02-2020 07:35:00 4.7 C 79 % 1.38 C
1821 11-02-2020 07:40:00 4.7 C 79 % 1.38 C
1822 11-02-2020 07:45:00 4.6 C 79 % 1.28 C
1823 11-02-2020 07:50:00 4.7 C 79 % 1.38 C
1824 11-02-2020 07:55:00 4.8 C 77 % 1.12 C
1825 11-02-2020 08:00:00 5.1 C 76 % 1.23 C
Sensor: Nr:Datum:Temp:Feuchte:Taupunkt:
Aussen-T/F 1826 11-02-2020 08:05:00 5.2 C 75 % 1.14 C
1827 11-02-2020 08:10:00 5.1 C 75 % 1.04 C
1828 11-02-2020 08:15:00 5.1 C 75 % 1.04 C
1829 11-02-2020 08:20:00 5.1 C 75 % 1.04 C
1830 11-02-2020 08:25:00 5.1 C 74 % 0.86 C
1831 11-02-2020 08:30:00 5.3 C 76 % 1.42 C
1832 11-02-2020 08:35:00 5.1 C 80 % 1.94 C
1833 11-02-2020 08:40:00 4.8 C 82 % 1.99 C
1834 11-02-2020 08:45:00 4.7 C 83 % 2.07 C
1835 11-02-2020 08:50:00 4.6 C 84 % 2.14 C
1836 11-02-2020 08:55:00 4.6 C 84 % 2.14 C
1837 11-02-2020 09:00:00 4.7 C 83 % 2.07 C
1838 11-02-2020 09:05:00 4.7 C 83 % 2.07 C
1839 11-02-2020 09:10:00 4.7 C 83 % 2.07 C
1840 11-02-2020 09:15:00 4.9 C 83 % 2.26 C
1841 11-02-2020 09:20:00 5.1 C 82 % 2.29 C
1842 11-02-2020 09:25:00 5.2 C 81 % 2.21 C
1843 11-02-2020 09:30:00 5.2 C 81 % 2.21 C
1844 11-02-2020 09:35:00 5.2 C 81 % 2.21 C
1845 11-02-2020 09:40:00 5.2 C 80 % 2.04 C
1846 11-02-2020 09:45:00 5.2 C 80 % 2.04 C
1847 11-02-2020 09:50:00 5.2 C 79 % 1.86 C
1848 11-02-2020 09:55:00 5.3 C 78 % 1.78 C
1849 11-02-2020 10:00:00 5.3 C 78 % 1.78 C
1850 11-02-2020 10:05:00 5.6 C 77 % 1.89 C
Sensor: Nr:Datum:Temp:Feuchte:Taupunkt:
Aussen-T/F 1851 11-02-2020 10:10:00 5.7 C 75 % 1.62 C
1852 11-02-2020 10:15:00 5.9 C 74 % 1.63 C
1853 11-02-2020 10:20:00 6.2 C 73 % 1.73 C
1854 11-02-2020 10:25:00 6.3 C 72 % 1.63 C
1855 11-02-2020 10:30:00 6.3 C 71 % 1.44 C
1856 11-02-2020 10:35:00 6.3 C 71 % 1.44 C
1857 11-02-2020 10:40:00 6.3 C 71 % 1.44 C
1858 11-02-2020 10:45:00 6.2 C 72 % 1.54 C
1859 11-02-2020 10:50:00 6.1 C 73 % 1.63 C
1860 11-02-2020 10:55:00 6.1 C 75 % 2.01 C
1861 11-02-2020 11:00:00 6.1 C 75 % 2.01 C
1862 11-02-2020 11:05:00 6.3 C 74 % 2.02 C
1863 11-02-2020 11:10:00 6.3 C 72 % 1.63 C
1864 11-02-2020 11:15:00 6.5 C 69 % 1.23 C
1865 11-02-2020 11:20:00 6.7 C 67 % 1.02 C
1866 11-02-2020 11:25:00 6.8 C 66 % 0.9 C
1867 11-02-2020 11:30:00 6.9 C 65 % 0.79 C
1868 11-02-2020 11:35:00 7 C 66 % 1.09 C
1869 11-02-2020 11:40:00 7.1 C 64 % 0.76 C
1870 11-02-2020 11:45:00 7.1 C 64 % 0.76 C
1871 11-02-2020 11:50:00 7 C 65 % 0.88 C
1872 11-02-2020 11:55:00 7 C 64 % 0.67 C
1873 11-02-2020 12:00:00 7.1 C 64 % 0.76 C
1874 11-02-2020 12:05:00 7.2 C 64 % 0.86 C
1875 11-02-2020 12:10:00 7.2 C 63 % 0.64 C
Sensor: Nr:Datum:Temp:Feuchte:Taupunkt:
Aussen-T/F 1876 11-02-2020 12:15:00 7.2 C 66 % 1.29 C
1877 11-02-2020 12:20:00 7.1 C 66 % 1.19 C
1878 11-02-2020 12:25:00 7 C 67 % 1.3 C
1879 11-02-2020 12:30:00 7 C 66 % 1.09 C
1880 11-02-2020 12:35:00 7 C 66 % 1.09 C
1881 11-02-2020 12:40:00 7.1 C 66 % 1.19 C
1882 11-02-2020 12:45:00 7.1 C 64 % 0.76 C
1883 11-02-2020 12:50:00 7.2 C 66 % 1.29 C
1884 11-02-2020 12:55:00 7.1 C 65 % 0.98 C
1885 11-02-2020 13:00:00 6.9 C 65 % 0.79 C
1886 11-02-2020 13:05:00 6.7 C 67 % 1.02 C
1887 11-02-2020 13:10:00 6.4 C 69 % 1.14 C
1888 11-02-2020 13:15:00 6.4 C 69 % 1.14 C
1889 11-02-2020 13:20:00 6.4 C 67 % 0.73 C
1890 11-02-2020 13:25:00 6.4 C 67 % 0.73 C
1891 11-02-2020 13:30:00 6.3 C 70 % 1.24 C
1892 11-02-2020 13:35:00 6.5 C 68 % 1.03 C
1893 11-02-2020 13:40:00 6.9 C 66 % 1 C
1894 11-02-2020 13:45:00 7.3 C 64 % 0.95 C
1895 11-02-2020 13:50:00 7.5 C 64 % 1.14 C
1896 11-02-2020 13:55:00 7.5 C 61 % 0.48 C
1897 11-02-2020 14:00:00 7.4 C 62 % 0.61 C
1898 11-02-2020 14:05:00 7.4 C 63 % 0.83 C
1899 11-02-2020 14:10:00 7.3 C 63 % 0.74 C
1900 11-02-2020 14:15:00 6.9 C 72 % 2.21 C
Sensor: Nr:Datum:Temp:Feuchte:Taupunkt:
Aussen-T/F 1901 11-02-2020 14:20:00 5.9 C 78 % 2.37 C
1902 11-02-2020 14:25:00 5.2 C 82 % 2.39 C
1903 11-02-2020 14:30:00 4.9 C 84 % 2.43 C
1904 11-02-2020 14:35:00 4.9 C 84 % 2.43 C
1905 11-02-2020 14:40:00 5 C 84 % 2.53 C
1906 11-02-2020 14:45:00 5.2 C 84 % 2.72 C
1907 11-02-2020 14:50:00 5.3 C 82 % 2.48 C
1908 11-02-2020 14:55:00 5.5 C 76 % 1.62 C
1909 11-02-2020 15:00:00 5.7 C 72 % 1.06 C
1910 11-02-2020 15:05:00 5.8 C 72 % 1.15 C
1911 11-02-2020 15:10:00 5.8 C 71 % 0.96 C
1912 11-02-2020 15:15:00 5.9 C 73 % 1.44 C
1913 11-02-2020 15:20:00 5.8 C 73 % 1.34 C
1914 11-02-2020 15:25:00 6.1 C 72 % 1.44 C
1915 11-02-2020 15:30:00 6.3 C 73 % 1.83 C
1916 11-02-2020 15:35:00 6.4 C 74 % 2.11 C
1917 11-02-2020 15:40:00 6.6 C 74 % 2.31 C
1918 11-02-2020 15:45:00 6.7 C 73 % 2.21 C
1919 11-02-2020 15:50:00 6.8 C 74 % 2.5 C
1920 11-02-2020 15:55:00 6.9 C 72 % 2.21 C
1921 11-02-2020 16:00:00 7 C 71 % 2.11 C
1922 11-02-2020 16:05:00 7.1 C 70 % 2.01 C
1923 11-02-2020 16:10:00 7.1 C 70 % 2.01 C
1924 11-02-2020 16:15:00 7.1 C 68 % 1.61 C
1925 11-02-2020 16:20:00 7 C 69 % 1.71 C
Sensor: Nr:Datum:Temp:Feuchte:Taupunkt:
Aussen-T/F 1926 11-02-2020 16:25:00 7.1 C 69 % 1.81 C
1927 11-02-2020 16:30:00 7.1 C 68 % 1.61 C
1928 11-02-2020 16:35:00 7.2 C 69 % 1.9 C
1929 11-02-2020 16:40:00 7.1 C 68 % 1.61 C
1930 11-02-2020 16:45:00 6.9 C 70 % 1.82 C
1931 11-02-2020 16:50:00 6.7 C 70 % 1.63 C
1932 11-02-2020 16:55:00 6.6 C 71 % 1.73 C
1933 11-02-2020 17:00:00 6.5 C 72 % 1.83 C
1934 11-02-2020 17:05:00 6.4 C 73 % 1.92 C
1935 11-02-2020 17:10:00 6.4 C 72 % 1.73 C
1936 11-02-2020 17:15:00 6.4 C 72 % 1.73 C
1937 11-02-2020 17:20:00 6.3 C 72 % 1.63 C
1938 11-02-2020 17:25:00 6.2 C 72 % 1.54 C
1939 11-02-2020 17:30:00 6.2 C 72 % 1.54 C
1940 11-02-2020 17:35:00 6.1 C 73 % 1.63 C
1941 11-02-2020 17:40:00 6.1 C 73 % 1.63 C
1942 11-02-2020 17:45:00 6.1 C 72 % 1.44 C
1943 11-02-2020 17:50:00 6.2 C 71 % 1.34 C
1944 11-02-2020 17:55:00 6.2 C 71 % 1.34 C
1945 11-02-2020 18:00:00 6.2 C 71 % 1.34 C
1946 11-02-2020 18:05:00 6.1 C 71 % 1.25 C
1947 11-02-2020 18:10:00 6.2 C 70 % 1.15 C
1948 11-02-2020 18:15:00 6.2 C 70 % 1.15 C
1949 11-02-2020 18:20:00 6.1 C 69 % 0.85 C
1950 11-02-2020 18:25:00 6.1 C 70 % 1.05 C
Sensor: Nr:Datum:Temp:Feuchte:Taupunkt:
Aussen-T/F 1951 11-02-2020 18:30:00 5.9 C 70 % 0.86 C
1952 11-02-2020 18:35:00 5.9 C 70 % 0.86 C
1953 11-02-2020 18:40:00 5.8 C 72 % 1.15 C
1954 11-02-2020 18:45:00 5.8 C 72 % 1.15 C
1955 11-02-2020 18:50:00 5.7 C 73 % 1.25 C
1956 11-02-2020 18:55:00 5.7 C 73 % 1.25 C
1957 11-02-2020 19:00:00 5.7 C 73 % 1.25 C
1958 11-02-2020 19:05:00 5.7 C 73 % 1.25 C
1959 11-02-2020 19:10:00 5.6 C 74 % 1.34 C
1960 11-02-2020 19:15:00 5.5 C 75 % 1.43 C
1961 11-02-2020 19:20:00 5.4 C 75 % 1.33 C
1962 11-02-2020 19:25:00 5.3 C 75 % 1.24 C
1963 11-02-2020 19:30:00 5.3 C 76 % 1.42 C
1964 11-02-2020 19:35:00 5.3 C 76 % 1.42 C
1965 11-02-2020 19:40:00 5.2 C 77 % 1.51 C
1966 11-02-2020 19:45:00 5.2 C 77 % 1.51 C
1967 11-02-2020 19:50:00 5.1 C 77 % 1.41 C
1968 11-02-2020 19:55:00 5.1 C 76 % 1.23 C
1969 11-02-2020 20:00:00 5.1 C 75 % 1.04 C
1970 11-02-2020 20:05:00 5.2 C 75 % 1.14 C
1971 11-02-2020 20:10:00 5.3 C 75 % 1.24 C
1972 11-02-2020 20:15:00 5.5 C 70 % 0.48 C
1973 11-02-2020 20:20:00 5.7 C 68 % 0.27 C
1974 11-02-2020 20:25:00 5.9 C 68 % 0.46 C
1975 11-02-2020 20:30:00 5.8 C 67 % 0.16 C
Sensor: Nr:Datum:Temp:Feuchte:Taupunkt:
Aussen-T/F 1976 11-02-2020 20:35:00 5.8 C 67 % 0.16 C
1977 11-02-2020 20:40:00 5.8 C 66 % -0.05 C
1978 11-02-2020 20:45:00 5.7 C 66 % -0.14 C
1979 11-02-2020 20:50:00 5.6 C 66 % -0.24 C
1980 11-02-2020 20:55:00 5.5 C 67 % -0.13 C
1981 11-02-2020 21:00:00 5.4 C 67 % -0.22 C
1982 11-02-2020 21:05:00 5.3 C 67 % -0.32 C
1983 11-02-2020 21:10:00 5.3 C 68 % -0.12 C
1984 11-02-2020 21:15:00 5.3 C 68 % -0.12 C
1985 11-02-2020 21:20:00 5.2 C 69 % -0.01 C
1986 11-02-2020 21:25:00 5.2 C 68 % -0.21 C
1987 11-02-2020 21:30:00 5.2 C 68 % -0.21 C
1988 11-02-2020 21:35:00 5.2 C 69 % -0.01 C
1989 11-02-2020 21:40:00 5.2 C 68 % -0.21 C
1990 11-02-2020 21:45:00 5.2 C 69 % -0.01 C
1991 11-02-2020 21:50:00 5.1 C 69 % -0.11 C
1992 11-02-2020 21:55:00 5.1 C 69 % -0.11 C
1993 11-02-2020 22:00:00 5 C 69 % -0.2 C
1994 11-02-2020 22:05:00 5 C 70 % 0 C
1995 11-02-2020 22:10:00 5 C 70 % 0 C
1996 11-02-2020 22:15:00 5 C 70 % 0 C
1997 11-02-2020 22:20:00 5 C 70 % 0 C
1998 11-02-2020 22:25:00 4.9 C 70 % -0.1 C
1999 11-02-2020 22:30:00 4.9 C 71 % 0.09 C
2000 11-02-2020 22:35:00 4.8 C 71 % 0 C
Sensor: Nr:Datum:Temp:Feuchte:Taupunkt:
Aussen-T/F 2001 11-02-2020 22:40:00 4.8 C 72 % 0.19 C
2002 11-02-2020 22:45:00 4.9 C 72 % 0.29 C
2003 11-02-2020 22:50:00 4.8 C 72 % 0.19 C
2004 11-02-2020 22:55:00 4.7 C 73 % 0.28 C
2005 11-02-2020 23:00:00 4.6 C 74 % 0.38 C
2006 11-02-2020 23:05:00 4.5 C 73 % 0.09 C
2007 11-02-2020 23:10:00 4.6 C 73 % 0.19 C
2008 11-02-2020 23:15:00 4.6 C 73 % 0.19 C
2009 11-02-2020 23:20:00 4.6 C 72 % 0 C
2010 11-02-2020 23:25:00 4.7 C 72 % 0.09 C
2011 11-02-2020 23:30:00 4.8 C 72 % 0.19 C
2012 11-02-2020 23:35:00 4.9 C 71 % 0.09 C
2013 11-02-2020 23:40:00 5 C 70 % 0 C
2014 11-02-2020 23:45:00 5.1 C 70 % 0.09 C
2015 11-02-2020 23:50:00 5.2 C 69 % -0.01 C
2016 11-02-2020 23:55:00 5.2 C 70 % 0.19 C
2017 12-02-2020 00:00:00 5.2 C 70 % 0.19 C
2018 12-02-2020 00:05:00 5.3 C 70 % 0.28 C
2019 12-02-2020 00:10:00 5.2 C 70 % 0.19 C
2020 12-02-2020 00:15:00 5.3 C 69 % 0.09 C
2021 12-02-2020 00:20:00 5.3 C 69 % 0.09 C
2022 12-02-2020 00:25:00 5.3 C 70 % 0.28 C
2023 12-02-2020 00:30:00 5.3 C 70 % 0.28 C
2024 12-02-2020 00:35:00 5.2 C 70 % 0.19 C
2025 12-02-2020 00:40:00 5.3 C 71 % 0.48 C
Sensor: Nr:Datum:Temp:Feuchte:Taupunkt:
Aussen-T/F 2026 12-02-2020 00:45:00 5.2 C 72 % 0.58 C
2027 12-02-2020 00:50:00 5.2 C 73 % 0.77 C
2028 12-02-2020 00:55:00 5.2 C 73 % 0.77 C
2029 12-02-2020 01:00:00 5.2 C 74 % 0.95 C
2030 12-02-2020 01:05:00 5.2 C 74 % 0.95 C
2031 12-02-2020 01:10:00 5.2 C 74 % 0.95 C
2032 12-02-2020 01:15:00 5.1 C 75 % 1.04 C
2033 12-02-2020 01:20:00 5 C 75 % 0.95 C
2034 12-02-2020 01:25:00 5 C 76 % 1.13 C
2035 12-02-2020 01:30:00 5 C 76 % 1.13 C
2036 12-02-2020 01:35:00 5.1 C 76 % 1.23 C
2037 12-02-2020 01:40:00 5.1 C 76 % 1.23 C
2038 12-02-2020 01:45:00 5.1 C 75 % 1.04 C
2039 12-02-2020 01:50:00 5.2 C 75 % 1.14 C
2040 12-02-2020 01:55:00 5.2 C 75 % 1.14 C
2041 12-02-2020 02:00:00 5.2 C 75 % 1.14 C
2042 12-02-2020 02:05:00 5.2 C 75 % 1.14 C
2043 12-02-2020 02:10:00 5.1 C 75 % 1.04 C
2044 12-02-2020 02:15:00 5.1 C 75 % 1.04 C
2045 12-02-2020 02:20:00 5.1 C 75 % 1.04 C
2046 12-02-2020 02:25:00 5.1 C 75 % 1.04 C
2047 12-02-2020 02:30:00 5 C 75 % 0.95 C
2048 12-02-2020 02:35:00 4.9 C 75 % 0.85 C
2049 12-02-2020 02:40:00 4.9 C 75 % 0.85 C
2050 12-02-2020 02:45:00 4.8 C 76 % 0.94 C
Sensor: Nr:Datum:Temp:Feuchte:Taupunkt:
Aussen-T/F 2051 12-02-2020 02:50:00 4.8 C 76 % 0.94 C
2052 12-02-2020 02:55:00 4.7 C 76 % 0.84 C
2053 12-02-2020 03:00:00 4.7 C 76 % 0.84 C
2054 12-02-2020 03:05:00 4.7 C 76 % 0.84 C
2055 12-02-2020 03:10:00 4.7 C 76 % 0.84 C
2056 12-02-2020 03:15:00 4.7 C 76 % 0.84 C
2057 12-02-2020 03:20:00 4.8 C 76 % 0.94 C
2058 12-02-2020 03:25:00 4.8 C 76 % 0.94 C
2059 12-02-2020 03:30:00 4.8 C 76 % 0.94 C
2060 12-02-2020 03:35:00 4.8 C 76 % 0.94 C
2061 12-02-2020 03:40:00 4.8 C 76 % 0.94 C
2062 12-02-2020 03:45:00 4.7 C 76 % 0.84 C
2063 12-02-2020 03:50:00 4.7 C 76 % 0.84 C
2064 12-02-2020 03:55:00 4.6 C 77 % 0.92 C
2065 12-02-2020 04:00:00 4.5 C 77 % 0.83 C
2066 12-02-2020 04:05:00 4.5 C 78 % 1.01 C
2067 12-02-2020 04:10:00 4.6 C 77 % 0.92 C
2068 12-02-2020 04:15:00 4.7 C 77 % 1.02 C
2069 12-02-2020 04:20:00 4.8 C 76 % 0.94 C
2070 12-02-2020 04:25:00 4.9 C 76 % 1.03 C
2071 12-02-2020 04:30:00 4.9 C 76 % 1.03 C
2072 12-02-2020 04:35:00 4.9 C 77 % 1.22 C
2073 12-02-2020 04:40:00 4.9 C 77 % 1.22 C
2074 12-02-2020 04:45:00 4.9 C 77 % 1.22 C
2075 12-02-2020 04:50:00 4.9 C 77 % 1.22 C
Sensor: Nr:Datum:Temp:Feuchte:Taupunkt:
Aussen-T/F 2076 12-02-2020 04:55:00 4.9 C 77 % 1.22 C
2077 12-02-2020 05:00:00 4.9 C 77 % 1.22 C
2078 12-02-2020 05:05:00 4.9 C 77 % 1.22 C
2079 12-02-2020 05:10:00 4.9 C 78 % 1.39 C
2080 12-02-2020 05:15:00 4.9 C 78 % 1.39 C
2081 12-02-2020 05:20:00 4.9 C 78 % 1.39 C
2082 12-02-2020 05:25:00 5 C 77 % 1.31 C
2083 12-02-2020 05:30:00 5.1 C 78 % 1.59 C
2084 12-02-2020 05:35:00 5.1 C 77 % 1.41 C
2085 12-02-2020 05:40:00 5.1 C 78 % 1.59 C
2086 12-02-2020 05:45:00 5.1 C 77 % 1.41 C
2087 12-02-2020 05:50:00 5.1 C 77 % 1.41 C
2088 12-02-2020 05:55:00 5.1 C 77 % 1.41 C
2089 12-02-2020 06:00:00 5.1 C 77 % 1.41 C
2090 12-02-2020 06:05:00 5.1 C 77 % 1.41 C
2091 12-02-2020 06:10:00 5.1 C 78 % 1.59 C
2092 12-02-2020 06:15:00 5.1 C 78 % 1.59 C
2093 12-02-2020 06:20:00 5 C 78 % 1.49 C
2094 12-02-2020 06:25:00 5.1 C 79 % 1.77 C
2095 12-02-2020 06:30:00 5 C 79 % 1.67 C
2096 12-02-2020 06:35:00 5 C 79 % 1.67 C
2097 12-02-2020 06:40:00 4.9 C 79 % 1.57 C
2098 12-02-2020 06:45:00 4.9 C 79 % 1.57 C
2099 12-02-2020 06:50:00 4.9 C 79 % 1.57 C
2100 12-02-2020 06:55:00 4.9 C 79 % 1.57 C
Sensor: Nr:Datum:Temp:Feuchte:Taupunkt:
Aussen-T/F 2101 12-02-2020 07:00:00 4.9 C 80 % 1.75 C
2102 12-02-2020 07:05:00 4.8 C 80 % 1.65 C
2103 12-02-2020 07:10:00 4.8 C 81 % 1.82 C
2104 12-02-2020 07:15:00 4.7 C 83 % 2.07 C
2105 12-02-2020 07:20:00 4.4 C 85 % 2.11 C
2106 12-02-2020 07:25:00 4.2 C 87 % 2.23 C
2107 12-02-2020 07:30:00 3.9 C 87 % 1.94 C
2108 12-02-2020 07:35:00 3.8 C 88 % 2 C
2109 12-02-2020 07:40:00 3.7 C 88 % 1.9 C
2110 12-02-2020 07:45:00 3.7 C 88 % 1.9 C
2111 12-02-2020 07:50:00 3.7 C 89 % 2.06 C
2112 12-02-2020 07:55:00 3.7 C 89 % 2.06 C
2113 12-02-2020 08:00:00 3.7 C 88 % 1.9 C
2114 12-02-2020 08:05:00 3.7 C 88 % 1.9 C
2115 12-02-2020 08:10:00 3.7 C 88 % 1.9 C
2116 12-02-2020 08:15:00 3.8 C 88 % 2 C
2117 12-02-2020 08:20:00 3.8 C 88 % 2 C
2118 12-02-2020 08:25:00 3.8 C 88 % 2 C
2119 12-02-2020 08:30:00 3.9 C 88 % 2.1 C
2120 12-02-2020 08:35:00 3.9 C 87 % 1.94 C
2121 12-02-2020 08:40:00 3.9 C 87 % 1.94 C
2122 12-02-2020 08:45:00 3.9 C 87 % 1.94 C
2123 12-02-2020 08:50:00 4 C 87 % 2.04 C
2124 12-02-2020 08:55:00 4.1 C 87 % 2.14 C
2125 12-02-2020 09:00:00 4.1 C 87 % 2.14 C
Sensor: Nr:Datum:Temp:Feuchte:Taupunkt:
Aussen-T/F 2126 12-02-2020 09:05:00 4.1 C 86 % 1.97 C
2127 12-02-2020 09:10:00 4.1 C 86 % 1.97 C
2128 12-02-2020 09:15:00 4.2 C 86 % 2.07 C
2129 12-02-2020 09:20:00 4.3 C 85 % 2.01 C
2130 12-02-2020 09:25:00 4.3 C 85 % 2.01 C
2131 12-02-2020 09:30:00 4.4 C 84 % 1.94 C
2132 12-02-2020 09:35:00 4.4 C 84 % 1.94 C
2133 12-02-2020 09:40:00 4.4 C 83 % 1.77 C
2134 12-02-2020 09:45:00 4.4 C 84 % 1.94 C
2135 12-02-2020 09:50:00 4.6 C 83 % 1.97 C
2136 12-02-2020 09:55:00 4.8 C 83 % 2.16 C
2137 12-02-2020 10:00:00 4.9 C 83 % 2.26 C
2138 12-02-2020 10:05:00 5.1 C 82 % 2.29 C
2139 12-02-2020 10:10:00 5.1 C 83 % 2.46 C
2140 12-02-2020 10:15:00 5 C 84 % 2.53 C
2141 12-02-2020 10:20:00 4.8 C 86 % 2.66 C
2142 12-02-2020 10:25:00 4.8 C 87 % 2.82 C
2143 12-02-2020 10:30:00 4.7 C 88 % 2.89 C
2144 12-02-2020 10:35:00 4.7 C 89 % 3.05 C
2145 12-02-2020 10:40:00 4.8 C 89 % 3.14 C
2146 12-02-2020 10:45:00 4.8 C 89 % 3.14 C
2147 12-02-2020 10:50:00 4.9 C 88 % 3.08 C
2148 12-02-2020 10:55:00 5.2 C 88 % 3.38 C
2149 12-02-2020 11:00:00 5.3 C 86 % 3.15 C
2150 12-02-2020 11:05:00 5.5 C 85 % 3.18 C
Sensor: Nr:Datum:Temp:Feuchte:Taupunkt:
Aussen-T/F 2151 12-02-2020 11:10:00 5.6 C 85 % 3.28 C
2152 12-02-2020 11:15:00 5.6 C 85 % 3.28 C
2153 12-02-2020 11:20:00 5.6 C 83 % 2.95 C
2154 12-02-2020 11:25:00 5.7 C 83 % 3.04 C
2155 12-02-2020 11:30:00 5.8 C 83 % 3.14 C
2156 12-02-2020 11:35:00 5.8 C 83 % 3.14 C
2157 12-02-2020 11:40:00 5.7 C 82 % 2.87 C
2158 12-02-2020 11:45:00 5.7 C 82 % 2.87 C
2159 12-02-2020 11:50:00 5.4 C 82 % 2.58 C
2160 12-02-2020 11:55:00 5.3 C 83 % 2.65 C
2161 12-02-2020 12:00:00 5.2 C 83 % 2.56 C
2162 12-02-2020 12:05:00 5.2 C 83 % 2.56 C
2163 12-02-2020 12:10:00 5.3 C 84 % 2.82 C
2164 12-02-2020 12:15:00 5.4 C 84 % 2.92 C
2165 12-02-2020 12:20:00 5.5 C 83 % 2.85 C
2166 12-02-2020 12:25:00 5.5 C 83 % 2.85 C
2167 12-02-2020 12:30:00 5.5 C 83 % 2.85 C
2168 12-02-2020 12:35:00 5.4 C 84 % 2.92 C
2169 12-02-2020 12:40:00 5.3 C 84 % 2.82 C
2170 12-02-2020 12:45:00 5.3 C 85 % 2.99 C
2171 12-02-2020 12:50:00 5.3 C 86 % 3.15 C
2172 12-02-2020 12:55:00 5.3 C 86 % 3.15 C
2173 12-02-2020 13:00:00 5.5 C 85 % 3.18 C
2174 12-02-2020 13:05:00 5.7 C 84 % 3.21 C
2175 12-02-2020 13:10:00 5.9 C 83 % 3.24 C
Sensor: Nr:Datum:Temp:Feuchte:Taupunkt:
Aussen-T/F 2176 12-02-2020 13:15:00 6.1 C 80 % 2.92 C
2177 12-02-2020 13:20:00 6.4 C 81 % 3.38 C
2178 12-02-2020 13:25:00 6.7 C 80 % 3.5 C
2179 12-02-2020 13:30:00 6.8 C 77 % 3.06 C
2180 12-02-2020 13:35:00 6.9 C 76 % 2.97 C
2181 12-02-2020 13:40:00 6.9 C 73 % 2.4 C
2182 12-02-2020 13:45:00 6.8 C 75 % 2.69 C
2183 12-02-2020 13:50:00 6.7 C 76 % 2.78 C
2184 12-02-2020 13:55:00 6.6 C 77 % 2.86 C
2185 12-02-2020 14:00:00 6.5 C 77 % 2.77 C
2186 12-02-2020 14:05:00 6.4 C 76 % 2.49 C
2187 12-02-2020 14:10:00 6.5 C 76 % 2.58 C
2188 12-02-2020 14:15:00 6.7 C 75 % 2.59 C
2189 12-02-2020 14:20:00 6.8 C 75 % 2.69 C
2190 12-02-2020 14:25:00 6.8 C 74 % 2.5 C
2191 12-02-2020 14:30:00 6.9 C 74 % 2.6 C
2192 12-02-2020 14:35:00 7 C 70 % 1.91 C
2193 12-02-2020 14:40:00 7.1 C 69 % 1.81 C
2194 12-02-2020 14:45:00 7.2 C 70 % 2.11 C
2195 12-02-2020 14:50:00 7.1 C 72 % 2.4 C
2196 12-02-2020 14:55:00 7 C 73 % 2.5 C
2197 12-02-2020 15:00:00 6.9 C 74 % 2.6 C
2198 12-02-2020 15:05:00 6.9 C 74 % 2.6 C
2199 12-02-2020 15:10:00 6.9 C 74 % 2.6 C
2200 12-02-2020 15:15:00 7 C 74 % 2.69 C
Sensor: Nr:Datum:Temp:Feuchte:Taupunkt:
Aussen-T/F 2201 12-02-2020 15:20:00 7.1 C 72 % 2.4 C
2202 12-02-2020 15:25:00 7.2 C 72 % 2.5 C
2203 12-02-2020 15:30:00 7.3 C 72 % 2.6 C
2204 12-02-2020 15:35:00 7.4 C 73 % 2.89 C
2205 12-02-2020 15:40:00 7.4 C 72 % 2.69 C
2206 12-02-2020 15:45:00 7.2 C 72 % 2.5 C
2207 12-02-2020 15:50:00 7 C 73 % 2.5 C
2208 12-02-2020 15:55:00 6.9 C 74 % 2.6 C
2209 12-02-2020 16:00:00 6.9 C 74 % 2.6 C
2210 12-02-2020 16:05:00 6.9 C 75 % 2.78 C
2211 12-02-2020 16:10:00 6.8 C 75 % 2.69 C
2212 12-02-2020 16:15:00 6.7 C 76 % 2.78 C
2213 12-02-2020 16:20:00 6.7 C 76 % 2.78 C
2214 12-02-2020 16:25:00 6.7 C 74 % 2.4 C
2215 12-02-2020 16:30:00 6.6 C 75 % 2.49 C
2216 12-02-2020 16:35:00 6.6 C 75 % 2.49 C
2217 12-02-2020 16:40:00 6.6 C 75 % 2.49 C
2218 12-02-2020 16:45:00 6.4 C 76 % 2.49 C
2219 12-02-2020 16:50:00 6.4 C 76 % 2.49 C
2220 12-02-2020 16:55:00 6.4 C 76 % 2.49 C
2221 12-02-2020 17:00:00 6.3 C 74 % 2.02 C
2222 12-02-2020 17:05:00 6.3 C 74 % 2.02 C
2223 12-02-2020 17:10:00 6.2 C 74 % 1.92 C
2224 12-02-2020 17:15:00 6.1 C 75 % 2.01 C
2225 12-02-2020 17:20:00 6 C 75 % 1.91 C
Sensor: Nr:Datum:Temp:Feuchte:Taupunkt:
Aussen-T/F 2226 12-02-2020 17:25:00 5.9 C 75 % 1.82 C
2227 12-02-2020 17:30:00 5.8 C 75 % 1.72 C
2228 12-02-2020 17:35:00 5.7 C 76 % 1.81 C
2229 12-02-2020 17:40:00 5.6 C 77 % 1.89 C
2230 12-02-2020 17:45:00 5.4 C 78 % 1.88 C
2231 12-02-2020 17:50:00 5.3 C 79 % 1.96 C
2232 12-02-2020 17:55:00 5.3 C 80 % 2.14 C
2233 12-02-2020 18:00:00 5.1 C 81 % 2.12 C
2234 12-02-2020 18:05:00 4.9 C 82 % 2.09 C
2235 12-02-2020 18:10:00 4.8 C 82 % 1.99 C
2236 12-02-2020 18:15:00 4.7 C 83 % 2.07 C
2237 12-02-2020 18:20:00 4.6 C 83 % 1.97 C
2238 12-02-2020 18:25:00 4.5 C 83 % 1.87 C
2239 12-02-2020 18:30:00 4.4 C 84 % 1.94 C
2240 12-02-2020 18:35:00 4.3 C 84 % 1.84 C
2241 12-02-2020 18:40:00 4.3 C 84 % 1.84 C
2242 12-02-2020 18:45:00 4.3 C 84 % 1.84 C
2243 12-02-2020 18:50:00 4.3 C 84 % 1.84 C
2244 12-02-2020 18:55:00 4.3 C 84 % 1.84 C
2245 12-02-2020 19:00:00 4.2 C 84 % 1.74 C
2246 12-02-2020 19:05:00 4.2 C 85 % 1.91 C
2247 12-02-2020 19:10:00 4.3 C 84 % 1.84 C
2248 12-02-2020 19:15:00 4.3 C 84 % 1.84 C
2249 12-02-2020 19:20:00 4.3 C 84 % 1.84 C
2250 12-02-2020 19:25:00 4.4 C 84 % 1.94 C
Sensor: Nr:Datum:Temp:Feuchte:Taupunkt:
Aussen-T/F 2251 12-02-2020 19:30:00 4.3 C 84 % 1.84 C
2252 12-02-2020 19:35:00 4.3 C 84 % 1.84 C
2253 12-02-2020 19:40:00 4.2 C 84 % 1.74 C
2254 12-02-2020 19:45:00 4.2 C 85 % 1.91 C
2255 12-02-2020 19:50:00 4 C 85 % 1.71 C
2256 12-02-2020 19:55:00 3.9 C 86 % 1.78 C
2257 12-02-2020 20:00:00 3.8 C 86 % 1.68 C
2258 12-02-2020 20:05:00 3.7 C 87 % 1.74 C
2259 12-02-2020 20:10:00 3.6 C 87 % 1.64 C
2260 12-02-2020 20:15:00 3.4 C 87 % 1.45 C
2261 12-02-2020 20:20:00 3.3 C 87 % 1.35 C
2262 12-02-2020 20:25:00 3.1 C 88 % 1.31 C
2263 12-02-2020 20:30:00 2.9 C 88 % 1.11 C
2264 12-02-2020 20:35:00 2.8 C 89 % 1.17 C
2265 12-02-2020 20:40:00 2.9 C 90 % 1.43 C
2266 12-02-2020 20:45:00 3 C 90 % 1.52 C
2267 12-02-2020 20:50:00 3 C 90 % 1.52 C
2268 12-02-2020 20:55:00 3.1 C 91 % 1.78 C
2269 12-02-2020 21:00:00 2.9 C 90 % 1.43 C
2270 12-02-2020 21:05:00 2.8 C 90 % 1.33 C
2271 12-02-2020 21:10:00 2.8 C 90 % 1.33 C
2272 12-02-2020 21:15:00 2.7 C 91 % 1.38 C
2273 12-02-2020 21:20:00 2.7 C 91 % 1.38 C
2274 12-02-2020 21:25:00 2.8 C 91 % 1.48 C
2275 12-02-2020 21:30:00 2.7 C 91 % 1.38 C
Sensor: Nr:Datum:Temp:Feuchte:Taupunkt:
Aussen-T/F 2276 12-02-2020 21:35:00 2.8 C 91 % 1.48 C
2277 12-02-2020 21:40:00 2.7 C 91 % 1.38 C
2278 12-02-2020 21:45:00 2.8 C 91 % 1.48 C
2279 12-02-2020 21:50:00 2.8 C 91 % 1.48 C
2280 12-02-2020 21:55:00 2.9 C 91 % 1.58 C
2281 12-02-2020 22:00:00 2.8 C 91 % 1.48 C
2282 12-02-2020 22:05:00 2.8 C 91 % 1.48 C
2283 12-02-2020 22:10:00 2.8 C 91 % 1.48 C
2284 12-02-2020 22:15:00 2.7 C 91 % 1.38 C
2285 12-02-2020 22:20:00 2.6 C 91 % 1.28 C
2286 12-02-2020 22:25:00 2.6 C 91 % 1.28 C
2287 12-02-2020 22:30:00 2.4 C 91 % 1.08 C
2288 12-02-2020 22:35:00 2.4 C 91 % 1.08 C
2289 12-02-2020 22:40:00 2.4 C 92 % 1.24 C
2290 12-02-2020 22:45:00 2.5 C 92 % 1.34 C
2291 12-02-2020 22:50:00 2.4 C 92 % 1.24 C
2292 12-02-2020 22:55:00 2.4 C 92 % 1.24 C
2293 12-02-2020 23:00:00 2.4 C 92 % 1.24 C
2294 12-02-2020 23:05:00 2.3 C 92 % 1.14 C
2295 12-02-2020 23:10:00 2.3 C 93 % 1.29 C
2296 12-02-2020 23:15:00 2.4 C 93 % 1.39 C
2297 12-02-2020 23:20:00 2.4 C 93 % 1.39 C
2298 12-02-2020 23:25:00 2.4 C 93 % 1.39 C
2299 12-02-2020 23:30:00 2.4 C 93 % 1.39 C
2300 12-02-2020 23:35:00 2.4 C 93 % 1.39 C
Sensor: Nr:Datum:Temp:Feuchte:Taupunkt:
Aussen-T/F 2301 12-02-2020 23:40:00 2.4 C 93 % 1.39 C
2302 12-02-2020 23:45:00 2.4 C 93 % 1.39 C
2303 12-02-2020 23:50:00 2.4 C 93 % 1.39 C
2304 12-02-2020 23:55:00 2.6 C 93 % 1.59 C
2305 13-02-2020 00:00:00 2.6 C 93 % 1.59 C
2306 13-02-2020 00:05:00 2.6 C 93 % 1.59 C
2307 13-02-2020 00:10:00 2.5 C 93 % 1.49 C
2308 13-02-2020 00:15:00 2.5 C 93 % 1.49 C
2309 13-02-2020 00:20:00 2.5 C 93 % 1.49 C
2310 13-02-2020 00:25:00 2.4 C 93 % 1.39 C
2311 13-02-2020 00:30:00 2.4 C 93 % 1.39 C
2312 13-02-2020 00:35:00 2.4 C 93 % 1.39 C
2313 13-02-2020 00:40:00 2.4 C 93 % 1.39 C
2314 13-02-2020 00:45:00 2.4 C 93 % 1.39 C
2315 13-02-2020 00:50:00 2.4 C 93 % 1.39 C
2316 13-02-2020 00:55:00 2.4 C 93 % 1.39 C
2317 13-02-2020 01:00:00 2.5 C 94 % 1.63 C
2318 13-02-2020 01:05:00 2.5 C 93 % 1.49 C
2319 13-02-2020 01:10:00 2.5 C 93 % 1.49 C
2320 13-02-2020 01:15:00 2.5 C 93 % 1.49 C
2321 13-02-2020 01:20:00 2.4 C 93 % 1.39 C
2322 13-02-2020 01:25:00 2.4 C 93 % 1.39 C
2323 13-02-2020 01:30:00 2.4 C 93 % 1.39 C
2324 13-02-2020 01:35:00 2.4 C 93 % 1.39 C
2325 13-02-2020 01:40:00 2.4 C 93 % 1.39 C
Sensor: Nr:Datum:Temp:Feuchte:Taupunkt:
Aussen-T/F 2326 13-02-2020 01:45:00 2.3 C 93 % 1.29 C
2327 13-02-2020 01:50:00 2.2 C 93 % 1.19 C
2328 13-02-2020 01:55:00 2.2 C 93 % 1.19 C
2329 13-02-2020 02:00:00 2.2 C 93 % 1.19 C
2330 13-02-2020 02:05:00 2.1 C 93 % 1.09 C
2331 13-02-2020 02:10:00 1.9 C 93 % 0.89 C
2332 13-02-2020 02:15:00 1.8 C 93 % 0.79 C
2333 13-02-2020 02:20:00 1.8 C 93 % 0.79 C
2334 13-02-2020 02:25:00 1.7 C 93 % 0.69 C
2335 13-02-2020 02:30:00 1.6 C 93 % 0.59 C
2336 13-02-2020 02:35:00 1.5 C 93 % 0.49 C
2337 13-02-2020 02:40:00 1.4 C 93 % 0.4 C
2338 13-02-2020 02:45:00 1.3 C 93 % 0.3 C
2339 13-02-2020 02:50:00 1.3 C 93 % 0.3 C
2340 13-02-2020 02:55:00 1.2 C 93 % 0.2 C
2341 13-02-2020 03:00:00 1.1 C 93 % 0.1 C
2342 13-02-2020 03:05:00 1.1 C 93 % 0.1 C
2343 13-02-2020 03:10:00 1.1 C 94 % 0.24 C
2344 13-02-2020 03:15:00 1 C 94 % 0.15 C
2345 13-02-2020 03:20:00 1 C 94 % 0.15 C
2346 13-02-2020 03:25:00 1 C 94 % 0.15 C
2347 13-02-2020 03:30:00 1 C 94 % 0.15 C
2348 13-02-2020 03:35:00 1 C 94 % 0.15 C
2349 13-02-2020 03:40:00 0.9 C 94 % 0.05 C
2350 13-02-2020 03:45:00 0.9 C 94 % 0.05 C
Sensor: Nr:Datum:Temp:Feuchte:Taupunkt:
Aussen-T/F 2351 13-02-2020 03:50:00 0.8 C 94 % -0.05 C
2352 13-02-2020 03:55:00 0.8 C 94 % -0.05 C
2353 13-02-2020 04:00:00 0.7 C 94 % -0.15 C
2354 13-02-2020 04:05:00 0.7 C 94 % -0.15 C
2355 13-02-2020 04:10:00 0.7 C 94 % -0.15 C
2356 13-02-2020 04:15:00 0.6 C 94 % -0.25 C
2357 13-02-2020 04:20:00 0.6 C 94 % -0.25 C
2358 13-02-2020 04:25:00 0.6 C 95 % -0.11 C
2359 13-02-2020 04:30:00 0.6 C 95 % -0.11 C
2360 13-02-2020 04:35:00 0.6 C 95 % -0.11 C
2361 13-02-2020 04:40:00 0.6 C 94 % -0.25 C
2362 13-02-2020 04:45:00 0.5 C 94 % -0.35 C
2363 13-02-2020 04:50:00 0.5 C 94 % -0.35 C
2364 13-02-2020 04:55:00 0.5 C 95 % -0.21 C
2365 13-02-2020 05:00:00 0.6 C 95 % -0.11 C
2366 13-02-2020 05:05:00 0.5 C 95 % -0.21 C
2367 13-02-2020 05:10:00 0.4 C 95 % -0.31 C
2368 13-02-2020 05:15:00 0.3 C 95 % -0.4 C
2369 13-02-2020 05:20:00 0.2 C 94 % -0.65 C
2370 13-02-2020 05:25:00 0.1 C 94 % -0.75 C
2371 13-02-2020 05:30:00 0 C 95 % -0.7 C
2372 13-02-2020 05:35:00 -0.1 C 95 % -0.8 C
2373 13-02-2020 05:40:00 -0.1 C 95 % -0.8 C
2374 13-02-2020 05:45:00 -0.1 C 95 % -0.8 C
2375 13-02-2020 05:50:00 0 C 95 % -0.7 C
Sensor: Nr:Datum:Temp:Feuchte:Taupunkt:
Aussen-T/F 2376 13-02-2020 05:55:00 0.1 C 95 % -0.6 C
2377 13-02-2020 06:00:00 0.2 C 95 % -0.5 C
2378 13-02-2020 06:05:00 0.3 C 95 % -0.4 C
2379 13-02-2020 06:10:00 0.4 C 95 % -0.31 C
2380 13-02-2020 06:15:00 0.5 C 95 % -0.21 C
2381 13-02-2020 06:20:00 0.6 C 96 % 0.04 C
2382 13-02-2020 06:25:00 0.6 C 96 % 0.04 C
2383 13-02-2020 06:30:00 0.7 C 96 % 0.14 C
2384 13-02-2020 06:35:00 0.7 C 96 % 0.14 C
2385 13-02-2020 06:40:00 0.7 C 96 % 0.14 C
2386 13-02-2020 06:45:00 0.7 C 96 % 0.14 C
2387 13-02-2020 06:50:00 0.7 C 96 % 0.14 C
2388 13-02-2020 06:55:00 0.7 C 96 % 0.14 C
2389 13-02-2020 07:00:00 0.7 C 96 % 0.14 C
2390 13-02-2020 07:05:00 0.7 C 96 % 0.14 C
2391 13-02-2020 07:10:00 0.6 C 95 % -0.11 C
2392 13-02-2020 07:15:00 0.6 C 96 % 0.04 C
2393 13-02-2020 07:20:00 0.6 C 96 % 0.04 C
2394 13-02-2020 07:25:00 0.7 C 96 % 0.14 C
2395 13-02-2020 07:30:00 0.8 C 96 % 0.24 C
2396 13-02-2020 07:35:00 0.9 C 96 % 0.34 C
2397 13-02-2020 07:40:00 1 C 96 % 0.44 C
2398 13-02-2020 07:45:00 1.1 C 96 % 0.54 C
2399 13-02-2020 07:50:00 1.2 C 96 % 0.63 C
2400 13-02-2020 07:55:00 1.3 C 96 % 0.73 C
Sensor: Nr:Datum:Temp:Feuchte:Taupunkt:
Aussen-T/F 2401 13-02-2020 08:00:00 1.3 C 96 % 0.73 C
2402 13-02-2020 08:05:00 1.5 C 96 % 0.93 C
2403 13-02-2020 08:10:00 1.6 C 96 % 1.03 C
2404 13-02-2020 08:15:00 1.7 C 96 % 1.13 C
2405 13-02-2020 08:20:00 1.8 C 96 % 1.23 C
2406 13-02-2020 08:25:00 1.9 C 96 % 1.33 C
2407 13-02-2020 08:30:00 2 C 96 % 1.43 C
2408 13-02-2020 08:35:00 2.1 C 96 % 1.53 C
2409 13-02-2020 08:40:00 2.2 C 96 % 1.63 C
2410 13-02-2020 08:45:00 2.4 C 96 % 1.83 C
2411 13-02-2020 08:50:00 2.7 C 96 % 2.13 C
2412 13-02-2020 08:55:00 2.8 C 96 % 2.23 C
2413 13-02-2020 09:00:00 2.8 C 96 % 2.23 C
2414 13-02-2020 09:05:00 2.9 C 96 % 2.33 C
2415 13-02-2020 09:10:00 2.9 C 96 % 2.33 C
2416 13-02-2020 09:15:00 3 C 96 % 2.43 C
2417 13-02-2020 09:20:00 3.1 C 96 % 2.53 C
2418 13-02-2020 09:25:00 3.2 C 95 % 2.48 C
2419 13-02-2020 09:30:00 3.3 C 95 % 2.58 C
2420 13-02-2020 09:35:00 3.4 C 94 % 2.53 C
2421 13-02-2020 09:40:00 3.5 C 94 % 2.63 C
2422 13-02-2020 09:45:00 3.6 C 93 % 2.58 C
2423 13-02-2020 09:50:00 3.8 C 93 % 2.77 C
2424 13-02-2020 09:55:00 3.9 C 92 % 2.72 C
2425 13-02-2020 10:00:00 4 C 92 % 2.82 C
Sensor: Nr:Datum:Temp:Feuchte:Taupunkt:
Aussen-T/F 2426 13-02-2020 10:05:00 4.1 C 91 % 2.77 C
2427 13-02-2020 10:10:00 4.2 C 91 % 2.87 C
2428 13-02-2020 10:15:00 4.3 C 90 % 2.81 C
2429 13-02-2020 10:20:00 4.4 C 89 % 2.75 C
2430 13-02-2020 10:25:00 4.5 C 89 % 2.85 C
2431 13-02-2020 10:30:00 4.6 C 87 % 2.63 C
2432 13-02-2020 10:35:00 4.8 C 86 % 2.66 C
2433 13-02-2020 10:40:00 4.9 C 85 % 2.6 C
2434 13-02-2020 10:45:00 5.1 C 85 % 2.79 C
2435 13-02-2020 10:50:00 5.2 C 85 % 2.89 C
2436 13-02-2020 10:55:00 5.3 C 84 % 2.82 C
2437 13-02-2020 11:00:00 5.3 C 84 % 2.82 C
2438 13-02-2020 11:05:00 5.4 C 83 % 2.75 C
2439 13-02-2020 11:10:00 5.6 C 83 % 2.95 C
2440 13-02-2020 11:15:00 5.7 C 82 % 2.87 C
2441 13-02-2020 11:20:00 5.8 C 81 % 2.8 C
2442 13-02-2020 11:25:00 5.9 C 81 % 2.9 C
2443 13-02-2020 11:30:00 6.1 C 79 % 2.74 C
2444 13-02-2020 11:35:00 6.3 C 79 % 2.93 C
2445 13-02-2020 11:40:00 6.4 C 78 % 2.85 C
2446 13-02-2020 11:45:00 6.4 C 77 % 2.67 C
2447 13-02-2020 11:50:00 6.5 C 77 % 2.77 C
2448 13-02-2020 11:55:00 6.6 C 77 % 2.86 C
2449 13-02-2020 12:00:00 6.7 C 77 % 2.96 C
2450 13-02-2020 12:05:00 6.8 C 77 % 3.06 C
Sensor: Nr:Datum:Temp:Feuchte:Taupunkt:
Aussen-T/F 2451 13-02-2020 12:10:00 6.8 C 78 % 3.24 C
2452 13-02-2020 12:15:00 6.7 C 80 % 3.5 C
2453 13-02-2020 12:20:00 6.4 C 81 % 3.38 C
2454 13-02-2020 12:25:00 6.3 C 82 % 3.46 C
2455 13-02-2020 12:30:00 6.2 C 82 % 3.36 C
2456 13-02-2020 12:35:00 6.1 C 83 % 3.44 C
2457 13-02-2020 12:40:00 6 C 84 % 3.51 C
2458 13-02-2020 12:45:00 5.9 C 85 % 3.58 C
2459 13-02-2020 12:50:00 5.8 C 86 % 3.64 C
2460 13-02-2020 12:55:00 5.8 C 87 % 3.81 C
2461 13-02-2020 13:00:00 5.7 C 88 % 3.87 C
2462 13-02-2020 13:05:00 5.6 C 88 % 3.77 C
2463 13-02-2020 13:10:00 5.5 C 89 % 3.84 C
2464 13-02-2020 13:15:00 5.4 C 89 % 3.74 C
2465 13-02-2020 13:20:00 5.4 C 90 % 3.89 C
2466 13-02-2020 13:25:00 5.3 C 90 % 3.8 C
2467 13-02-2020 13:30:00 5.4 C 91 % 4.05 C
2468 13-02-2020 13:35:00 5.3 C 91 % 3.95 C
2469 13-02-2020 13:40:00 5.3 C 91 % 3.95 C
2470 13-02-2020 13:45:00 5.3 C 91 % 3.95 C
2471 13-02-2020 13:50:00 5.3 C 92 % 4.11 C
2472 13-02-2020 13:55:00 5.3 C 92 % 4.11 C
2473 13-02-2020 14:00:00 5.4 C 92 % 4.21 C
2474 13-02-2020 14:05:00 5.4 C 92 % 4.21 C
2475 13-02-2020 14:10:00 5.3 C 91 % 3.95 C
Sensor: Nr:Datum:Temp:Feuchte:Taupunkt:
Aussen-T/F 2476 13-02-2020 14:15:00 5.2 C 92 % 4.01 C
2477 13-02-2020 14:20:00 5.2 C 92 % 4.01 C
2478 13-02-2020 14:25:00 5.2 C 93 % 4.16 C
2479 13-02-2020 14:30:00 5.3 C 93 % 4.26 C
2480 13-02-2020 14:35:00 5.4 C 93 % 4.36 C
2481 13-02-2020 14:40:00 5.4 C 93 % 4.36 C
2482 13-02-2020 14:45:00 5.4 C 93 % 4.36 C
2483 13-02-2020 14:50:00 5.5 C 93 % 4.46 C
2484 13-02-2020 14:55:00 5.6 C 93 % 4.56 C
2485 13-02-2020 15:00:00 5.6 C 93 % 4.56 C
2486 13-02-2020 15:05:00 5.5 C 93 % 4.46 C
2487 13-02-2020 15:10:00 5.6 C 94 % 4.71 C
2488 13-02-2020 15:15:00 5.6 C 94 % 4.71 C
2489 13-02-2020 15:20:00 5.7 C 94 % 4.81 C
2490 13-02-2020 15:25:00 5.8 C 94 % 4.91 C
2491 13-02-2020 15:30:00 5.8 C 95 % 5.06 C
2492 13-02-2020 15:35:00 5.9 C 95 % 5.16 C
2493 13-02-2020 15:40:00 5.9 C 95 % 5.16 C
2494 13-02-2020 15:45:00 6 C 95 % 5.26 C
2495 13-02-2020 15:50:00 6.1 C 95 % 5.36 C
2496 13-02-2020 15:55:00 6.2 C 95 % 5.46 C
2497 13-02-2020 16:00:00 6.3 C 95 % 5.56 C
2498 13-02-2020 16:05:00 6.3 C 95 % 5.56 C
2499 13-02-2020 16:10:00 6.3 C 94 % 5.41 C
2500 13-02-2020 16:15:00 6.4 C 94 % 5.51 C
Sensor: Nr:Datum:Temp:Feuchte:Taupunkt:
Aussen-T/F 2501 13-02-2020 16:20:00 6.6 C 95 % 5.86 C
2502 13-02-2020 16:25:00 6.7 C 94 % 5.8 C
2503 13-02-2020 16:30:00 6.7 C 94 % 5.8 C
2504 13-02-2020 16:35:00 6.8 C 94 % 5.9 C
2505 13-02-2020 16:40:00 6.8 C 94 % 5.9 C
2506 13-02-2020 16:45:00 6.8 C 94 % 5.9 C
2507 13-02-2020 16:50:00 6.7 C 94 % 5.8 C
2508 13-02-2020 16:55:00 6.7 C 94 % 5.8 C
2509 13-02-2020 17:00:00 6.6 C 94 % 5.71 C
2510 13-02-2020 17:05:00 6.6 C 94 % 5.71 C
2511 13-02-2020 17:10:00 6.6 C 94 % 5.71 C
2512 13-02-2020 17:15:00 6.5 C 94 % 5.61 C
2513 13-02-2020 17:20:00 6.4 C 94 % 5.51 C
2514 13-02-2020 17:25:00 6.4 C 94 % 5.51 C
2515 13-02-2020 17:30:00 6.4 C 94 % 5.51 C
2516 13-02-2020 17:35:00 6.3 C 94 % 5.41 C
2517 13-02-2020 17:40:00 6.2 C 94 % 5.31 C
2518 13-02-2020 17:45:00 6.1 C 94 % 5.21 C
2519 13-02-2020 17:50:00 5.9 C 94 % 5.01 C
2520 13-02-2020 17:55:00 5.8 C 94 % 4.91 C
2521 13-02-2020 18:00:00 5.7 C 94 % 4.81 C
2522 13-02-2020 18:05:00 5.6 C 94 % 4.71 C
2523 13-02-2020 18:10:00 5.4 C 94 % 4.51 C
2524 13-02-2020 18:15:00 5.4 C 94 % 4.51 C
2525 13-02-2020 18:20:00 5.4 C 94 % 4.51 C
Sensor: Nr:Datum:Temp:Feuchte:Taupunkt:
Aussen-T/F 2526 13-02-2020 18:25:00 5.3 C 95 % 4.57 C
2527 13-02-2020 18:30:00 5.3 C 95 % 4.57 C
2528 13-02-2020 18:35:00 5.3 C 95 % 4.57 C
2529 13-02-2020 18:40:00 5.4 C 95 % 4.66 C
2530 13-02-2020 18:45:00 5.4 C 95 % 4.66 C
2531 13-02-2020 18:50:00 5.4 C 95 % 4.66 C
2532 13-02-2020 18:55:00 5.4 C 95 % 4.66 C
2533 13-02-2020 19:00:00 5.4 C 95 % 4.66 C
2534 13-02-2020 19:05:00 5.3 C 95 % 4.57 C
2535 13-02-2020 19:10:00 5.3 C 95 % 4.57 C
2536 13-02-2020 19:15:00 5.3 C 95 % 4.57 C
2537 13-02-2020 19:20:00 5.3 C 95 % 4.57 C
2538 13-02-2020 19:25:00 5.2 C 95 % 4.47 C
2539 13-02-2020 19:30:00 5.2 C 95 % 4.47 C
2540 13-02-2020 19:35:00 5.1 C 95 % 4.37 C
2541 13-02-2020 19:40:00 5.1 C 95 % 4.37 C
2542 13-02-2020 19:45:00 5.1 C 95 % 4.37 C
2543 13-02-2020 19:50:00 5.1 C 95 % 4.37 C
2544 13-02-2020 19:55:00 5.2 C 95 % 4.47 C
2545 13-02-2020 20:00:00 5.2 C 95 % 4.47 C
2546 13-02-2020 20:05:00 5.3 C 95 % 4.57 C
2547 13-02-2020 20:10:00 5.3 C 95 % 4.57 C
2548 13-02-2020 20:15:00 5.3 C 95 % 4.57 C
2549 13-02-2020 20:20:00 5.4 C 95 % 4.66 C
2550 13-02-2020 20:25:00 5.4 C 95 % 4.66 C
Sensor: Nr:Datum:Temp:Feuchte:Taupunkt:
Aussen-T/F 2551 13-02-2020 20:30:00 5.4 C 95 % 4.66 C
2552 13-02-2020 20:35:00 5.4 C 95 % 4.66 C
2553 13-02-2020 20:40:00 5.4 C 96 % 4.81 C
2554 13-02-2020 20:45:00 5.4 C 96 % 4.81 C
2555 13-02-2020 20:50:00 5.5 C 96 % 4.91 C
2556 13-02-2020 20:55:00 5.5 C 96 % 4.91 C
2557 13-02-2020 21:00:00 5.6 C 96 % 5.01 C
2558 13-02-2020 21:05:00 5.6 C 96 % 5.01 C
2559 13-02-2020 21:10:00 5.6 C 96 % 5.01 C
2560 13-02-2020 21:15:00 5.6 C 96 % 5.01 C
2561 13-02-2020 21:20:00 5.7 C 96 % 5.11 C
2562 13-02-2020 21:25:00 5.6 C 96 % 5.01 C
2563 13-02-2020 21:30:00 5.6 C 96 % 5.01 C
2564 13-02-2020 21:35:00 5.6 C 96 % 5.01 C
2565 13-02-2020 21:40:00 5.7 C 96 % 5.11 C
2566 13-02-2020 21:45:00 5.6 C 96 % 5.01 C
2567 13-02-2020 21:50:00 5.7 C 96 % 5.11 C
2568 13-02-2020 21:55:00 5.7 C 96 % 5.11 C
2569 13-02-2020 22:00:00 5.8 C 96 % 5.21 C
2570 13-02-2020 22:05:00 5.9 C 96 % 5.31 C
2571 13-02-2020 22:10:00 6.2 C 97 % 5.76 C
2572 13-02-2020 22:15:00 6.3 C 97 % 5.86 C
2573 13-02-2020 22:20:00 6.4 C 97 % 5.96 C
2574 13-02-2020 22:25:00 6.4 C 96 % 5.81 C
2575 13-02-2020 22:30:00 6.5 C 96 % 5.91 C
Sensor: Nr:Datum:Temp:Feuchte:Taupunkt:
Aussen-T/F 2576 13-02-2020 22:35:00 6.6 C 96 % 6.01 C
2577 13-02-2020 22:40:00 6.7 C 96 % 6.11 C
2578 13-02-2020 22:45:00 6.7 C 96 % 6.11 C
2579 13-02-2020 22:50:00 6.8 C 95 % 6.06 C
2580 13-02-2020 22:55:00 6.9 C 95 % 6.16 C
2581 13-02-2020 23:00:00 6.9 C 94 % 6 C
2582 13-02-2020 23:05:00 7 C 94 % 6.1 C
2583 13-02-2020 23:10:00 7 C 94 % 6.1 C
2584 13-02-2020 23:15:00 7 C 94 % 6.1 C
2585 13-02-2020 23:20:00 7 C 94 % 6.1 C
2586 13-02-2020 23:25:00 6.9 C 94 % 6 C
2587 13-02-2020 23:30:00 6.9 C 94 % 6 C
2588 13-02-2020 23:35:00 6.8 C 94 % 5.9 C
2589 13-02-2020 23:40:00 6.8 C 94 % 5.9 C
2590 13-02-2020 23:45:00 6.7 C 94 % 5.8 C
2591 13-02-2020 23:50:00 6.7 C 95 % 5.96 C
2592 13-02-2020 23:55:00 6.7 C 95 % 5.96 C
2593 14-02-2020 00:00:00 6.7 C 95 % 5.96 C
2594 14-02-2020 00:05:00 6.7 C 95 % 5.96 C
2595 14-02-2020 00:10:00 6.7 C 95 % 5.96 C
2596 14-02-2020 00:15:00 6.6 C 95 % 5.86 C
2597 14-02-2020 00:20:00 6.6 C 95 % 5.86 C
2598 14-02-2020 00:25:00 6.6 C 95 % 5.86 C
2599 14-02-2020 00:30:00 6.6 C 95 % 5.86 C
2600 14-02-2020 00:35:00 6.6 C 95 % 5.86 C
Sensor: Nr:Datum:Temp:Feuchte:Taupunkt:
Aussen-T/F 2601 14-02-2020 00:40:00 6.6 C 95 % 5.86 C
2602 14-02-2020 00:45:00 6.5 C 95 % 5.76 C
2603 14-02-2020 00:50:00 6.5 C 95 % 5.76 C
2604 14-02-2020 00:55:00 6.4 C 95 % 5.66 C
2605 14-02-2020 01:00:00 6.4 C 95 % 5.66 C
2606 14-02-2020 01:05:00 6.3 C 95 % 5.56 C
2607 14-02-2020 01:10:00 6.3 C 95 % 5.56 C
2608 14-02-2020 01:15:00 6.2 C 95 % 5.46 C
2609 14-02-2020 01:20:00 6.2 C 95 % 5.46 C
2610 14-02-2020 01:25:00 6.2 C 95 % 5.46 C
2611 14-02-2020 01:30:00 6.2 C 95 % 5.46 C
2612 14-02-2020 01:35:00 6.3 C 95 % 5.56 C
2613 14-02-2020 01:40:00 6.3 C 95 % 5.56 C
2614 14-02-2020 01:45:00 6.3 C 95 % 5.56 C
2615 14-02-2020 01:50:00 6.3 C 95 % 5.56 C
2616 14-02-2020 01:55:00 6.3 C 95 % 5.56 C
2617 14-02-2020 02:00:00 6.3 C 95 % 5.56 C
2618 14-02-2020 02:05:00 6.3 C 95 % 5.56 C
2619 14-02-2020 02:10:00 6.3 C 95 % 5.56 C
2620 14-02-2020 02:15:00 6.3 C 95 % 5.56 C
2621 14-02-2020 02:20:00 6.3 C 94 % 5.41 C
2622 14-02-2020 02:25:00 6.4 C 94 % 5.51 C
2623 14-02-2020 02:30:00 6.3 C 94 % 5.41 C
2624 14-02-2020 02:35:00 6.3 C 95 % 5.56 C
2625 14-02-2020 02:40:00 6.3 C 95 % 5.56 C
Sensor: Nr:Datum:Temp:Feuchte:Taupunkt:
Aussen-T/F 2626 14-02-2020 02:45:00 6.3 C 95 % 5.56 C
2627 14-02-2020 02:50:00 6.3 C 95 % 5.56 C
2628 14-02-2020 02:55:00 6.3 C 95 % 5.56 C
2629 14-02-2020 03:00:00 6.3 C 94 % 5.41 C
2630 14-02-2020 03:05:00 6.4 C 94 % 5.51 C
2631 14-02-2020 03:10:00 6.4 C 94 % 5.51 C
2632 14-02-2020 03:15:00 6.4 C 94 % 5.51 C
2633 14-02-2020 03:20:00 6.4 C 94 % 5.51 C
2634 14-02-2020 03:25:00 6.4 C 94 % 5.51 C
2635 14-02-2020 03:30:00 6.4 C 94 % 5.51 C
2636 14-02-2020 03:35:00 6.4 C 94 % 5.51 C
2637 14-02-2020 03:40:00 6.4 C 94 % 5.51 C
2638 14-02-2020 03:45:00 6.4 C 94 % 5.51 C
2639 14-02-2020 03:50:00 6.3 C 95 % 5.56 C
2640 14-02-2020 03:55:00 6.3 C 95 % 5.56 C
2641 14-02-2020 04:00:00 6.3 C 95 % 5.56 C
2642 14-02-2020 04:05:00 6.2 C 95 % 5.46 C
2643 14-02-2020 04:10:00 6.2 C 95 % 5.46 C
2644 14-02-2020 04:15:00 6 C 95 % 5.26 C
2645 14-02-2020 04:20:00 5.9 C 95 % 5.16 C
2646 14-02-2020 04:25:00 5.9 C 95 % 5.16 C
2647 14-02-2020 04:30:00 5.9 C 95 % 5.16 C
2648 14-02-2020 04:35:00 5.9 C 95 % 5.16 C
2649 14-02-2020 04:40:00 5.8 C 95 % 5.06 C
2650 14-02-2020 04:45:00 5.8 C 95 % 5.06 C
Sensor: Nr:Datum:Temp:Feuchte:Taupunkt:
Aussen-T/F 2651 14-02-2020 04:50:00 5.8 C 95 % 5.06 C
2652 14-02-2020 04:55:00 5.7 C 95 % 4.96 C
2653 14-02-2020 05:00:00 5.7 C 95 % 4.96 C
2654 14-02-2020 05:05:00 5.7 C 95 % 4.96 C
2655 14-02-2020 05:10:00 5.6 C 95 % 4.86 C
2656 14-02-2020 05:15:00 5.6 C 95 % 4.86 C
2657 14-02-2020 05:20:00 5.6 C 95 % 4.86 C
2658 14-02-2020 05:25:00 5.6 C 95 % 4.86 C
2659 14-02-2020 05:30:00 5.6 C 96 % 5.01 C
2660 14-02-2020 05:35:00 5.6 C 96 % 5.01 C
2661 14-02-2020 05:40:00 5.7 C 96 % 5.11 C
2662 14-02-2020 05:45:00 5.7 C 96 % 5.11 C
2663 14-02-2020 05:50:00 5.7 C 96 % 5.11 C
2664 14-02-2020 05:55:00 5.7 C 96 % 5.11 C
2665 14-02-2020 06:00:00 5.7 C 96 % 5.11 C
2666 14-02-2020 06:05:00 5.7 C 96 % 5.11 C
2667 14-02-2020 06:10:00 5.7 C 96 % 5.11 C
2668 14-02-2020 06:15:00 5.7 C 96 % 5.11 C
2669 14-02-2020 06:20:00 5.7 C 96 % 5.11 C
2670 14-02-2020 06:25:00 5.6 C 96 % 5.01 C
2671 14-02-2020 06:30:00 5.6 C 96 % 5.01 C
2672 14-02-2020 06:35:00 5.6 C 96 % 5.01 C
2673 14-02-2020 06:40:00 5.6 C 96 % 5.01 C
2674 14-02-2020 06:45:00 5.6 C 96 % 5.01 C
2675 14-02-2020 06:50:00 5.6 C 96 % 5.01 C
Sensor: Nr:Datum:Temp:Feuchte:Taupunkt:
Aussen-T/F 2676 14-02-2020 06:55:00 5.6 C 96 % 5.01 C
2677 14-02-2020 07:00:00 5.6 C 96 % 5.01 C
2678 14-02-2020 07:05:00 5.6 C 96 % 5.01 C
2679 14-02-2020 07:10:00 5.6 C 96 % 5.01 C
2680 14-02-2020 07:15:00 5.6 C 96 % 5.01 C
2681 14-02-2020 07:20:00 5.6 C 96 % 5.01 C
2682 14-02-2020 07:25:00 5.5 C 96 % 4.91 C
2683 14-02-2020 07:30:00 5.4 C 96 % 4.81 C
2684 14-02-2020 07:35:00 5.4 C 96 % 4.81 C
2685 14-02-2020 07:40:00 5.4 C 96 % 4.81 C
2686 14-02-2020 07:45:00 5.4 C 96 % 4.81 C
2687 14-02-2020 07:50:00 5.4 C 96 % 4.81 C
2688 14-02-2020 07:55:00 5.4 C 96 % 4.81 C
2689 14-02-2020 08:00:00 5.4 C 96 % 4.81 C
2690 14-02-2020 08:05:00 5.3 C 96 % 4.72 C
2691 14-02-2020 08:10:00 5.3 C 96 % 4.72 C
2692 14-02-2020 08:15:00 5.3 C 96 % 4.72 C
2693 14-02-2020 08:20:00 5.3 C 96 % 4.72 C
2694 14-02-2020 08:25:00 5.3 C 96 % 4.72 C
2695 14-02-2020 08:30:00 5.3 C 96 % 4.72 C
2696 14-02-2020 08:35:00 5.3 C 96 % 4.72 C
2697 14-02-2020 08:40:00 5.3 C 96 % 4.72 C
2698 14-02-2020 08:45:00 5.3 C 96 % 4.72 C
2699 14-02-2020 08:50:00 5.3 C 96 % 4.72 C
2700 14-02-2020 08:55:00 5.4 C 96 % 4.81 C
Sensor: Nr:Datum:Temp:Feuchte:Taupunkt:
Aussen-T/F 2701 14-02-2020 09:00:00 5.5 C 96 % 4.91 C
2702 14-02-2020 09:05:00 5.6 C 96 % 5.01 C
2703 14-02-2020 09:10:00 5.6 C 96 % 5.01 C
2704 14-02-2020 09:15:00 5.7 C 95 % 4.96 C
2705 14-02-2020 09:20:00 5.7 C 95 % 4.96 C
2706 14-02-2020 09:25:00 5.8 C 94 % 4.91 C
2707 14-02-2020 09:30:00 5.8 C 94 % 4.91 C
2708 14-02-2020 09:35:00 5.9 C 94 % 5.01 C
2709 14-02-2020 09:40:00 6 C 93 % 4.96 C
2710 14-02-2020 09:45:00 6 C 92 % 4.8 C
2711 14-02-2020 09:50:00 6.1 C 92 % 4.9 C
2712 14-02-2020 09:55:00 6.1 C 92 % 4.9 C
2713 14-02-2020 10:00:00 6.1 C 92 % 4.9 C
2714 14-02-2020 10:05:00 6.1 C 91 % 4.74 C
2715 14-02-2020 10:10:00 6.1 C 91 % 4.74 C
2716 14-02-2020 10:15:00 6.2 C 92 % 5 C
2717 14-02-2020 10:20:00 6.2 C 92 % 5 C
2718 14-02-2020 10:25:00 6.2 C 91 % 4.84 C
2719 14-02-2020 10:30:00 6.2 C 92 % 5 C
2720 14-02-2020 10:35:00 6.2 C 92 % 5 C
2721 14-02-2020 10:40:00 6.2 C 92 % 5 C
2722 14-02-2020 10:45:00 6.2 C 91 % 4.84 C
2723 14-02-2020 10:50:00 6.2 C 90 % 4.69 C
2724 14-02-2020 10:55:00 6.3 C 90 % 4.78 C
2725 14-02-2020 11:00:00 6.4 C 90 % 4.88 C
Sensor: Nr:Datum:Temp:Feuchte:Taupunkt:
Aussen-T/F 2726 14-02-2020 11:05:00 6.5 C 90 % 4.98 C
2727 14-02-2020 11:10:00 6.6 C 90 % 5.08 C
2728 14-02-2020 11:15:00 6.7 C 90 % 5.18 C
2729 14-02-2020 11:20:00 6.7 C 90 % 5.18 C
2730 14-02-2020 11:25:00 6.7 C 89 % 5.02 C
2731 14-02-2020 11:30:00 6.7 C 90 % 5.18 C
2732 14-02-2020 11:35:00 6.8 C 90 % 5.28 C
2733 14-02-2020 11:40:00 6.8 C 89 % 5.12 C
2734 14-02-2020 11:45:00 6.8 C 90 % 5.28 C
2735 14-02-2020 11:50:00 6.8 C 89 % 5.12 C
2736 14-02-2020 11:55:00 6.8 C 89 % 5.12 C
2737 14-02-2020 12:00:00 6.9 C 90 % 5.38 C
2738 14-02-2020 12:05:00 7 C 90 % 5.48 C
2739 14-02-2020 12:10:00 7.1 C 89 % 5.41 C
2740 14-02-2020 12:15:00 7.1 C 89 % 5.41 C
2741 14-02-2020 12:20:00 7.1 C 88 % 5.25 C
2742 14-02-2020 12:25:00 7.2 C 87 % 5.19 C
2743 14-02-2020 12:30:00 7.2 C 87 % 5.19 C
2744 14-02-2020 12:35:00 7.3 C 87 % 5.28 C
2745 14-02-2020 12:40:00 7.3 C 86 % 5.12 C
2746 14-02-2020 12:45:00 7.4 C 86 % 5.22 C
2747 14-02-2020 12:50:00 7.4 C 86 % 5.22 C
2748 14-02-2020 12:55:00 7.6 C 85 % 5.24 C
2749 14-02-2020 13:00:00 7.6 C 86 % 5.41 C
2750 14-02-2020 13:05:00 7.6 C 85 % 5.24 C
Sensor: Nr:Datum:Temp:Feuchte:Taupunkt:
Aussen-T/F 2751 14-02-2020 13:10:00 7.6 C 84 % 5.07 C
2752 14-02-2020 13:15:00 7.7 C 83 % 5 C
2753 14-02-2020 13:20:00 7.7 C 84 % 5.17 C
2754 14-02-2020 13:25:00 7.7 C 83 % 5 C
2755 14-02-2020 13:30:00 7.7 C 83 % 5 C
2756 14-02-2020 13:35:00 7.7 C 83 % 5 C
2757 14-02-2020 13:40:00 7.8 C 83 % 5.1 C
2758 14-02-2020 13:45:00 7.8 C 82 % 4.92 C
2759 14-02-2020 13:50:00 7.8 C 82 % 4.92 C
2760 14-02-2020 13:55:00 7.9 C 83 % 5.2 C
2761 14-02-2020 14:00:00 7.9 C 82 % 5.02 C
2762 14-02-2020 14:05:00 8 C 82 % 5.12 C
2763 14-02-2020 14:10:00 8.1 C 82 % 5.22 C
2764 14-02-2020 14:15:00 8.1 C 82 % 5.22 C
2765 14-02-2020 14:20:00 8.1 C 81 % 5.04 C
2766 14-02-2020 14:25:00 8.2 C 83 % 5.49 C
2767 14-02-2020 14:30:00 8.2 C 81 % 5.14 C
2768 14-02-2020 14:35:00 8.2 C 81 % 5.14 C
2769 14-02-2020 14:40:00 8.3 C 80 % 5.06 C
2770 14-02-2020 14:45:00 8.3 C 81 % 5.24 C
2771 14-02-2020 14:50:00 8.3 C 81 % 5.24 C
2772 14-02-2020 14:55:00 8.3 C 79 % 4.88 C
2773 14-02-2020 15:00:00 8.3 C 79 % 4.88 C
2774 14-02-2020 15:05:00 8.3 C 79 % 4.88 C
2775 14-02-2020 15:10:00 8.2 C 79 % 4.78 C
Sensor: Nr:Datum:Temp:Feuchte:Taupunkt:
Aussen-T/F 2776 14-02-2020 15:15:00 8.2 C 78 % 4.6 C
2777 14-02-2020 15:20:00 8.2 C 78 % 4.6 C
2778 14-02-2020 15:25:00 8.2 C 78 % 4.6 C
2779 14-02-2020 15:30:00 8.2 C 78 % 4.6 C
2780 14-02-2020 15:35:00 8.2 C 78 % 4.6 C
2781 14-02-2020 15:40:00 8.3 C 78 % 4.7 C
2782 14-02-2020 15:45:00 8.3 C 78 % 4.7 C
2783 14-02-2020 15:50:00 8.3 C 78 % 4.7 C
2784 14-02-2020 15:55:00 8.3 C 79 % 4.88 C
2785 14-02-2020 16:00:00 8.3 C 79 % 4.88 C
2786 14-02-2020 16:05:00 8.4 C 78 % 4.79 C
2787 14-02-2020 16:10:00 8.4 C 78 % 4.79 C
2788 14-02-2020 16:15:00 8.4 C 79 % 4.98 C
2789 14-02-2020 16:20:00 8.4 C 79 % 4.98 C
2790 14-02-2020 16:25:00 8.4 C 80 % 5.16 C
2791 14-02-2020 16:30:00 8.4 C 81 % 5.33 C
2792 14-02-2020 16:35:00 8.4 C 80 % 5.16 C
2793 14-02-2020 16:40:00 8.4 C 82 % 5.51 C
2794 14-02-2020 16:45:00 8.4 C 83 % 5.69 C
2795 14-02-2020 16:50:00 8.4 C 83 % 5.69 C
2796 14-02-2020 16:55:00 8.4 C 84 % 5.86 C
2797 14-02-2020 17:00:00 8.3 C 85 % 5.93 C
2798 14-02-2020 17:05:00 8.2 C 85 % 5.83 C
2799 14-02-2020 17:10:00 8.2 C 85 % 5.83 C
2800 14-02-2020 17:15:00 8 C 86 % 5.81 C
Sensor: Nr:Datum:Temp:Feuchte:Taupunkt:
Aussen-T/F 2801 14-02-2020 17:20:00 7.9 C 86 % 5.71 C
2802 14-02-2020 17:25:00 7.8 C 87 % 5.78 C
2803 14-02-2020 17:30:00 7.7 C 87 % 5.68 C
2804 14-02-2020 17:35:00 7.6 C 87 % 5.58 C
2805 14-02-2020 17:40:00 7.4 C 88 % 5.55 C
2806 14-02-2020 17:45:00 7.3 C 88 % 5.45 C
2807 14-02-2020 17:50:00 7.2 C 88 % 5.35 C
2808 14-02-2020 17:55:00 7.1 C 89 % 5.41 C
2809 14-02-2020 18:00:00 7 C 89 % 5.31 C
2810 14-02-2020 18:05:00 6.9 C 89 % 5.22 C
2811 14-02-2020 18:10:00 6.9 C 90 % 5.38 C
2812 14-02-2020 18:15:00 6.9 C 90 % 5.38 C
2813 14-02-2020 18:20:00 6.8 C 90 % 5.28 C
2814 14-02-2020 18:25:00 6.8 C 90 % 5.28 C
2815 14-02-2020 18:30:00 6.8 C 90 % 5.28 C
2816 14-02-2020 18:35:00 6.7 C 90 % 5.18 C
2817 14-02-2020 18:40:00 6.7 C 90 % 5.18 C
2818 14-02-2020 18:45:00 6.7 C 91 % 5.34 C
2819 14-02-2020 18:50:00 6.7 C 91 % 5.34 C
2820 14-02-2020 18:55:00 6.7 C 91 % 5.34 C
2821 14-02-2020 19:00:00 6.7 C 91 % 5.34 C
2822 14-02-2020 19:05:00 6.6 C 90 % 5.08 C
2823 14-02-2020 19:10:00 6.4 C 90 % 4.88 C
2824 14-02-2020 19:15:00 6.3 C 90 % 4.78 C
2825 14-02-2020 19:20:00 6.2 C 90 % 4.69 C
Sensor: Nr:Datum:Temp:Feuchte:Taupunkt:
Aussen-T/F 2826 14-02-2020 19:25:00 6.1 C 90 % 4.59 C
2827 14-02-2020 19:30:00 5.9 C 90 % 4.39 C
2828 14-02-2020 19:35:00 5.8 C 90 % 4.29 C
2829 14-02-2020 19:40:00 5.6 C 90 % 4.09 C
2830 14-02-2020 19:45:00 5.4 C 91 % 4.05 C
2831 14-02-2020 19:50:00 5.4 C 91 % 4.05 C
2832 14-02-2020 19:55:00 5.3 C 91 % 3.95 C
2833 14-02-2020 20:00:00 5.2 C 91 % 3.85 C
2834 14-02-2020 20:05:00 5.2 C 92 % 4.01 C
2835 14-02-2020 20:10:00 5.1 C 92 % 3.91 C
2836 14-02-2020 20:15:00 5.1 C 92 % 3.91 C
2837 14-02-2020 20:20:00 5.1 C 92 % 3.91 C
2838 14-02-2020 20:25:00 5 C 93 % 3.96 C
2839 14-02-2020 20:30:00 4.8 C 92 % 3.61 C
2840 14-02-2020 20:35:00 4.8 C 93 % 3.77 C
2841 14-02-2020 20:40:00 4.8 C 93 % 3.77 C
2842 14-02-2020 20:45:00 4.7 C 93 % 3.67 C
2843 14-02-2020 20:50:00 4.6 C 93 % 3.57 C
2844 14-02-2020 20:55:00 4.6 C 93 % 3.57 C
2845 14-02-2020 21:00:00 4.6 C 94 % 3.72 C
2846 14-02-2020 21:05:00 4.5 C 93 % 3.47 C
2847 14-02-2020 21:10:00 4.5 C 94 % 3.62 C
2848 14-02-2020 21:15:00 4.4 C 94 % 3.52 C
2849 14-02-2020 21:20:00 4.4 C 94 % 3.52 C
2850 14-02-2020 21:25:00 4.3 C 94 % 3.42 C
Sensor: Nr:Datum:Temp:Feuchte:Taupunkt:
Aussen-T/F 2851 14-02-2020 21:30:00 4.3 C 94 % 3.42 C
2852 14-02-2020 21:35:00 4.2 C 94 % 3.32 C
2853 14-02-2020 21:40:00 4.1 C 94 % 3.22 C
2854 14-02-2020 21:45:00 3.9 C 94 % 3.02 C
2855 14-02-2020 21:50:00 3.8 C 94 % 2.93 C
2856 14-02-2020 21:55:00 3.8 C 94 % 2.93 C
2857 14-02-2020 22:00:00 3.7 C 94 % 2.83 C
2858 14-02-2020 22:05:00 3.6 C 94 % 2.73 C
2859 14-02-2020 22:10:00 3.6 C 94 % 2.73 C
2860 14-02-2020 22:15:00 3.6 C 95 % 2.88 C
2861 14-02-2020 22:20:00 3.6 C 95 % 2.88 C
2862 14-02-2020 22:25:00 3.6 C 95 % 2.88 C
2863 14-02-2020 22:30:00 3.6 C 95 % 2.88 C
2864 14-02-2020 22:35:00 3.6 C 95 % 2.88 C
2865 14-02-2020 22:40:00 3.4 C 94 % 2.53 C
2866 14-02-2020 22:45:00 3.3 C 94 % 2.43 C
2867 14-02-2020 22:50:00 3.2 C 95 % 2.48 C
2868 14-02-2020 22:55:00 3.1 C 94 % 2.23 C
2869 14-02-2020 23:00:00 3.1 C 95 % 2.38 C
2870 14-02-2020 23:05:00 3.1 C 95 % 2.38 C
2871 14-02-2020 23:10:00 3.1 C 95 % 2.38 C
2872 14-02-2020 23:15:00 3.2 C 95 % 2.48 C
2873 14-02-2020 23:20:00 3.2 C 95 % 2.48 C
2874 14-02-2020 23:25:00 3.2 C 95 % 2.48 C
2875 14-02-2020 23:30:00 3.2 C 95 % 2.48 C
Sensor: Nr:Datum:Temp:Feuchte:Taupunkt:
Aussen-T/F 2876 14-02-2020 23:35:00 3.3 C 95 % 2.58 C
2877 14-02-2020 23:40:00 3.2 C 95 % 2.48 C
2878 14-02-2020 23:45:00 3.1 C 95 % 2.38 C
2879 14-02-2020 23:50:00 3 C 95 % 2.28 C
2880 14-02-2020 23:55:00 2.9 C 95 % 2.18 C
2881 15-02-2020 00:00:00 2.9 C 95 % 2.18 C
2882 15-02-2020 00:05:00 2.8 C 95 % 2.08 C
2883 15-02-2020 00:10:00 2.8 C 95 % 2.08 C
2884 15-02-2020 00:15:00 2.8 C 95 % 2.08 C
2885 15-02-2020 00:20:00 2.7 C 95 % 1.98 C
2886 15-02-2020 00:25:00 2.7 C 95 % 1.98 C
2887 15-02-2020 00:30:00 2.7 C 95 % 1.98 C
2888 15-02-2020 00:35:00 2.7 C 95 % 1.98 C
2889 15-02-2020 00:40:00 2.7 C 96 % 2.13 C
2890 15-02-2020 00:45:00 2.7 C 96 % 2.13 C
2891 15-02-2020 00:50:00 2.7 C 96 % 2.13 C
2892 15-02-2020 00:55:00 2.8 C 96 % 2.23 C
2893 15-02-2020 01:00:00 2.8 C 96 % 2.23 C
2894 15-02-2020 01:05:00 2.9 C 96 % 2.33 C
2895 15-02-2020 01:10:00 3 C 96 % 2.43 C
2896 15-02-2020 01:15:00 3.2 C 96 % 2.63 C
2897 15-02-2020 01:20:00 3.2 C 96 % 2.63 C
2898 15-02-2020 01:25:00 3.3 C 96 % 2.72 C
2899 15-02-2020 01:30:00 3.3 C 96 % 2.72 C
2900 15-02-2020 01:35:00 3.3 C 96 % 2.72 C
Sensor: Nr:Datum:Temp:Feuchte:Taupunkt:
Aussen-T/F 2901 15-02-2020 01:40:00 3.3 C 96 % 2.72 C
2902 15-02-2020 01:45:00 3.3 C 96 % 2.72 C
2903 15-02-2020 01:50:00 3.3 C 96 % 2.72 C
2904 15-02-2020 01:55:00 3.4 C 96 % 2.82 C
2905 15-02-2020 02:00:00 3.3 C 96 % 2.72 C
2906 15-02-2020 02:05:00 3.3 C 96 % 2.72 C
2907 15-02-2020 02:10:00 3.3 C 96 % 2.72 C
2908 15-02-2020 02:15:00 3.4 C 96 % 2.82 C
2909 15-02-2020 02:20:00 3.4 C 96 % 2.82 C
2910 15-02-2020 02:25:00 3.4 C 96 % 2.82 C
2911 15-02-2020 02:30:00 3.3 C 96 % 2.72 C
2912 15-02-2020 02:35:00 3.2 C 96 % 2.63 C
2913 15-02-2020 02:40:00 3.2 C 96 % 2.63 C
2914 15-02-2020 02:45:00 3.1 C 96 % 2.53 C
2915 15-02-2020 02:50:00 3.1 C 96 % 2.53 C
2916 15-02-2020 02:55:00 3.1 C 96 % 2.53 C
2917 15-02-2020 03:00:00 3 C 96 % 2.43 C
2918 15-02-2020 03:05:00 2.9 C 96 % 2.33 C
2919 15-02-2020 03:10:00 2.8 C 96 % 2.23 C
2920 15-02-2020 03:15:00 2.7 C 96 % 2.13 C
2921 15-02-2020 03:20:00 2.6 C 96 % 2.03 C
2922 15-02-2020 03:25:00 2.7 C 96 % 2.13 C
2923 15-02-2020 03:30:00 2.7 C 96 % 2.13 C
2924 15-02-2020 03:35:00 2.7 C 96 % 2.13 C
2925 15-02-2020 03:40:00 2.7 C 96 % 2.13 C
Sensor: Nr:Datum:Temp:Feuchte:Taupunkt:
Aussen-T/F 2926 15-02-2020 03:45:00 2.6 C 96 % 2.03 C
2927 15-02-2020 03:50:00 2.5 C 96 % 1.93 C
2928 15-02-2020 03:55:00 2.4 C 96 % 1.83 C
2929 15-02-2020 04:00:00 2.4 C 96 % 1.83 C
2930 15-02-2020 04:05:00 2.4 C 96 % 1.83 C
2931 15-02-2020 04:10:00 2.5 C 96 % 1.93 C
2932 15-02-2020 04:15:00 2.4 C 96 % 1.83 C
2933 15-02-2020 04:20:00 2.5 C 96 % 1.93 C
2934 15-02-2020 04:25:00 2.5 C 96 % 1.93 C
2935 15-02-2020 04:30:00 2.5 C 96 % 1.93 C
2936 15-02-2020 04:35:00 2.4 C 96 % 1.83 C
2937 15-02-2020 04:40:00 2.4 C 96 % 1.83 C
2938 15-02-2020 04:45:00 2.5 C 97 % 2.07 C
2939 15-02-2020 04:50:00 2.6 C 97 % 2.17 C
2940 15-02-2020 04:55:00 2.5 C 97 % 2.07 C
2941 15-02-2020 05:00:00 2.5 C 97 % 2.07 C
2942 15-02-2020 05:05:00 2.4 C 97 % 1.97 C
2943 15-02-2020 05:10:00 2.3 C 96 % 1.73 C
2944 15-02-2020 05:15:00 2.3 C 96 % 1.73 C
2945 15-02-2020 05:20:00 2.3 C 96 % 1.73 C
2946 15-02-2020 05:25:00 2.2 C 96 % 1.63 C
2947 15-02-2020 05:30:00 2.2 C 96 % 1.63 C
2948 15-02-2020 05:35:00 2.2 C 96 % 1.63 C
2949 15-02-2020 05:40:00 2.2 C 97 % 1.77 C
2950 15-02-2020 05:45:00 2.2 C 96 % 1.63 C
Sensor: Nr:Datum:Temp:Feuchte:Taupunkt:
Aussen-T/F 2951 15-02-2020 05:50:00 2.1 C 96 % 1.53 C
2952 15-02-2020 05:55:00 2.1 C 96 % 1.53 C
2953 15-02-2020 06:00:00 2 C 96 % 1.43 C
2954 15-02-2020 06:05:00 2 C 96 % 1.43 C
2955 15-02-2020 06:10:00 2 C 96 % 1.43 C
2956 15-02-2020 06:15:00 1.9 C 96 % 1.33 C
2957 15-02-2020 06:20:00 1.8 C 96 % 1.23 C
2958 15-02-2020 06:25:00 1.8 C 96 % 1.23 C
2959 15-02-2020 06:30:00 1.8 C 96 % 1.23 C
2960 15-02-2020 06:35:00 1.8 C 96 % 1.23 C
2961 15-02-2020 06:40:00 1.8 C 97 % 1.38 C
2962 15-02-2020 06:45:00 1.8 C 97 % 1.38 C
2963 15-02-2020 06:50:00 1.8 C 96 % 1.23 C
2964 15-02-2020 06:55:00 1.8 C 97 % 1.38 C
2965 15-02-2020 07:00:00 1.8 C 97 % 1.38 C
2966 15-02-2020 07:05:00 1.8 C 97 % 1.38 C
2967 15-02-2020 07:10:00 1.8 C 97 % 1.38 C
2968 15-02-2020 07:15:00 1.8 C 97 % 1.38 C
2969 15-02-2020 07:20:00 1.7 C 96 % 1.13 C
2970 15-02-2020 07:25:00 1.6 C 97 % 1.18 C
2971 15-02-2020 07:30:00 1.5 C 97 % 1.08 C
2972 15-02-2020 07:35:00 1.4 C 97 % 0.98 C
2973 15-02-2020 07:40:00 1.6 C 96 % 1.03 C
2974 15-02-2020 07:45:00 1.7 C 97 % 1.28 C
2975 15-02-2020 07:50:00 1.9 C 97 % 1.48 C
Sensor: Nr:Datum:Temp:Feuchte:Taupunkt:
Aussen-T/F 2976 15-02-2020 07:55:00 2.1 C 97 % 1.67 C
2977 15-02-2020 08:00:00 2.1 C 97 % 1.67 C
2978 15-02-2020 08:05:00 2.1 C 97 % 1.67 C
2979 15-02-2020 08:10:00 2 C 97 % 1.58 C
2980 15-02-2020 08:15:00 2 C 97 % 1.58 C
2981 15-02-2020 08:20:00 2.1 C 97 % 1.67 C
2982 15-02-2020 08:25:00 2.2 C 97 % 1.77 C
2983 15-02-2020 08:30:00 2.4 C 97 % 1.97 C
2984 15-02-2020 08:35:00 2.4 C 97 % 1.97 C
2985 15-02-2020 08:40:00 2.6 C 97 % 2.17 C
2986 15-02-2020 08:45:00 2.7 C 97 % 2.27 C
2987 15-02-2020 08:50:00 2.7 C 97 % 2.27 C
2988 15-02-2020 08:55:00 2.8 C 97 % 2.37 C
2989 15-02-2020 09:00:00 3.1 C 97 % 2.67 C
2990 15-02-2020 09:05:00 3.1 C 97 % 2.67 C
2991 15-02-2020 09:10:00 3.3 C 97 % 2.87 C
2992 15-02-2020 09:15:00 3.4 C 97 % 2.97 C
2993 15-02-2020 09:20:00 3.5 C 97 % 3.07 C
2994 15-02-2020 09:25:00 3.6 C 97 % 3.17 C
2995 15-02-2020 09:30:00 3.7 C 97 % 3.27 C
2996 15-02-2020 09:35:00 3.8 C 97 % 3.37 C
2997 15-02-2020 09:40:00 3.9 C 97 % 3.47 C
2998 15-02-2020 09:45:00 4.1 C 98 % 3.81 C
2999 15-02-2020 09:50:00 4.3 C 97 % 3.87 C
3000 15-02-2020 09:55:00 4.3 C 98 % 4.01 C
Sensor: Nr:Datum:Temp:Feuchte:Taupunkt:
Aussen-T/F 3001 15-02-2020 10:00:00 4.4 C 98 % 4.11 C
3002 15-02-2020 10:05:00 4.5 C 98 % 4.21 C
3003 15-02-2020 10:10:00 4.5 C 97 % 4.07 C
3004 15-02-2020 10:15:00 4.6 C 97 % 4.17 C
3005 15-02-2020 10:20:00 4.7 C 98 % 4.41 C
3006 15-02-2020 10:25:00 4.8 C 98 % 4.51 C
3007 15-02-2020 10:30:00 4.8 C 97 % 4.37 C
3008 15-02-2020 10:35:00 4.9 C 98 % 4.61 C
3009 15-02-2020 10:40:00 5.1 C 98 % 4.81 C
3010 15-02-2020 10:45:00 5.2 C 97 % 4.76 C
3011 15-02-2020 10:50:00 5.2 C 97 % 4.76 C
3012 15-02-2020 10:55:00 5.3 C 98 % 5.01 C
3013 15-02-2020 11:00:00 5.3 C 97 % 4.86 C
3014 15-02-2020 11:05:00 5.4 C 97 % 4.96 C
3015 15-02-2020 11:10:00 5.7 C 97 % 5.26 C
3016 15-02-2020 11:15:00 6 C 98 % 5.71 C
3017 15-02-2020 11:20:00 6.3 C 98 % 6.01 C
3018 15-02-2020 11:25:00 6.5 C 97 % 6.06 C
3019 15-02-2020 11:30:00 6.7 C 98 % 6.41 C
3020 15-02-2020 11:35:00 6.8 C 97 % 6.36 C
3021 15-02-2020 11:40:00 7.1 C 97 % 6.66 C
3022 15-02-2020 11:45:00 7.2 C 98 % 6.91 C
3023 15-02-2020 11:50:00 7.4 C 97 % 6.96 C
3024 15-02-2020 11:55:00 7.6 C 97 % 7.16 C
3025 15-02-2020 12:00:00 7.7 C 97 % 7.25 C
Sensor: Nr:Datum:Temp:Feuchte:Taupunkt:
Aussen-T/F 3026 15-02-2020 12:05:00 7.8 C 96 % 7.2 C
3027 15-02-2020 12:10:00 8 C 96 % 7.4 C
3028 15-02-2020 12:15:00 8.2 C 95 % 7.45 C
3029 15-02-2020 12:20:00 8.3 C 94 % 7.39 C
3030 15-02-2020 12:25:00 8.6 C 94 % 7.69 C
3031 15-02-2020 12:30:00 8.8 C 93 % 7.73 C
3032 15-02-2020 12:35:00 9.1 C 91 % 7.71 C
3033 15-02-2020 12:40:00 9.4 C 89 % 7.68 C
3034 15-02-2020 12:45:00 9.7 C 87 % 7.64 C
3035 15-02-2020 12:50:00 9.9 C 86 % 7.67 C
3036 15-02-2020 12:55:00 10.2 C 85 % 7.79 C
3037 15-02-2020 13:00:00 10.4 C 83 % 7.64 C
3038 15-02-2020 13:05:00 10.6 C 83 % 7.84 C
3039 15-02-2020 13:10:00 10.7 C 80 % 7.4 C
3040 15-02-2020 13:15:00 10.8 C 79 % 7.31 C
3041 15-02-2020 13:20:00 11 C 78 % 7.32 C
3042 15-02-2020 13:25:00 11.2 C 77 % 7.32 C
3043 15-02-2020 13:30:00 11.3 C 77 % 7.42 C
3044 15-02-2020 13:35:00 11.4 C 77 % 7.52 C
3045 15-02-2020 13:40:00 11.6 C 75 % 7.33 C
3046 15-02-2020 13:45:00 11.7 C 74 % 7.23 C
3047 15-02-2020 13:50:00 11.8 C 75 % 7.52 C
3048 15-02-2020 13:55:00 11.8 C 73 % 7.12 C
3049 15-02-2020 14:00:00 11.8 C 74 % 7.32 C
3050 15-02-2020 14:05:00 11.8 C 74 % 7.32 C
Sensor: Nr:Datum:Temp:Feuchte:Taupunkt:
Aussen-T/F 3051 15-02-2020 14:10:00 11.7 C 73 % 7.03 C
3052 15-02-2020 14:15:00 11.7 C 73 % 7.03 C
3053 15-02-2020 14:20:00 11.6 C 74 % 7.13 C
3054 15-02-2020 14:25:00 11.4 C 74 % 6.94 C
3055 15-02-2020 14:30:00 11.3 C 73 % 6.64 C
3056 15-02-2020 14:35:00 11.3 C 74 % 6.84 C
3057 15-02-2020 14:40:00 11.3 C 75 % 7.04 C
3058 15-02-2020 14:45:00 11.2 C 74 % 6.74 C
3059 15-02-2020 14:50:00 11.2 C 74 % 6.74 C
3060 15-02-2020 14:55:00 11.1 C 74 % 6.65 C
3061 15-02-2020 15:00:00 11.2 C 74 % 6.74 C
3062 15-02-2020 15:05:00 11.2 C 76 % 7.13 C
3063 15-02-2020 15:10:00 11.2 C 75 % 6.94 C
3064 15-02-2020 15:15:00 11.3 C 73 % 6.64 C
3065 15-02-2020 15:20:00 11.4 C 73 % 6.74 C
3066 15-02-2020 15:25:00 11.6 C 73 % 6.93 C
3067 15-02-2020 15:30:00 11.7 C 73 % 7.03 C
3068 15-02-2020 15:35:00 11.7 C 73 % 7.03 C
3069 15-02-2020 15:40:00 11.6 C 73 % 6.93 C
3070 15-02-2020 15:45:00 11.7 C 72 % 6.83 C
3071 15-02-2020 15:50:00 11.7 C 73 % 7.03 C
3072 15-02-2020 15:55:00 11.8 C 74 % 7.32 C
3073 15-02-2020 16:00:00 11.7 C 72 % 6.83 C
3074 15-02-2020 16:05:00 11.7 C 73 % 7.03 C
3075 15-02-2020 16:10:00 11.6 C 73 % 6.93 C
Sensor: Nr:Datum:Temp:Feuchte:Taupunkt:
Aussen-T/F 3076 15-02-2020 16:15:00 11.6 C 74 % 7.13 C
3077 15-02-2020 16:20:00 11.4 C 75 % 7.13 C
3078 15-02-2020 16:25:00 11.2 C 76 % 7.13 C
3079 15-02-2020 16:30:00 11.1 C 77 % 7.23 C
3080 15-02-2020 16:35:00 10.7 C 78 % 7.03 C
3081 15-02-2020 16:40:00 10.4 C 79 % 6.92 C
3082 15-02-2020 16:45:00 10.2 C 80 % 6.91 C
3083 15-02-2020 16:50:00 9.9 C 80 % 6.62 C
3084 15-02-2020 16:55:00 9.9 C 81 % 6.8 C
3085 15-02-2020 17:00:00 9.8 C 81 % 6.7 C
3086 15-02-2020 17:05:00 9.6 C 81 % 6.5 C
3087 15-02-2020 17:10:00 9.5 C 81 % 6.41 C
3088 15-02-2020 17:15:00 9.3 C 83 % 6.57 C
3089 15-02-2020 17:20:00 9.2 C 83 % 6.47 C
3090 15-02-2020 17:25:00 8.9 C 84 % 6.35 C
3091 15-02-2020 17:30:00 8.8 C 84 % 6.25 C
3092 15-02-2020 17:35:00 8.6 C 85 % 6.23 C
3093 15-02-2020 17:40:00 8.4 C 85 % 6.03 C
3094 15-02-2020 17:45:00 8.3 C 85 % 5.93 C
3095 15-02-2020 17:50:00 8.2 C 86 % 6 C
3096 15-02-2020 17:55:00 8.1 C 86 % 5.9 C
3097 15-02-2020 18:00:00 7.9 C 87 % 5.87 C
3098 15-02-2020 18:05:00 7.7 C 87 % 5.68 C
3099 15-02-2020 18:10:00 7.7 C 88 % 5.84 C
3100 15-02-2020 18:15:00 7.6 C 88 % 5.74 C
Sensor: Nr:Datum:Temp:Feuchte:Taupunkt:
Aussen-T/F 3101 15-02-2020 18:20:00 7.6 C 88 % 5.74 C
3102 15-02-2020 18:25:00 7.6 C 89 % 5.91 C
3103 15-02-2020 18:30:00 7.6 C 89 % 5.91 C
3104 15-02-2020 18:35:00 7.5 C 89 % 5.81 C
3105 15-02-2020 18:40:00 7.5 C 89 % 5.81 C
3106 15-02-2020 18:45:00 7.4 C 89 % 5.71 C
3107 15-02-2020 18:50:00 7.4 C 90 % 5.87 C
3108 15-02-2020 18:55:00 7.4 C 90 % 5.87 C
3109 15-02-2020 19:00:00 7.4 C 90 % 5.87 C
3110 15-02-2020 19:05:00 7.4 C 89 % 5.71 C
3111 15-02-2020 19:10:00 7.4 C 90 % 5.87 C
3112 15-02-2020 19:15:00 7.4 C 89 % 5.71 C
3113 15-02-2020 19:20:00 7.4 C 89 % 5.71 C
3114 15-02-2020 19:25:00 7.4 C 90 % 5.87 C
3115 15-02-2020 19:30:00 7.4 C 89 % 5.71 C
3116 15-02-2020 19:35:00 7.3 C 90 % 5.77 C
3117 15-02-2020 19:40:00 7.3 C 90 % 5.77 C
3118 15-02-2020 19:45:00 7.3 C 90 % 5.77 C
3119 15-02-2020 19:50:00 7.3 C 90 % 5.77 C
3120 15-02-2020 19:55:00 7.2 C 90 % 5.67 C
3121 15-02-2020 20:00:00 7.2 C 90 % 5.67 C
3122 15-02-2020 20:05:00 7.3 C 90 % 5.77 C
3123 15-02-2020 20:10:00 7.3 C 89 % 5.61 C
3124 15-02-2020 20:15:00 7.5 C 89 % 5.81 C
3125 15-02-2020 20:20:00 7.6 C 89 % 5.91 C
Sensor: Nr:Datum:Temp:Feuchte:Taupunkt:
Aussen-T/F 3126 15-02-2020 20:25:00 7.7 C 89 % 6 C
3127 15-02-2020 20:30:00 7.7 C 89 % 6 C
3128 15-02-2020 20:35:00 7.7 C 88 % 5.84 C
3129 15-02-2020 20:40:00 7.8 C 88 % 5.94 C
3130 15-02-2020 20:45:00 7.8 C 88 % 5.94 C
3131 15-02-2020 20:50:00 7.9 C 88 % 6.04 C
3132 15-02-2020 20:55:00 7.9 C 88 % 6.04 C
3133 15-02-2020 21:00:00 7.9 C 88 % 6.04 C
3134 15-02-2020 21:05:00 7.9 C 87 % 5.87 C
3135 15-02-2020 21:10:00 8 C 88 % 6.14 C
3136 15-02-2020 21:15:00 7.9 C 87 % 5.87 C
3137 15-02-2020 21:20:00 7.9 C 87 % 5.87 C
3138 15-02-2020 21:25:00 8 C 86 % 5.81 C
3139 15-02-2020 21:30:00 8.2 C 86 % 6 C
3140 15-02-2020 21:35:00 8.2 C 85 % 5.83 C
3141 15-02-2020 21:40:00 8.3 C 85 % 5.93 C
3142 15-02-2020 21:45:00 8.3 C 85 % 5.93 C
3143 15-02-2020 21:50:00 8.3 C 85 % 5.93 C
3144 15-02-2020 21:55:00 8.3 C 84 % 5.76 C
3145 15-02-2020 22:00:00 8.3 C 85 % 5.93 C
3146 15-02-2020 22:05:00 8.3 C 84 % 5.76 C
3147 15-02-2020 22:10:00 8.3 C 84 % 5.76 C
3148 15-02-2020 22:15:00 8.4 C 84 % 5.86 C
3149 15-02-2020 22:20:00 8.3 C 84 % 5.76 C
3150 15-02-2020 22:25:00 8.4 C 83 % 5.69 C
Sensor: Nr:Datum:Temp:Feuchte:Taupunkt:
Aussen-T/F 3151 15-02-2020 22:30:00 8.6 C 83 % 5.88 C
3152 15-02-2020 22:35:00 8.7 C 83 % 5.98 C
3153 15-02-2020 22:40:00 8.8 C 83 % 6.08 C
3154 15-02-2020 22:45:00 9.1 C 82 % 6.19 C
3155 15-02-2020 22:50:00 9.2 C 81 % 6.11 C
3156 15-02-2020 22:55:00 9.3 C 81 % 6.21 C
3157 15-02-2020 23:00:00 9.3 C 81 % 6.21 C
3158 15-02-2020 23:05:00 9.4 C 79 % 5.95 C
3159 15-02-2020 23:10:00 9.9 C 77 % 6.06 C
3160 15-02-2020 23:15:00 10.2 C 77 % 6.35 C
3161 15-02-2020 23:20:00 10.3 C 77 % 6.45 C
3162 15-02-2020 23:25:00 10.2 C 77 % 6.35 C
3163 15-02-2020 23:30:00 10.1 C 78 % 6.44 C
3164 15-02-2020 23:35:00 9.9 C 79 % 6.43 C
3165 15-02-2020 23:40:00 9.9 C 78 % 6.25 C
3166 15-02-2020 23:45:00 10.1 C 76 % 6.07 C
3167 15-02-2020 23:50:00 10.3 C 76 % 6.26 C
3168 15-02-2020 23:55:00 10.4 C 77 % 6.55 C
3169 16-02-2020 00:00:00 10.4 C 76 % 6.36 C
3170 16-02-2020 00:05:00 10.4 C 77 % 6.55 C
3171 16-02-2020 00:10:00 10.3 C 77 % 6.45 C
3172 16-02-2020 00:15:00 10.1 C 76 % 6.07 C
3173 16-02-2020 00:20:00 10.2 C 76 % 6.16 C
3174 16-02-2020 00:25:00 10.2 C 77 % 6.35 C
3175 16-02-2020 00:30:00 10.2 C 77 % 6.35 C
Sensor: Nr:Datum:Temp:Feuchte:Taupunkt:
Aussen-T/F 3176 16-02-2020 00:35:00 10.1 C 78 % 6.44 C
3177 16-02-2020 00:40:00 10.2 C 77 % 6.35 C
3178 16-02-2020 00:45:00 10.2 C 77 % 6.35 C
3179 16-02-2020 00:50:00 10.4 C 76 % 6.36 C
3180 16-02-2020 00:55:00 10.6 C 76 % 6.55 C
3181 16-02-2020 01:00:00 10.5 C 76 % 6.45 C
3182 16-02-2020 01:05:00 10.4 C 76 % 6.36 C
3183 16-02-2020 01:10:00 10.4 C 76 % 6.36 C
3184 16-02-2020 01:15:00 10.6 C 76 % 6.55 C
3185 16-02-2020 01:20:00 10.8 C 76 % 6.75 C
3186 16-02-2020 01:25:00 10.8 C 75 % 6.55 C
3187 16-02-2020 01:30:00 10.8 C 76 % 6.75 C
3188 16-02-2020 01:35:00 10.7 C 77 % 6.84 C
3189 16-02-2020 01:40:00 10.6 C 77 % 6.74 C
3190 16-02-2020 01:45:00 10.5 C 78 % 6.83 C
3191 16-02-2020 01:50:00 10.5 C 78 % 6.83 C
3192 16-02-2020 01:55:00 10.4 C 78 % 6.74 C
3193 16-02-2020 02:00:00 10.6 C 78 % 6.93 C
3194 16-02-2020 02:05:00 10.8 C 77 % 6.94 C
3195 16-02-2020 02:10:00 10.9 C 77 % 7.03 C
3196 16-02-2020 02:15:00 11.1 C 76 % 7.04 C
3197 16-02-2020 02:20:00 11.1 C 77 % 7.23 C
3198 16-02-2020 02:25:00 11.1 C 77 % 7.23 C
3199 16-02-2020 02:30:00 11.3 C 76 % 7.23 C
3200 16-02-2020 02:35:00 11.4 C 76 % 7.33 C
Sensor: Nr:Datum:Temp:Feuchte:Taupunkt:
Aussen-T/F 3201 16-02-2020 02:40:00 11.4 C 76 % 7.33 C
3202 16-02-2020 02:45:00 11.4 C 76 % 7.33 C
3203 16-02-2020 02:50:00 11.6 C 75 % 7.33 C
3204 16-02-2020 02:55:00 11.8 C 74 % 7.32 C
3205 16-02-2020 03:00:00 11.9 C 73 % 7.22 C
3206 16-02-2020 03:05:00 11.9 C 74 % 7.42 C
3207 16-02-2020 03:10:00 12 C 74 % 7.52 C
3208 16-02-2020 03:15:00 12.1 C 74 % 7.61 C
3209 16-02-2020 03:20:00 12.1 C 74 % 7.61 C
3210 16-02-2020 03:25:00 12.2 C 73 % 7.51 C
3211 16-02-2020 03:30:00 12.6 C 72 % 7.69 C
3212 16-02-2020 03:35:00 12.6 C 72 % 7.69 C
3213 16-02-2020 03:40:00 12.7 C 71 % 7.58 C
3214 16-02-2020 03:45:00 12.7 C 71 % 7.58 C
3215 16-02-2020 03:50:00 12.7 C 71 % 7.58 C
3216 16-02-2020 03:55:00 12.8 C 70 % 7.47 C
3217 16-02-2020 04:00:00 12.8 C 70 % 7.47 C
3218 16-02-2020 04:05:00 12.7 C 71 % 7.58 C
3219 16-02-2020 04:10:00 12.8 C 70 % 7.47 C
3220 16-02-2020 04:15:00 12.8 C 70 % 7.47 C
3221 16-02-2020 04:20:00 12.8 C 70 % 7.47 C
3222 16-02-2020 04:25:00 12.8 C 70 % 7.47 C
3223 16-02-2020 04:30:00 12.7 C 70 % 7.38 C
3224 16-02-2020 04:35:00 12.5 C 71 % 7.39 C
3225 16-02-2020 04:40:00 12.4 C 71 % 7.3 C
Sensor: Nr:Datum:Temp:Feuchte:Taupunkt:
Aussen-T/F 3226 16-02-2020 04:45:00 12.3 C 71 % 7.2 C
3227 16-02-2020 04:50:00 12.2 C 70 % 6.9 C
3228 16-02-2020 04:55:00 12.2 C 70 % 6.9 C
3229 16-02-2020 05:00:00 12.2 C 70 % 6.9 C
3230 16-02-2020 05:05:00 12.2 C 72 % 7.31 C
3231 16-02-2020 05:10:00 12.1 C 71 % 7.01 C
3232 16-02-2020 05:15:00 12.1 C 71 % 7.01 C
3233 16-02-2020 05:20:00 12.1 C 72 % 7.21 C
3234 16-02-2020 05:25:00 12 C 72 % 7.12 C
3235 16-02-2020 05:30:00 12.1 C 72 % 7.21 C
3236 16-02-2020 05:35:00 12.1 C 72 % 7.21 C
3237 16-02-2020 05:40:00 12.1 C 71 % 7.01 C
3238 16-02-2020 05:45:00 12.2 C 72 % 7.31 C
3239 16-02-2020 05:50:00 12.3 C 71 % 7.2 C
3240 16-02-2020 05:55:00 12.4 C 70 % 7.09 C
3241 16-02-2020 06:00:00 12.5 C 69 % 6.97 C
3242 16-02-2020 06:05:00 12.8 C 68 % 7.05 C
3243 16-02-2020 06:10:00 12.9 C 69 % 7.36 C
3244 16-02-2020 06:15:00 12.9 C 68 % 7.14 C
3245 16-02-2020 06:20:00 13 C 67 % 7.02 C
3246 16-02-2020 06:25:00 13.1 C 67 % 7.12 C
3247 16-02-2020 06:30:00 13.3 C 67 % 7.31 C
3248 16-02-2020 06:35:00 13.4 C 67 % 7.4 C
3249 16-02-2020 06:40:00 13.4 C 67 % 7.4 C
3250 16-02-2020 06:45:00 13.6 C 67 % 7.6 C
Sensor: Nr:Datum:Temp:Feuchte:Taupunkt:
Aussen-T/F 3251 16-02-2020 06:50:00 13.7 C 66 % 7.47 C
3252 16-02-2020 06:55:00 13.7 C 67 % 7.69 C
3253 16-02-2020 07:00:00 13.7 C 67 % 7.69 C
3254 16-02-2020 07:05:00 13.7 C 68 % 7.91 C
3255 16-02-2020 07:10:00 13.7 C 68 % 7.91 C
3256 16-02-2020 07:15:00 13.7 C 68 % 7.91 C
3257 16-02-2020 07:20:00 13.7 C 69 % 8.12 C
3258 16-02-2020 07:25:00 13.8 C 70 % 8.43 C
3259 16-02-2020 07:30:00 14 C 70 % 8.62 C
3260 16-02-2020 07:35:00 14.1 C 70 % 8.72 C
3261 16-02-2020 07:40:00 14.1 C 71 % 8.93 C
3262 16-02-2020 07:45:00 14.1 C 71 % 8.93 C
3263 16-02-2020 07:50:00 14.1 C 71 % 8.93 C
3264 16-02-2020 07:55:00 14.1 C 71 % 8.93 C
3265 16-02-2020 08:00:00 14 C 72 % 9.04 C
3266 16-02-2020 08:05:00 13.9 C 72 % 8.94 C
3267 16-02-2020 08:10:00 13.9 C 73 % 9.15 C
3268 16-02-2020 08:15:00 13.8 C 73 % 9.05 C
3269 16-02-2020 08:20:00 13.8 C 74 % 9.25 C
3270 16-02-2020 08:25:00 13.7 C 74 % 9.15 C
3271 16-02-2020 08:30:00 13.7 C 75 % 9.35 C
3272 16-02-2020 08:35:00 13.6 C 75 % 9.26 C
3273 16-02-2020 08:40:00 13.6 C 75 % 9.26 C
3274 16-02-2020 08:45:00 13.7 C 75 % 9.35 C
3275 16-02-2020 08:50:00 13.7 C 75 % 9.35 C
Sensor: Nr:Datum:Temp:Feuchte:Taupunkt:
Aussen-T/F 3276 16-02-2020 08:55:00 13.7 C 75 % 9.35 C
3277 16-02-2020 09:00:00 13.8 C 75 % 9.45 C
3278 16-02-2020 09:05:00 13.8 C 75 % 9.45 C
3279 16-02-2020 09:10:00 13.8 C 74 % 9.25 C
3280 16-02-2020 09:15:00 13.8 C 74 % 9.25 C
3281 16-02-2020 09:20:00 13.8 C 74 % 9.25 C
3282 16-02-2020 09:25:00 13.9 C 73 % 9.15 C
3283 16-02-2020 09:30:00 14 C 73 % 9.24 C
3284 16-02-2020 09:35:00 14.1 C 72 % 9.13 C
3285 16-02-2020 09:40:00 14.1 C 71 % 8.93 C
3286 16-02-2020 09:45:00 14.1 C 71 % 8.93 C
3287 16-02-2020 09:50:00 14.1 C 71 % 8.93 C
3288 16-02-2020 09:55:00 14.2 C 70 % 8.81 C
3289 16-02-2020 10:00:00 14.2 C 70 % 8.81 C
3290 16-02-2020 10:05:00 14.2 C 70 % 8.81 C
3291 16-02-2020 10:10:00 14.2 C 70 % 8.81 C
3292 16-02-2020 10:15:00 14.2 C 71 % 9.02 C
3293 16-02-2020 10:20:00 14.2 C 70 % 8.81 C
3294 16-02-2020 10:25:00 14.3 C 71 % 9.12 C
3295 16-02-2020 10:30:00 14.3 C 70 % 8.91 C
3296 16-02-2020 10:35:00 14.4 C 70 % 9 C
3297 16-02-2020 10:40:00 14.6 C 69 % 8.98 C
3298 16-02-2020 10:45:00 14.7 C 69 % 9.08 C
3299 16-02-2020 10:50:00 14.7 C 69 % 9.08 C
3300 16-02-2020 10:55:00 14.8 C 68 % 8.96 C
Sensor: Nr:Datum:Temp:Feuchte:Taupunkt:
Aussen-T/F 3301 16-02-2020 11:00:00 14.8 C 68 % 8.96 C
3302 16-02-2020 11:05:00 14.9 C 68 % 9.05 C
3303 16-02-2020 11:10:00 15.1 C 66 % 8.8 C
3304 16-02-2020 11:15:00 15.2 C 66 % 8.9 C
3305 16-02-2020 11:20:00 15.3 C 65 % 8.77 C
3306 16-02-2020 11:25:00 15.4 C 64 % 8.63 C
3307 16-02-2020 11:30:00 15.6 C 64 % 8.82 C
3308 16-02-2020 11:35:00 15.7 C 64 % 8.92 C
3309 16-02-2020 11:40:00 15.7 C 63 % 8.68 C
3310 16-02-2020 11:45:00 15.8 C 62 % 8.54 C
3311 16-02-2020 11:50:00 15.9 C 62 % 8.64 C
3312 16-02-2020 11:55:00 15.9 C 61 % 8.4 C
3313 16-02-2020 12:00:00 16 C 61 % 8.49 C
3314 16-02-2020 12:05:00 16.1 C 60 % 8.34 C
3315 16-02-2020 12:10:00 16.1 C 60 % 8.34 C
3316 16-02-2020 12:15:00 16.2 C 59 % 8.19 C
3317 16-02-2020 12:20:00 16.3 C 59 % 8.28 C
3318 16-02-2020 12:25:00 16.4 C 58 % 8.12 C
3319 16-02-2020 12:30:00 16.6 C 58 % 8.31 C
3320 16-02-2020 12:35:00 16.6 C 58 % 8.31 C
3321 16-02-2020 12:40:00 16.6 C 57 % 8.06 C
3322 16-02-2020 12:45:00 16.7 C 57 % 8.15 C
3323 16-02-2020 12:50:00 16.8 C 57 % 8.24 C
3324 16-02-2020 12:55:00 16.8 C 57 % 8.24 C
3325 16-02-2020 13:00:00 17 C 56 % 8.17 C
Sensor: Nr:Datum:Temp:Feuchte:Taupunkt:
Aussen-T/F 3326 16-02-2020 13:05:00 17.1 C 55 % 8 C
3327 16-02-2020 13:10:00 17.1 C 55 % 8 C
3328 16-02-2020 13:15:00 17 C 56 % 8.17 C
3329 16-02-2020 13:20:00 17 C 55 % 7.9 C
3330 16-02-2020 13:25:00 17 C 55 % 7.9 C
3331 16-02-2020 13:30:00 17 C 54 % 7.63 C
3332 16-02-2020 13:35:00 17.2 C 55 % 8.09 C
3333 16-02-2020 13:40:00 17.4 C 55 % 8.28 C
3334 16-02-2020 13:45:00 17.7 C 53 % 8.01 C
3335 16-02-2020 13:50:00 17.8 C 53 % 8.1 C
3336 16-02-2020 13:55:00 17.9 C 53 % 8.19 C
3337 16-02-2020 14:00:00 17.9 C 52 % 7.91 C
3338 16-02-2020 14:05:00 17.8 C 52 % 7.82 C
3339 16-02-2020 14:10:00 17.8 C 53 % 8.1 C
3340 16-02-2020 14:15:00 17.8 C 52 % 7.82 C
3341 16-02-2020 14:20:00 17.8 C 52 % 7.82 C
3342 16-02-2020 14:25:00 17.9 C 52 % 7.91 C
3343 16-02-2020 14:30:00 17.9 C 52 % 7.91 C
3344 16-02-2020 14:35:00 17.9 C 52 % 7.91 C
3345 16-02-2020 14:40:00 17.8 C 52 % 7.82 C
3346 16-02-2020 14:45:00 17.8 C 53 % 8.1 C
3347 16-02-2020 14:50:00 17.8 C 53 % 8.1 C
3348 16-02-2020 14:55:00 17.8 C 53 % 8.1 C
3349 16-02-2020 15:00:00 17.8 C 53 % 8.1 C
3350 16-02-2020 15:05:00 17.7 C 53 % 8.01 C
Sensor: Nr:Datum:Temp:Feuchte:Taupunkt:
Aussen-T/F 3351 16-02-2020 15:10:00 17.7 C 53 % 8.01 C
3352 16-02-2020 15:15:00 17.7 C 53 % 8.01 C
3353 16-02-2020 15:20:00 17.6 C 55 % 8.46 C
3354 16-02-2020 15:25:00 17.6 C 54 % 8.19 C
3355 16-02-2020 15:30:00 17.6 C 53 % 7.92 C
3356 16-02-2020 15:35:00 17.6 C 54 % 8.19 C
3357 16-02-2020 15:40:00 17.6 C 53 % 7.92 C
3358 16-02-2020 15:45:00 17.7 C 54 % 8.28 C
3359 16-02-2020 15:50:00 17.8 C 53 % 8.1 C
3360 16-02-2020 15:55:00 17.9 C 52 % 7.91 C
3361 16-02-2020 16:00:00 18 C 51 % 7.72 C
3362 16-02-2020 16:05:00 18 C 51 % 7.72 C
3363 16-02-2020 16:10:00 18.1 C 52 % 8.1 C
3364 16-02-2020 16:15:00 17.9 C 52 % 7.91 C
3365 16-02-2020 16:20:00 17.8 C 52 % 7.82 C
3366 16-02-2020 16:25:00 17.8 C 52 % 7.82 C
3367 16-02-2020 16:30:00 17.8 C 52 % 7.82 C
3368 16-02-2020 16:35:00 17.8 C 53 % 8.1 C
3369 16-02-2020 16:40:00 17.7 C 52 % 7.73 C
3370 16-02-2020 16:45:00 17.6 C 53 % 7.92 C
3371 16-02-2020 16:50:00 17.4 C 53 % 7.73 C
3372 16-02-2020 16:55:00 17.2 C 54 % 7.82 C
3373 16-02-2020 17:00:00 17.1 C 54 % 7.73 C
3374 16-02-2020 17:05:00 16.9 C 55 % 7.81 C
3375 16-02-2020 17:10:00 16.8 C 55 % 7.72 C
Sensor: Nr:Datum:Temp:Feuchte:Taupunkt:
Aussen-T/F 3376 16-02-2020 17:15:00 16.7 C 56 % 7.89 C
3377 16-02-2020 17:20:00 16.5 C 58 % 8.22 C
3378 16-02-2020 17:25:00 16.2 C 57 % 7.68 C
3379 16-02-2020 17:30:00 16.1 C 58 % 7.84 C
3380 16-02-2020 17:35:00 15.9 C 58 % 7.66 C
3381 16-02-2020 17:40:00 15.9 C 58 % 7.66 C
3382 16-02-2020 17:45:00 15.8 C 58 % 7.56 C
3383 16-02-2020 17:50:00 15.7 C 59 % 7.72 C
3384 16-02-2020 17:55:00 15.4 C 59 % 7.44 C
3385 16-02-2020 18:00:00 15.3 C 59 % 7.34 C
3386 16-02-2020 18:05:00 15.3 C 59 % 7.34 C
3387 16-02-2020 18:10:00 15.3 C 59 % 7.34 C
3388 16-02-2020 18:15:00 15.3 C 59 % 7.34 C
3389 16-02-2020 18:20:00 15.4 C 59 % 7.44 C
3390 16-02-2020 18:25:00 15.4 C 58 % 7.19 C
3391 16-02-2020 18:30:00 15.5 C 58 % 7.28 C
3392 16-02-2020 18:35:00 15.5 C 58 % 7.28 C
3393 16-02-2020 18:40:00 15.5 C 58 % 7.28 C
3394 16-02-2020 18:45:00 15.6 C 57 % 7.12 C
3395 16-02-2020 18:50:00 15.7 C 57 % 7.21 C
3396 16-02-2020 18:55:00 15.7 C 57 % 7.21 C
3397 16-02-2020 19:00:00 15.7 C 57 % 7.21 C
3398 16-02-2020 19:05:00 15.6 C 57 % 7.12 C
3399 16-02-2020 19:10:00 15.8 C 57 % 7.31 C
3400 16-02-2020 19:15:00 15.8 C 56 % 7.05 C
Sensor: Nr:Datum:Temp:Feuchte:Taupunkt:
Aussen-T/F 3401 16-02-2020 19:20:00 15.8 C 57 % 7.31 C
3402 16-02-2020 19:25:00 15.9 C 56 % 7.14 C
3403 16-02-2020 19:30:00 15.9 C 57 % 7.4 C
3404 16-02-2020 19:35:00 15.9 C 57 % 7.4 C
3405 16-02-2020 19:40:00 15.9 C 57 % 7.4 C
3406 16-02-2020 19:45:00 15.9 C 57 % 7.4 C
3407 16-02-2020 19:50:00 15.8 C 58 % 7.56 C
3408 16-02-2020 19:55:00 15.8 C 58 % 7.56 C
3409 16-02-2020 20:00:00 15.9 C 57 % 7.4 C
3410 16-02-2020 20:05:00 16 C 57 % 7.49 C
3411 16-02-2020 20:10:00 16.1 C 57 % 7.59 C
3412 16-02-2020 20:15:00 16.1 C 57 % 7.59 C
3413 16-02-2020 20:20:00 16.1 C 57 % 7.59 C
3414 16-02-2020 20:25:00 16.2 C 57 % 7.68 C
3415 16-02-2020 20:30:00 16.2 C 57 % 7.68 C
3416 16-02-2020 20:35:00 16.2 C 57 % 7.68 C
3417 16-02-2020 20:40:00 16.2 C 57 % 7.68 C
3418 16-02-2020 20:45:00 16.2 C 58 % 7.94 C
3419 16-02-2020 20:50:00 16.1 C 58 % 7.84 C
3420 16-02-2020 20:55:00 16.2 C 58 % 7.94 C
3421 16-02-2020 21:00:00 16.3 C 57 % 7.77 C
3422 16-02-2020 21:05:00 16.4 C 57 % 7.87 C
3423 16-02-2020 21:10:00 16.3 C 57 % 7.77 C
3424 16-02-2020 21:15:00 16.3 C 58 % 8.03 C
3425 16-02-2020 21:20:00 16.3 C 58 % 8.03 C
Sensor: Nr:Datum:Temp:Feuchte:Taupunkt:
Aussen-T/F 3426 16-02-2020 21:25:00 16.3 C 58 % 8.03 C
3427 16-02-2020 21:30:00 16.4 C 58 % 8.12 C
3428 16-02-2020 21:35:00 16.5 C 58 % 8.22 C
3429 16-02-2020 21:40:00 16.6 C 58 % 8.31 C
3430 16-02-2020 21:45:00 16.5 C 58 % 8.22 C
3431 16-02-2020 21:50:00 16.6 C 58 % 8.31 C
3432 16-02-2020 21:55:00 16.6 C 58 % 8.31 C
3433 16-02-2020 22:00:00 16.6 C 59 % 8.56 C
3434 16-02-2020 22:05:00 16.6 C 59 % 8.56 C
3435 16-02-2020 22:10:00 16.4 C 59 % 8.38 C
3436 16-02-2020 22:15:00 16.4 C 60 % 8.62 C
3437 16-02-2020 22:20:00 16.3 C 60 % 8.53 C
3438 16-02-2020 22:25:00 16.3 C 61 % 8.77 C
3439 16-02-2020 22:30:00 16.3 C 61 % 8.77 C
3440 16-02-2020 22:35:00 16.3 C 62 % 9.01 C
3441 16-02-2020 22:40:00 16.2 C 62 % 8.92 C
3442 16-02-2020 22:45:00 16.2 C 62 % 8.92 C
3443 16-02-2020 22:50:00 16.2 C 63 % 9.16 C
3444 16-02-2020 22:55:00 16.2 C 63 % 9.16 C
3445 16-02-2020 23:00:00 16.1 C 65 % 9.53 C
3446 16-02-2020 23:05:00 15.8 C 67 % 9.69 C
3447 16-02-2020 23:10:00 15.5 C 69 % 9.84 C
3448 16-02-2020 23:15:00 14.8 C 76 % 10.61 C
3449 16-02-2020 23:20:00 13.6 C 78 % 9.84 C
3450 16-02-2020 23:25:00 12.8 C 80 % 9.44 C
Sensor: Nr:Datum:Temp:Feuchte:Taupunkt:
Aussen-T/F 3451 16-02-2020 23:30:00 12 C 81 % 8.84 C
3452 16-02-2020 23:35:00 11.5 C 84 % 8.89 C
3453 16-02-2020 23:40:00 11.2 C 85 % 8.77 C
3454 16-02-2020 23:45:00 10.9 C 85 % 8.48 C
3455 16-02-2020 23:50:00 10.7 C 86 % 8.46 C
3456 16-02-2020 23:55:00 10.6 C 86 % 8.36 C
3457 17-02-2020 00:00:00 10.3 C 86 % 8.06 C
3458 17-02-2020 00:05:00 10.2 C 87 % 8.14 C
3459 17-02-2020 00:10:00 10.2 C 87 % 8.14 C
3460 17-02-2020 00:15:00 10.1 C 88 % 8.21 C
3461 17-02-2020 00:20:00 10 C 89 % 8.27 C
3462 17-02-2020 00:25:00 9.9 C 89 % 8.17 C
3463 17-02-2020 00:30:00 9.8 C 89 % 8.08 C
3464 17-02-2020 00:35:00 9.8 C 89 % 8.08 C
3465 17-02-2020 00:40:00 9.8 C 89 % 8.08 C
3466 17-02-2020 00:45:00 9.8 C 89 % 8.08 C
3467 17-02-2020 00:50:00 9.8 C 88 % 7.91 C
3468 17-02-2020 00:55:00 9.8 C 88 % 7.91 C
3469 17-02-2020 01:00:00 9.7 C 88 % 7.81 C
3470 17-02-2020 01:05:00 9.7 C 88 % 7.81 C
3471 17-02-2020 01:10:00 9.7 C 88 % 7.81 C
3472 17-02-2020 01:15:00 9.6 C 88 % 7.71 C
3473 17-02-2020 01:20:00 9.6 C 87 % 7.55 C
3474 17-02-2020 01:25:00 9.5 C 87 % 7.45 C
3475 17-02-2020 01:30:00 9.5 C 87 % 7.45 C
Sensor: Nr:Datum:Temp:Feuchte:Taupunkt:
Aussen-T/F 3476 17-02-2020 01:35:00 9.4 C 86 % 7.18 C
3477 17-02-2020 01:40:00 9.3 C 86 % 7.08 C
3478 17-02-2020 01:45:00 9.3 C 87 % 7.25 C
3479 17-02-2020 01:50:00 9.2 C 88 % 7.32 C
3480 17-02-2020 01:55:00 9.1 C 89 % 7.39 C
3481 17-02-2020 02:00:00 9 C 90 % 7.45 C
3482 17-02-2020 02:05:00 8.9 C 91 % 7.51 C
3483 17-02-2020 02:10:00 8.8 C 90 % 7.25 C
3484 17-02-2020 02:15:00 8.7 C 89 % 6.99 C
3485 17-02-2020 02:20:00 8.6 C 86 % 6.39 C
3486 17-02-2020 02:25:00 8.6 C 86 % 6.39 C
3487 17-02-2020 02:30:00 8.4 C 86 % 6.2 C
3488 17-02-2020 02:35:00 8.3 C 83 % 5.59 C
3489 17-02-2020 02:40:00 8.3 C 84 % 5.76 C
3490 17-02-2020 02:45:00 8.2 C 83 % 5.49 C
3491 17-02-2020 02:50:00 8.2 C 82 % 5.32 C
3492 17-02-2020 02:55:00 8.2 C 82 % 5.32 C
3493 17-02-2020 03:00:00 8.2 C 82 % 5.32 C
3494 17-02-2020 03:05:00 8.3 C 82 % 5.41 C
3495 17-02-2020 03:10:00 8.3 C 82 % 5.41 C
3496 17-02-2020 03:15:00 8.3 C 82 % 5.41 C
3497 17-02-2020 03:20:00 8.3 C 82 % 5.41 C
3498 17-02-2020 03:25:00 8.3 C 83 % 5.59 C
3499 17-02-2020 03:30:00 8.3 C 83 % 5.59 C
3500 17-02-2020 03:35:00 8.3 C 83 % 5.59 C
Sensor: Nr:Datum:Temp:Feuchte:Taupunkt:
Aussen-T/F 3501 17-02-2020 03:40:00 8.3 C 82 % 5.41 C
3502 17-02-2020 03:45:00 8.4 C 82 % 5.51 C
3503 17-02-2020 03:50:00 8.4 C 82 % 5.51 C
3504 17-02-2020 03:55:00 8.4 C 82 % 5.51 C
3505 17-02-2020 04:00:00 8.4 C 82 % 5.51 C
3506 17-02-2020 04:05:00 8.4 C 82 % 5.51 C
3507 17-02-2020 04:10:00 8.3 C 82 % 5.41 C
3508 17-02-2020 04:15:00 8.3 C 82 % 5.41 C
3509 17-02-2020 04:20:00 8.3 C 82 % 5.41 C
3510 17-02-2020 04:25:00 8.3 C 82 % 5.41 C
3511 17-02-2020 04:30:00 8.3 C 83 % 5.59 C
3512 17-02-2020 04:35:00 8.3 C 83 % 5.59 C
3513 17-02-2020 04:40:00 8.2 C 83 % 5.49 C
3514 17-02-2020 04:45:00 8.2 C 83 % 5.49 C
3515 17-02-2020 04:50:00 8.2 C 83 % 5.49 C
3516 17-02-2020 04:55:00 8.2 C 84 % 5.66 C
3517 17-02-2020 05:00:00 8.1 C 84 % 5.56 C
3518 17-02-2020 05:05:00 8.1 C 84 % 5.56 C
3519 17-02-2020 05:10:00 8.1 C 84 % 5.56 C
3520 17-02-2020 05:15:00 8.1 C 84 % 5.56 C
3521 17-02-2020 05:20:00 8.1 C 84 % 5.56 C
3522 17-02-2020 05:25:00 8.1 C 84 % 5.56 C
3523 17-02-2020 05:30:00 8.1 C 85 % 5.73 C
3524 17-02-2020 05:35:00 8 C 85 % 5.64 C
3525 17-02-2020 05:40:00 7.9 C 85 % 5.54 C
Sensor: Nr:Datum:Temp:Feuchte:Taupunkt:
Aussen-T/F 3526 17-02-2020 05:45:00 7.9 C 85 % 5.54 C
3527 17-02-2020 05:50:00 8 C 85 % 5.64 C
3528 17-02-2020 05:55:00 7.9 C 85 % 5.54 C
3529 17-02-2020 06:00:00 7.9 C 86 % 5.71 C
3530 17-02-2020 06:05:00 7.9 C 86 % 5.71 C
3531 17-02-2020 06:10:00 7.9 C 86 % 5.71 C
3532 17-02-2020 06:15:00 7.9 C 86 % 5.71 C
3533 17-02-2020 06:20:00 7.9 C 86 % 5.71 C
3534 17-02-2020 06:25:00 8 C 86 % 5.81 C
3535 17-02-2020 06:30:00 8.1 C 86 % 5.9 C
3536 17-02-2020 06:35:00 8.2 C 85 % 5.83 C
3537 17-02-2020 06:40:00 8.2 C 85 % 5.83 C
3538 17-02-2020 06:45:00 8.2 C 85 % 5.83 C
3539 17-02-2020 06:50:00 8.2 C 85 % 5.83 C
3540 17-02-2020 06:55:00 8.2 C 85 % 5.83 C
3541 17-02-2020 07:00:00 8.3 C 85 % 5.93 C
3542 17-02-2020 07:05:00 8.3 C 85 % 5.93 C
3543 17-02-2020 07:10:00 8.3 C 85 % 5.93 C
3544 17-02-2020 07:15:00 8.3 C 85 % 5.93 C
3545 17-02-2020 07:20:00 8.2 C 85 % 5.83 C
3546 17-02-2020 07:25:00 8.2 C 85 % 5.83 C
3547 17-02-2020 07:30:00 8.1 C 85 % 5.73 C
3548 17-02-2020 07:35:00 8.1 C 86 % 5.9 C
3549 17-02-2020 07:40:00 8.1 C 86 % 5.9 C
3550 17-02-2020 07:45:00 8.1 C 86 % 5.9 C
Sensor: Nr:Datum:Temp:Feuchte:Taupunkt:
Aussen-T/F 3551 17-02-2020 07:50:00 8.1 C 86 % 5.9 C
3552 17-02-2020 07:55:00 8 C 86 % 5.81 C
3553 17-02-2020 08:00:00 7.9 C 86 % 5.71 C
3554 17-02-2020 08:05:00 7.9 C 86 % 5.71 C
3555 17-02-2020 08:10:00 7.9 C 86 % 5.71 C
3556 17-02-2020 08:15:00 8 C 86 % 5.81 C
3557 17-02-2020 08:20:00 8.1 C 86 % 5.9 C
3558 17-02-2020 08:25:00 8.1 C 86 % 5.9 C
3559 17-02-2020 08:30:00 8.1 C 86 % 5.9 C
3560 17-02-2020 08:35:00 8.2 C 86 % 6 C
3561 17-02-2020 08:40:00 8.1 C 86 % 5.9 C
3562 17-02-2020 08:45:00 8.2 C 85 % 5.83 C
3563 17-02-2020 08:50:00 8.3 C 85 % 5.93 C
3564 17-02-2020 08:55:00 8.4 C 85 % 6.03 C
3565 17-02-2020 09:00:00 8.5 C 85 % 6.13 C
3566 17-02-2020 09:05:00 8.6 C 84 % 6.05 C
3567 17-02-2020 09:10:00 8.6 C 84 % 6.05 C
3568 17-02-2020 09:15:00 8.7 C 83 % 5.98 C
3569 17-02-2020 09:20:00 8.7 C 83 % 5.98 C
3570 17-02-2020 09:25:00 8.7 C 83 % 5.98 C
3571 17-02-2020 09:30:00 8.8 C 83 % 6.08 C
3572 17-02-2020 09:35:00 8.8 C 83 % 6.08 C
3573 17-02-2020 09:40:00 8.8 C 84 % 6.25 C
3574 17-02-2020 09:45:00 8.8 C 84 % 6.25 C
3575 17-02-2020 09:50:00 8.7 C 83 % 5.98 C
Sensor: Nr:Datum:Temp:Feuchte:Taupunkt:
Aussen-T/F 3576 17-02-2020 09:55:00 8.7 C 83 % 5.98 C
3577 17-02-2020 10:00:00 8.7 C 83 % 5.98 C
3578 17-02-2020 10:05:00 8.7 C 83 % 5.98 C
3579 17-02-2020 10:10:00 8.8 C 83 % 6.08 C
3580 17-02-2020 10:15:00 8.8 C 82 % 5.9 C
3581 17-02-2020 10:20:00 8.8 C 82 % 5.9 C
3582 17-02-2020 10:25:00 8.9 C 83 % 6.17 C
3583 17-02-2020 10:30:00 9 C 82 % 6.1 C
3584 17-02-2020 10:35:00 9.1 C 83 % 6.37 C
3585 17-02-2020 10:40:00 9.1 C 83 % 6.37 C
3586 17-02-2020 10:45:00 9.2 C 82 % 6.29 C
3587 17-02-2020 10:50:00 9.2 C 82 % 6.29 C
3588 17-02-2020 10:55:00 9.3 C 82 % 6.39 C
3589 17-02-2020 11:00:00 9.3 C 81 % 6.21 C
3590 17-02-2020 11:05:00 9.3 C 80 % 6.03 C
3591 17-02-2020 11:10:00 9.3 C 79 % 5.85 C
3592 17-02-2020 11:15:00 9.4 C 79 % 5.95 C
3593 17-02-2020 11:20:00 9.4 C 80 % 6.13 C
3594 17-02-2020 11:25:00 9.4 C 79 % 5.95 C
3595 17-02-2020 11:30:00 9.5 C 79 % 6.05 C
3596 17-02-2020 11:35:00 9.5 C 78 % 5.86 C
3597 17-02-2020 11:40:00 9.6 C 78 % 5.96 C
3598 17-02-2020 11:45:00 9.5 C 78 % 5.86 C
3599 17-02-2020 11:50:00 9.5 C 78 % 5.86 C
3600 17-02-2020 11:55:00 9.5 C 77 % 5.68 C
Sensor: Nr:Datum:Temp:Feuchte:Taupunkt:
Aussen-T/F 3601 17-02-2020 12:00:00 9.5 C 78 % 5.86 C
3602 17-02-2020 12:05:00 9.6 C 77 % 5.77 C
3603 17-02-2020 12:10:00 9.6 C 77 % 5.77 C
3604 17-02-2020 12:15:00 9.6 C 77 % 5.77 C
3605 17-02-2020 12:20:00 9.6 C 76 % 5.58 C
3606 17-02-2020 12:25:00 9.5 C 75 % 5.3 C
3607 17-02-2020 12:30:00 9.5 C 75 % 5.3 C
3608 17-02-2020 12:35:00 9.5 C 76 % 5.49 C
3609 17-02-2020 12:40:00 9.5 C 76 % 5.49 C
3610 17-02-2020 12:45:00 9.6 C 75 % 5.39 C
3611 17-02-2020 12:50:00 9.6 C 74 % 5.2 C
3612 17-02-2020 12:55:00 9.6 C 75 % 5.39 C
3613 17-02-2020 13:00:00 9.6 C 74 % 5.2 C
3614 17-02-2020 13:05:00 9.7 C 74 % 5.3 C
3615 17-02-2020 13:10:00 9.8 C 74 % 5.39 C
3616 17-02-2020 13:15:00 9.8 C 73 % 5.2 C
3617 17-02-2020 13:20:00 9.8 C 74 % 5.39 C
3618 17-02-2020 13:25:00 10 C 74 % 5.59 C
3619 17-02-2020 13:30:00 10.2 C 73 % 5.58 C
3620 17-02-2020 13:35:00 10.2 C 74 % 5.78 C
3621 17-02-2020 13:40:00 10.3 C 74 % 5.88 C
3622 17-02-2020 13:45:00 10.3 C 74 % 5.88 C
3623 17-02-2020 13:50:00 10.4 C 73 % 5.78 C
3624 17-02-2020 13:55:00 10.3 C 73 % 5.68 C
3625 17-02-2020 14:00:00 10.3 C 73 % 5.68 C
Sensor: Nr:Datum:Temp:Feuchte:Taupunkt:
Aussen-T/F 3626 17-02-2020 14:05:00 10.2 C 75 % 5.97 C
3627 17-02-2020 14:10:00 10.3 C 74 % 5.88 C
3628 17-02-2020 14:15:00 10.3 C 75 % 6.07 C
3629 17-02-2020 14:20:00 10.4 C 74 % 5.97 C
3630 17-02-2020 14:25:00 10.5 C 74 % 6.07 C
3631 17-02-2020 14:30:00 10.6 C 74 % 6.17 C
3632 17-02-2020 14:35:00 10.6 C 73 % 5.97 C
3633 17-02-2020 14:40:00 10.6 C 74 % 6.17 C
3634 17-02-2020 14:45:00 10.6 C 73 % 5.97 C
3635 17-02-2020 14:50:00 10.6 C 74 % 6.17 C
3636 17-02-2020 14:55:00 10.5 C 74 % 6.07 C
3637 17-02-2020 15:00:00 10.5 C 74 % 6.07 C
3638 17-02-2020 15:05:00 10.6 C 74 % 6.17 C
3639 17-02-2020 15:10:00 10.6 C 74 % 6.17 C
3640 17-02-2020 15:15:00 10.7 C 73 % 6.07 C
3641 17-02-2020 15:20:00 10.6 C 74 % 6.17 C
3642 17-02-2020 15:25:00 10.7 C 74 % 6.26 C
3643 17-02-2020 15:30:00 10.7 C 73 % 6.07 C
3644 17-02-2020 15:35:00 10.7 C 74 % 6.26 C
3645 17-02-2020 15:40:00 10.8 C 73 % 6.16 C
3646 17-02-2020 15:45:00 10.9 C 73 % 6.26 C
3647 17-02-2020 15:50:00 10.9 C 72 % 6.06 C
3648 17-02-2020 15:55:00 11.1 C 72 % 6.25 C
3649 17-02-2020 16:00:00 11.1 C 72 % 6.25 C
3650 17-02-2020 16:05:00 11.1 C 71 % 6.05 C
Sensor: Nr:Datum:Temp:Feuchte:Taupunkt:
Aussen-T/F 3651 17-02-2020 16:10:00 10.9 C 72 % 6.06 C
3652 17-02-2020 16:15:00 10.8 C 72 % 5.96 C
3653 17-02-2020 16:20:00 10.8 C 73 % 6.16 C
3654 17-02-2020 16:25:00 10.8 C 72 % 5.96 C
3655 17-02-2020 16:30:00 10.8 C 73 % 6.16 C
3656 17-02-2020 16:35:00 10.8 C 73 % 6.16 C
3657 17-02-2020 16:40:00 11 C 73 % 6.35 C
3658 17-02-2020 16:45:00 11.2 C 71 % 6.14 C
3659 17-02-2020 16:50:00 11.2 C 71 % 6.14 C
3660 17-02-2020 16:55:00 11.1 C 70 % 5.84 C
3661 17-02-2020 17:00:00 10.9 C 71 % 5.86 C
3662 17-02-2020 17:05:00 10.8 C 71 % 5.76 C
3663 17-02-2020 17:10:00 10.6 C 71 % 5.57 C
3664 17-02-2020 17:15:00 10.6 C 72 % 5.77 C
3665 17-02-2020 17:20:00 10.4 C 73 % 5.78 C
3666 17-02-2020 17:25:00 10.4 C 73 % 5.78 C
3667 17-02-2020 17:30:00 10.1 C 76 % 6.07 C
3668 17-02-2020 17:35:00 9.2 C 82 % 6.29 C
3669 17-02-2020 17:40:00 8.4 C 82 % 5.51 C
3670 17-02-2020 17:45:00 7.9 C 84 % 5.37 C
3671 17-02-2020 17:50:00 7.7 C 86 % 5.51 C
3672 17-02-2020 17:55:00 7.5 C 86 % 5.31 C
3673 17-02-2020 18:00:00 7.4 C 85 % 5.05 C
3674 17-02-2020 18:05:00 7.4 C 85 % 5.05 C
3675 17-02-2020 18:10:00 7.4 C 85 % 5.05 C
Sensor: Nr:Datum:Temp:Feuchte:Taupunkt:
Aussen-T/F 3676 17-02-2020 18:15:00 7.4 C 84 % 4.88 C
3677 17-02-2020 18:20:00 7.4 C 84 % 4.88 C
3678 17-02-2020 18:25:00 7.4 C 84 % 4.88 C
3679 17-02-2020 18:30:00 7.3 C 84 % 4.78 C
3680 17-02-2020 18:35:00 7.3 C 84 % 4.78 C
3681 17-02-2020 18:40:00 7.1 C 84 % 4.58 C
3682 17-02-2020 18:45:00 7.1 C 84 % 4.58 C
3683 17-02-2020 18:50:00 7.1 C 84 % 4.58 C
3684 17-02-2020 18:55:00 7.2 C 83 % 4.51 C
3685 17-02-2020 19:00:00 7.2 C 84 % 4.68 C
3686 17-02-2020 19:05:00 7.1 C 83 % 4.41 C
3687 17-02-2020 19:10:00 7 C 84 % 4.49 C
3688 17-02-2020 19:15:00 6.9 C 84 % 4.39 C
3689 17-02-2020 19:20:00 6.8 C 85 % 4.46 C
3690 17-02-2020 19:25:00 6.7 C 85 % 4.36 C
3691 17-02-2020 19:30:00 6.6 C 86 % 4.43 C
3692 17-02-2020 19:35:00 6.5 C 86 % 4.33 C
3693 17-02-2020 19:40:00 6.4 C 87 % 4.4 C
3694 17-02-2020 19:45:00 6.4 C 87 % 4.4 C
3695 17-02-2020 19:50:00 6.5 C 87 % 4.5 C
3696 17-02-2020 19:55:00 6.5 C 87 % 4.5 C
3697 17-02-2020 20:00:00 6.3 C 87 % 4.3 C
3698 17-02-2020 20:05:00 6.2 C 87 % 4.2 C
3699 17-02-2020 20:10:00 6 C 87 % 4 C
3700 17-02-2020 20:15:00 5.8 C 88 % 3.97 C
Sensor: Nr:Datum:Temp:Feuchte:Taupunkt:
Aussen-T/F 3701 17-02-2020 20:20:00 5.7 C 88 % 3.87 C
3702 17-02-2020 20:25:00 5.5 C 89 % 3.84 C
3703 17-02-2020 20:30:00 5.3 C 89 % 3.64 C
3704 17-02-2020 20:35:00 5.2 C 90 % 3.7 C
3705 17-02-2020 20:40:00 5.1 C 90 % 3.6 C
3706 17-02-2020 20:45:00 5.1 C 91 % 3.76 C
3707 17-02-2020 20:50:00 4.9 C 91 % 3.56 C
3708 17-02-2020 20:55:00 4.9 C 91 % 3.56 C
3709 17-02-2020 21:00:00 4.9 C 92 % 3.71 C
3710 17-02-2020 21:05:00 4.9 C 92 % 3.71 C
3711 17-02-2020 21:10:00 5.1 C 93 % 4.06 C
3712 17-02-2020 21:15:00 5.2 C 93 % 4.16 C
3713 17-02-2020 21:20:00 5.3 C 93 % 4.26 C
3714 17-02-2020 21:25:00 5.4 C 93 % 4.36 C
3715 17-02-2020 21:30:00 5.5 C 94 % 4.61 C
3716 17-02-2020 21:35:00 5.6 C 94 % 4.71 C
3717 17-02-2020 21:40:00 5.6 C 93 % 4.56 C
3718 17-02-2020 21:45:00 5.6 C 93 % 4.56 C
3719 17-02-2020 21:50:00 5.6 C 93 % 4.56 C
3720 17-02-2020 21:55:00 5.6 C 93 % 4.56 C
3721 17-02-2020 22:00:00 5.6 C 93 % 4.56 C
3722 17-02-2020 22:05:00 5.7 C 94 % 4.81 C
3723 17-02-2020 22:10:00 6 C 94 % 5.11 C
3724 17-02-2020 22:15:00 6.2 C 94 % 5.31 C
3725 17-02-2020 22:20:00 6.5 C 93 % 5.45 C
Sensor: Nr:Datum:Temp:Feuchte:Taupunkt:
Aussen-T/F 3726 17-02-2020 22:25:00 6.8 C 92 % 5.59 C
3727 17-02-2020 22:30:00 7.1 C 90 % 5.57 C
3728 17-02-2020 22:35:00 7.3 C 89 % 5.61 C
3729 17-02-2020 22:40:00 7.6 C 88 % 5.74 C
3730 17-02-2020 22:45:00 7.7 C 86 % 5.51 C
3731 17-02-2020 22:50:00 7.9 C 85 % 5.54 C
3732 17-02-2020 22:55:00 8.1 C 84 % 5.56 C
3733 17-02-2020 23:00:00 8.2 C 83 % 5.49 C
3734 17-02-2020 23:05:00 8.3 C 83 % 5.59 C
3735 17-02-2020 23:10:00 8.3 C 83 % 5.59 C
3736 17-02-2020 23:15:00 8.2 C 83 % 5.49 C
3737 17-02-2020 23:20:00 8.2 C 84 % 5.66 C
3738 17-02-2020 23:25:00 8.1 C 84 % 5.56 C
3739 17-02-2020 23:30:00 7.9 C 85 % 5.54 C
3740 17-02-2020 23:35:00 7.8 C 85 % 5.44 C
3741 17-02-2020 23:40:00 7.8 C 84 % 5.27 C
3742 17-02-2020 23:45:00 7.8 C 84 % 5.27 C
3743 17-02-2020 23:50:00 7.8 C 83 % 5.1 C
3744 17-02-2020 23:55:00 7.8 C 82 % 4.92 C
3745 18-02-2020 00:00:00 7.8 C 83 % 5.1 C
3746 18-02-2020 00:05:00 7.8 C 82 % 4.92 C
3747 18-02-2020 00:10:00 7.9 C 82 % 5.02 C
3748 18-02-2020 00:15:00 8 C 81 % 4.94 C
3749 18-02-2020 00:20:00 8 C 81 % 4.94 C
3750 18-02-2020 00:25:00 8 C 80 % 4.77 C
Sensor: Nr:Datum:Temp:Feuchte:Taupunkt:
Aussen-T/F 3751 18-02-2020 00:30:00 8.1 C 80 % 4.86 C
3752 18-02-2020 00:35:00 8.1 C 79 % 4.68 C
3753 18-02-2020 00:40:00 8.1 C 79 % 4.68 C
3754 18-02-2020 00:45:00 8.2 C 79 % 4.78 C
3755 18-02-2020 00:50:00 8.2 C 79 % 4.78 C
3756 18-02-2020 00:55:00 8.1 C 79 % 4.68 C
3757 18-02-2020 01:00:00 8.1 C 79 % 4.68 C
3758 18-02-2020 01:05:00 8.2 C 78 % 4.6 C
3759 18-02-2020 01:10:00 8.2 C 78 % 4.6 C
3760 18-02-2020 01:15:00 8.2 C 79 % 4.78 C
3761 18-02-2020 01:20:00 8.2 C 79 % 4.78 C
3762 18-02-2020 01:25:00 8.1 C 79 % 4.68 C
3763 18-02-2020 01:30:00 8.1 C 79 % 4.68 C
3764 18-02-2020 01:35:00 8 C 80 % 4.77 C
3765 18-02-2020 01:40:00 8 C 80 % 4.77 C
3766 18-02-2020 01:45:00 7.9 C 81 % 4.85 C
3767 18-02-2020 01:50:00 7.9 C 81 % 4.85 C
3768 18-02-2020 01:55:00 7.9 C 81 % 4.85 C
3769 18-02-2020 02:00:00 7.8 C 81 % 4.75 C
3770 18-02-2020 02:05:00 7.8 C 81 % 4.75 C
3771 18-02-2020 02:10:00 7.8 C 81 % 4.75 C
3772 18-02-2020 02:15:00 7.8 C 81 % 4.75 C
3773 18-02-2020 02:20:00 7.7 C 81 % 4.65 C
3774 18-02-2020 02:25:00 7.6 C 81 % 4.55 C
3775 18-02-2020 02:30:00 7.6 C 81 % 4.55 C
Sensor: Nr:Datum:Temp:Feuchte:Taupunkt:
Aussen-T/F 3776 18-02-2020 02:35:00 7.5 C 81 % 4.46 C
3777 18-02-2020 02:40:00 7.4 C 81 % 4.36 C
3778 18-02-2020 02:45:00 7.4 C 81 % 4.36 C
3779 18-02-2020 02:50:00 7.3 C 81 % 4.26 C
3780 18-02-2020 02:55:00 7.3 C 82 % 4.44 C
3781 18-02-2020 03:00:00 7.3 C 82 % 4.44 C
3782 18-02-2020 03:05:00 7.3 C 82 % 4.44 C
3783 18-02-2020 03:10:00 7.3 C 82 % 4.44 C
3784 18-02-2020 03:15:00 7.4 C 82 % 4.53 C
3785 18-02-2020 03:20:00 7.5 C 81 % 4.46 C
3786 18-02-2020 03:25:00 7.6 C 80 % 4.38 C
3787 18-02-2020 03:30:00 7.6 C 81 % 4.55 C
3788 18-02-2020 03:35:00 7.6 C 81 % 4.55 C
3789 18-02-2020 03:40:00 7.5 C 80 % 4.28 C
3790 18-02-2020 03:45:00 7.4 C 81 % 4.36 C
3791 18-02-2020 03:50:00 7.3 C 81 % 4.26 C
3792 18-02-2020 03:55:00 7.2 C 82 % 4.34 C
3793 18-02-2020 04:00:00 7.2 C 82 % 4.34 C
3794 18-02-2020 04:05:00 7.1 C 82 % 4.24 C
3795 18-02-2020 04:10:00 6.9 C 82 % 4.05 C
3796 18-02-2020 04:15:00 6.8 C 82 % 3.95 C
3797 18-02-2020 04:20:00 6.8 C 82 % 3.95 C
3798 18-02-2020 04:25:00 6.8 C 82 % 3.95 C
3799 18-02-2020 04:30:00 6.8 C 82 % 3.95 C
3800 18-02-2020 04:35:00 6.7 C 82 % 3.85 C
Sensor: Nr:Datum:Temp:Feuchte:Taupunkt:
Aussen-T/F 3801 18-02-2020 04:40:00 6.7 C 83 % 4.02 C
3802 18-02-2020 04:45:00 6.7 C 83 % 4.02 C
3803 18-02-2020 04:50:00 6.7 C 83 % 4.02 C
3804 18-02-2020 04:55:00 6.6 C 82 % 3.75 C
3805 18-02-2020 05:00:00 6.6 C 83 % 3.92 C
3806 18-02-2020 05:05:00 6.6 C 82 % 3.75 C
3807 18-02-2020 05:10:00 6.5 C 82 % 3.66 C
3808 18-02-2020 05:15:00 6.4 C 83 % 3.73 C
3809 18-02-2020 05:20:00 6.4 C 83 % 3.73 C
3810 18-02-2020 05:25:00 6.3 C 83 % 3.63 C
3811 18-02-2020 05:30:00 6.4 C 83 % 3.73 C
3812 18-02-2020 05:35:00 6.3 C 83 % 3.63 C
3813 18-02-2020 05:40:00 6.3 C 83 % 3.63 C
3814 18-02-2020 05:45:00 6.3 C 83 % 3.63 C
3815 18-02-2020 05:50:00 6.3 C 83 % 3.63 C
3816 18-02-2020 05:55:00 6.2 C 84 % 3.7 C
3817 18-02-2020 06:00:00 6.2 C 84 % 3.7 C
3818 18-02-2020 06:05:00 6.2 C 84 % 3.7 C
3819 18-02-2020 06:10:00 6.1 C 84 % 3.61 C
3820 18-02-2020 06:15:00 6.1 C 84 % 3.61 C
3821 18-02-2020 06:20:00 6 C 85 % 3.67 C
3822 18-02-2020 06:25:00 6.1 C 85 % 3.77 C
3823 18-02-2020 06:30:00 6.2 C 85 % 3.87 C
3824 18-02-2020 06:35:00 6.2 C 84 % 3.7 C
3825 18-02-2020 06:40:00 6.2 C 84 % 3.7 C
Sensor: Nr:Datum:Temp:Feuchte:Taupunkt:
Aussen-T/F 3826 18-02-2020 06:45:00 6.1 C 84 % 3.61 C
3827 18-02-2020 06:50:00 6.1 C 84 % 3.61 C
3828 18-02-2020 06:55:00 6.1 C 84 % 3.61 C
3829 18-02-2020 07:00:00 5.9 C 84 % 3.41 C
3830 18-02-2020 07:05:00 5.9 C 84 % 3.41 C
3831 18-02-2020 07:10:00 5.8 C 84 % 3.31 C
3832 18-02-2020 07:15:00 5.8 C 85 % 3.48 C
3833 18-02-2020 07:20:00 5.9 C 85 % 3.58 C
3834 18-02-2020 07:25:00 5.9 C 85 % 3.58 C
3835 18-02-2020 07:30:00 5.9 C 85 % 3.58 C
3836 18-02-2020 07:35:00 5.8 C 85 % 3.48 C
3837 18-02-2020 07:40:00 5.8 C 85 % 3.48 C
3838 18-02-2020 07:45:00 5.8 C 85 % 3.48 C
3839 18-02-2020 07:50:00 5.8 C 85 % 3.48 C
3840 18-02-2020 07:55:00 5.8 C 85 % 3.48 C
3841 18-02-2020 08:00:00 5.8 C 85 % 3.48 C
3842 18-02-2020 08:05:00 5.8 C 85 % 3.48 C
3843 18-02-2020 08:10:00 5.7 C 85 % 3.38 C
3844 18-02-2020 08:15:00 5.7 C 84 % 3.21 C
3845 18-02-2020 08:20:00 5.7 C 84 % 3.21 C
3846 18-02-2020 08:25:00 5.7 C 85 % 3.38 C
3847 18-02-2020 08:30:00 5.7 C 86 % 3.55 C
3848 18-02-2020 08:35:00 5.7 C 86 % 3.55 C
3849 18-02-2020 08:40:00 5.8 C 86 % 3.64 C
3850 18-02-2020 08:45:00 5.8 C 86 % 3.64 C
Sensor: Nr:Datum:Temp:Feuchte:Taupunkt:
Aussen-T/F 3851 18-02-2020 08:50:00 5.8 C 85 % 3.48 C
3852 18-02-2020 08:55:00 5.8 C 85 % 3.48 C
3853 18-02-2020 09:00:00 5.8 C 85 % 3.48 C
3854 18-02-2020 09:05:00 5.9 C 85 % 3.58 C
3855 18-02-2020 09:10:00 5.9 C 86 % 3.74 C
3856 18-02-2020 09:15:00 5.9 C 86 % 3.74 C
3857 18-02-2020 09:20:00 6 C 85 % 3.67 C
3858 18-02-2020 09:25:00 6.1 C 85 % 3.77 C
3859 18-02-2020 09:30:00 6.1 C 84 % 3.61 C
3860 18-02-2020 09:35:00 6.2 C 84 % 3.7 C
3861 18-02-2020 09:40:00 6.2 C 84 % 3.7 C
3862 18-02-2020 09:45:00 6.3 C 84 % 3.8 C
3863 18-02-2020 09:50:00 6.4 C 83 % 3.73 C
3864 18-02-2020 09:55:00 6.6 C 83 % 3.92 C
3865 18-02-2020 10:00:00 6.6 C 82 % 3.75 C
3866 18-02-2020 10:05:00 6.7 C 81 % 3.68 C
3867 18-02-2020 10:10:00 6.7 C 81 % 3.68 C
3868 18-02-2020 10:15:00 6.7 C 81 % 3.68 C
3869 18-02-2020 10:20:00 6.7 C 81 % 3.68 C
3870 18-02-2020 10:25:00 6.6 C 81 % 3.58 C
3871 18-02-2020 10:30:00 6.7 C 81 % 3.68 C
3872 18-02-2020 10:35:00 6.8 C 80 % 3.6 C
3873 18-02-2020 10:40:00 6.8 C 80 % 3.6 C
3874 18-02-2020 10:45:00 6.9 C 79 % 3.52 C
3875 18-02-2020 10:50:00 7 C 79 % 3.61 C
Sensor: Nr:Datum:Temp:Feuchte:Taupunkt:
Aussen-T/F 3876 18-02-2020 10:55:00 7.1 C 79 % 3.71 C
3877 18-02-2020 11:00:00 7.2 C 79 % 3.81 C
3878 18-02-2020 11:05:00 7.3 C 79 % 3.91 C
3879 18-02-2020 11:10:00 7.3 C 79 % 3.91 C
3880 18-02-2020 11:15:00 7.3 C 78 % 3.73 C
3881 18-02-2020 11:20:00 7.3 C 78 % 3.73 C
3882 18-02-2020 11:25:00 7.3 C 78 % 3.73 C
3883 18-02-2020 11:30:00 7.4 C 78 % 3.82 C
3884 18-02-2020 11:35:00 7.5 C 78 % 3.92 C
3885 18-02-2020 11:40:00 7.6 C 77 % 3.83 C
3886 18-02-2020 11:45:00 7.7 C 77 % 3.93 C
3887 18-02-2020 11:50:00 7.7 C 77 % 3.93 C
3888 18-02-2020 11:55:00 7.8 C 77 % 4.03 C
3889 18-02-2020 12:00:00 7.8 C 77 % 4.03 C
3890 18-02-2020 12:05:00 7.8 C 77 % 4.03 C
3891 18-02-2020 12:10:00 7.9 C 77 % 4.12 C
3892 18-02-2020 12:15:00 8.1 C 77 % 4.32 C
3893 18-02-2020 12:20:00 8.1 C 77 % 4.32 C
3894 18-02-2020 12:25:00 8.1 C 75 % 3.94 C
3895 18-02-2020 12:30:00 8.1 C 75 % 3.94 C
3896 18-02-2020 12:35:00 8.1 C 75 % 3.94 C
3897 18-02-2020 12:40:00 8.1 C 74 % 3.75 C
3898 18-02-2020 12:45:00 8.1 C 75 % 3.94 C
3899 18-02-2020 12:50:00 8.2 C 76 % 4.23 C
3900 18-02-2020 12:55:00 8.4 C 74 % 4.04 C
Sensor: